<?xml version="1.0" encoding="UTF-8" standalone="no" ?>
<gpx xmlns="http://www.topografix.com/GPX/1/1" xmlns:xsi="http://www.w3.org/2001/XMLSchema-instance" xsi:schemaLocation="http://www.topografix.com/GPX/1/1 http://www.topografix.com/GPX/1/1/gpx.xsd" version="1.1" creator="VisuGPX - https://www.visugpx.com">
  <metadata>
    <name>64 - VTT - Randonnée La Parbaysienne - Parbayse</name>
    <desc><![CDATA[Belle sortie sous le soleil]]></desc>
  </metadata>
  <trk>
    <name><![CDATA[ACTIVE LOG 003]]></name>
    <trkseg>
      <trkpt lat="43.32858" lon="-0.53891">
        <ele>134.241211</ele>
        <time>2014-09-21T06:41:17Z</time>
      </trkpt>
      <trkpt lat="43.32858" lon="-0.53891">
        <ele>131.837891</ele>
        <time>2014-09-21T06:41:18Z</time>
      </trkpt>
      <trkpt lat="43.32855" lon="-0.53891">
        <ele>133.279907</ele>
        <time>2014-09-21T06:41:39Z</time>
      </trkpt>
      <trkpt lat="43.3286" lon="-0.53892">
        <ele>133.279907</ele>
        <time>2014-09-21T06:41:59Z</time>
      </trkpt>
      <trkpt lat="43.32865" lon="-0.53908">
        <ele>133.279907</ele>
        <time>2014-09-21T06:42:14Z</time>
      </trkpt>
      <trkpt lat="43.32865" lon="-0.53913">
        <ele>133.760498</ele>
        <time>2014-09-21T06:42:32Z</time>
      </trkpt>
      <trkpt lat="43.32865" lon="-0.53913">
        <ele>133.279907</ele>
        <time>2014-09-21T06:42:56Z</time>
      </trkpt>
      <trkpt lat="43.32883" lon="-0.53933">
        <ele>134.241211</ele>
        <time>2014-09-21T06:43:08Z</time>
      </trkpt>
      <trkpt lat="43.32894" lon="-0.53924">
        <ele>135.202515</ele>
        <time>2014-09-21T06:43:13Z</time>
      </trkpt>
      <trkpt lat="43.32924" lon="-0.53845">
        <ele>134.241211</ele>
        <time>2014-09-21T06:43:32Z</time>
      </trkpt>
      <trkpt lat="43.32975" lon="-0.5377">
        <ele>133.760498</ele>
        <time>2014-09-21T06:43:52Z</time>
      </trkpt>
      <trkpt lat="43.33068" lon="-0.53711">
        <ele>132.799316</ele>
        <time>2014-09-21T06:44:15Z</time>
      </trkpt>
      <trkpt lat="43.33152" lon="-0.53638">
        <ele>133.279907</ele>
        <time>2014-09-21T06:44:38Z</time>
      </trkpt>
      <trkpt lat="43.33225" lon="-0.53541">
        <ele>132.318604</ele>
        <time>2014-09-21T06:45:03Z</time>
      </trkpt>
      <trkpt lat="43.33302" lon="-0.53439">
        <ele>133.279907</ele>
        <time>2014-09-21T06:45:28Z</time>
      </trkpt>
      <trkpt lat="43.33353" lon="-0.53373">
        <ele>134.721924</ele>
        <time>2014-09-21T06:45:48Z</time>
      </trkpt>
      <trkpt lat="43.33363" lon="-0.53382">
        <ele>134.241211</ele>
        <time>2014-09-21T06:45:53Z</time>
      </trkpt>
      <trkpt lat="43.33371" lon="-0.53403">
        <ele>134.721924</ele>
        <time>2014-09-21T06:45:58Z</time>
      </trkpt>
      <trkpt lat="43.33376" lon="-0.53413">
        <ele>135.202515</ele>
        <time>2014-09-21T06:46:00Z</time>
      </trkpt>
      <trkpt lat="43.33414" lon="-0.53454">
        <ele>133.760498</ele>
        <time>2014-09-21T06:46:11Z</time>
      </trkpt>
      <trkpt lat="43.33492" lon="-0.53487">
        <ele>132.799316</ele>
        <time>2014-09-21T06:46:26Z</time>
      </trkpt>
      <trkpt lat="43.33511" lon="-0.53493">
        <ele>132.318604</ele>
        <time>2014-09-21T06:46:30Z</time>
      </trkpt>
      <trkpt lat="43.33525" lon="-0.53498">
        <ele>132.318604</ele>
        <time>2014-09-21T06:46:33Z</time>
      </trkpt>
      <trkpt lat="43.3355" lon="-0.53506">
        <ele>131.837891</ele>
        <time>2014-09-21T06:46:38Z</time>
      </trkpt>
      <trkpt lat="43.33588" lon="-0.53518">
        <ele>130.876709</ele>
        <time>2014-09-21T06:46:46Z</time>
      </trkpt>
      <trkpt lat="43.33626" lon="-0.53552">
        <ele>132.318604</ele>
        <time>2014-09-21T06:46:57Z</time>
      </trkpt>
      <trkpt lat="43.3366" lon="-0.53603">
        <ele>132.318604</ele>
        <time>2014-09-21T06:47:07Z</time>
      </trkpt>
      <trkpt lat="43.3367" lon="-0.53621">
        <ele>131.837891</ele>
        <time>2014-09-21T06:47:10Z</time>
      </trkpt>
      <trkpt lat="43.3374" lon="-0.53729">
        <ele>130.876709</ele>
        <time>2014-09-21T06:47:31Z</time>
      </trkpt>
      <trkpt lat="43.3378" lon="-0.53788">
        <ele>131.837891</ele>
        <time>2014-09-21T06:47:45Z</time>
      </trkpt>
      <trkpt lat="43.33787" lon="-0.53804">
        <ele>132.318604</ele>
        <time>2014-09-21T06:47:49Z</time>
      </trkpt>
      <trkpt lat="43.33815" lon="-0.53846">
        <ele>131.837891</ele>
        <time>2014-09-21T06:47:58Z</time>
      </trkpt>
      <trkpt lat="43.33877" lon="-0.53895">
        <ele>130.876709</ele>
        <time>2014-09-21T06:48:12Z</time>
      </trkpt>
      <trkpt lat="43.33899" lon="-0.53905">
        <ele>130.395996</ele>
        <time>2014-09-21T06:48:17Z</time>
      </trkpt>
      <trkpt lat="43.3394" lon="-0.53932">
        <ele>130.876709</ele>
        <time>2014-09-21T06:48:29Z</time>
      </trkpt>
      <trkpt lat="43.33974" lon="-0.53957">
        <ele>131.3573</ele>
        <time>2014-09-21T06:48:39Z</time>
      </trkpt>
      <trkpt lat="43.34002" lon="-0.53983">
        <ele>132.799316</ele>
        <time>2014-09-21T06:48:46Z</time>
      </trkpt>
      <trkpt lat="43.34025" lon="-0.54004">
        <ele>132.799316</ele>
        <time>2014-09-21T06:48:51Z</time>
      </trkpt>
      <trkpt lat="43.34074" lon="-0.54077">
        <ele>132.799316</ele>
        <time>2014-09-21T06:49:06Z</time>
      </trkpt>
      <trkpt lat="43.34083" lon="-0.54094">
        <ele>132.318604</ele>
        <time>2014-09-21T06:49:09Z</time>
      </trkpt>
      <trkpt lat="43.34096" lon="-0.54115">
        <ele>132.318604</ele>
        <time>2014-09-21T06:49:13Z</time>
      </trkpt>
      <trkpt lat="43.34137" lon="-0.54163">
        <ele>130.876709</ele>
        <time>2014-09-21T06:49:23Z</time>
      </trkpt>
      <trkpt lat="43.34194" lon="-0.54206">
        <ele>127.031372</ele>
        <time>2014-09-21T06:49:32Z</time>
      </trkpt>
      <trkpt lat="43.34235" lon="-0.5423">
        <ele>127.511963</ele>
        <time>2014-09-21T06:49:39Z</time>
      </trkpt>
      <trkpt lat="43.34248" lon="-0.54242">
        <ele>127.992554</ele>
        <time>2014-09-21T06:49:42Z</time>
      </trkpt>
      <trkpt lat="43.34288" lon="-0.54312">
        <ele>129.434692</ele>
        <time>2014-09-21T06:49:54Z</time>
      </trkpt>
      <trkpt lat="43.34302" lon="-0.54337">
        <ele>129.915283</ele>
        <time>2014-09-21T06:49:58Z</time>
      </trkpt>
      <trkpt lat="43.34317" lon="-0.54396">
        <ele>129.434692</ele>
        <time>2014-09-21T06:50:05Z</time>
      </trkpt>
      <trkpt lat="43.3434" lon="-0.54442">
        <ele>127.992554</ele>
        <time>2014-09-21T06:50:11Z</time>
      </trkpt>
      <trkpt lat="43.34408" lon="-0.54506">
        <ele>128.473389</ele>
        <time>2014-09-21T06:50:25Z</time>
      </trkpt>
      <trkpt lat="43.34458" lon="-0.54514">
        <ele>129.434692</ele>
        <time>2014-09-21T06:50:34Z</time>
      </trkpt>
      <trkpt lat="43.34484" lon="-0.54527">
        <ele>129.915283</ele>
        <time>2014-09-21T06:50:39Z</time>
      </trkpt>
      <trkpt lat="43.34528" lon="-0.54548">
        <ele>131.3573</ele>
        <time>2014-09-21T06:50:51Z</time>
      </trkpt>
      <trkpt lat="43.34535" lon="-0.54547">
        <ele>131.3573</ele>
        <time>2014-09-21T06:50:53Z</time>
      </trkpt>
      <trkpt lat="43.34551" lon="-0.54541">
        <ele>130.876709</ele>
        <time>2014-09-21T06:50:57Z</time>
      </trkpt>
      <trkpt lat="43.34584" lon="-0.54564">
        <ele>130.876709</ele>
        <time>2014-09-21T06:51:06Z</time>
      </trkpt>
      <trkpt lat="43.34591" lon="-0.54584">
        <ele>131.3573</ele>
        <time>2014-09-21T06:51:09Z</time>
      </trkpt>
      <trkpt lat="43.34597" lon="-0.54609">
        <ele>131.3573</ele>
        <time>2014-09-21T06:51:13Z</time>
      </trkpt>
      <trkpt lat="43.34608" lon="-0.54652">
        <ele>131.837891</ele>
        <time>2014-09-21T06:51:20Z</time>
      </trkpt>
      <trkpt lat="43.34629" lon="-0.54665">
        <ele>133.279907</ele>
        <time>2014-09-21T06:51:26Z</time>
      </trkpt>
      <trkpt lat="43.34658" lon="-0.54675">
        <ele>133.760498</ele>
        <time>2014-09-21T06:51:37Z</time>
      </trkpt>
      <trkpt lat="43.34662" lon="-0.54678">
        <ele>133.760498</ele>
        <time>2014-09-21T06:51:38Z</time>
      </trkpt>
      <trkpt lat="43.3471" lon="-0.54717">
        <ele>132.799316</ele>
        <time>2014-09-21T06:51:47Z</time>
      </trkpt>
      <trkpt lat="43.34766" lon="-0.54776">
        <ele>132.799316</ele>
        <time>2014-09-21T06:52:01Z</time>
      </trkpt>
      <trkpt lat="43.34803" lon="-0.54824">
        <ele>129.434692</ele>
        <time>2014-09-21T06:52:08Z</time>
      </trkpt>
      <trkpt lat="43.34807" lon="-0.54829">
        <ele>129.434692</ele>
        <time>2014-09-21T06:52:09Z</time>
      </trkpt>
      <trkpt lat="43.34829" lon="-0.54829">
        <ele>129.434692</ele>
        <time>2014-09-21T06:52:17Z</time>
      </trkpt>
      <trkpt lat="43.34837" lon="-0.54804">
        <ele>130.876709</ele>
        <time>2014-09-21T06:52:23Z</time>
      </trkpt>
      <trkpt lat="43.34861" lon="-0.54779">
        <ele>132.799316</ele>
        <time>2014-09-21T06:52:35Z</time>
      </trkpt>
      <trkpt lat="43.34874" lon="-0.54767">
        <ele>134.721924</ele>
        <time>2014-09-21T06:52:41Z</time>
      </trkpt>
      <trkpt lat="43.349" lon="-0.54727">
        <ele>138.086548</ele>
        <time>2014-09-21T06:52:56Z</time>
      </trkpt>
      <trkpt lat="43.34914" lon="-0.54685">
        <ele>139.528442</ele>
        <time>2014-09-21T06:53:08Z</time>
      </trkpt>
      <trkpt lat="43.34934" lon="-0.54639">
        <ele>141.931763</ele>
        <time>2014-09-21T06:53:24Z</time>
      </trkpt>
      <trkpt lat="43.34954" lon="-0.54631">
        <ele>144.815796</ele>
        <time>2014-09-21T06:53:34Z</time>
      </trkpt>
      <trkpt lat="43.34978" lon="-0.54634">
        <ele>147.699707</ele>
        <time>2014-09-21T06:53:48Z</time>
      </trkpt>
      <trkpt lat="43.34989" lon="-0.54638">
        <ele>150.103027</ele>
        <time>2014-09-21T06:53:54Z</time>
      </trkpt>
      <trkpt lat="43.35014" lon="-0.54644">
        <ele>152.506348</ele>
        <time>2014-09-21T06:54:08Z</time>
      </trkpt>
      <trkpt lat="43.35034" lon="-0.54649">
        <ele>155.870972</ele>
        <time>2014-09-21T06:54:20Z</time>
      </trkpt>
      <trkpt lat="43.35065" lon="-0.5465">
        <ele>157.793579</ele>
        <time>2014-09-21T06:54:39Z</time>
      </trkpt>
      <trkpt lat="43.35081" lon="-0.54657">
        <ele>161.158203</ele>
        <time>2014-09-21T06:54:49Z</time>
      </trkpt>
      <trkpt lat="43.35086" lon="-0.54659">
        <ele>161.638916</ele>
        <time>2014-09-21T06:54:53Z</time>
      </trkpt>
      <trkpt lat="43.35099" lon="-0.54646">
        <ele>163.080811</ele>
        <time>2014-09-21T06:55:03Z</time>
      </trkpt>
      <trkpt lat="43.35121" lon="-0.5462">
        <ele>165.003418</ele>
        <time>2014-09-21T06:55:16Z</time>
      </trkpt>
      <trkpt lat="43.35139" lon="-0.54604">
        <ele>166.445313</ele>
        <time>2014-09-21T06:55:27Z</time>
      </trkpt>
      <trkpt lat="43.35155" lon="-0.54578">
        <ele>167.887329</ele>
        <time>2014-09-21T06:55:39Z</time>
      </trkpt>
      <trkpt lat="43.35159" lon="-0.54559">
        <ele>171.252075</ele>
        <time>2014-09-21T06:55:50Z</time>
      </trkpt>
      <trkpt lat="43.35159" lon="-0.54558">
        <ele>171.252075</ele>
        <time>2014-09-21T06:55:51Z</time>
      </trkpt>
      <trkpt lat="43.35157" lon="-0.54546">
        <ele>172.69397</ele>
        <time>2014-09-21T06:55:56Z</time>
      </trkpt>
      <trkpt lat="43.3516" lon="-0.54511">
        <ele>175.577881</ele>
        <time>2014-09-21T06:56:09Z</time>
      </trkpt>
      <trkpt lat="43.35161" lon="-0.54483">
        <ele>178.942627</ele>
        <time>2014-09-21T06:56:21Z</time>
      </trkpt>
      <trkpt lat="43.35165" lon="-0.54463">
        <ele>181.826416</ele>
        <time>2014-09-21T06:56:30Z</time>
      </trkpt>
      <trkpt lat="43.3518" lon="-0.54413">
        <ele>183.268433</ele>
        <time>2014-09-21T06:56:50Z</time>
      </trkpt>
      <trkpt lat="43.35198" lon="-0.54327">
        <ele>182.307129</ele>
        <time>2014-09-21T06:57:09Z</time>
      </trkpt>
      <trkpt lat="43.35199" lon="-0.54322">
        <ele>182.787842</ele>
        <time>2014-09-21T06:57:10Z</time>
      </trkpt>
      <trkpt lat="43.35193" lon="-0.54267">
        <ele>182.307129</ele>
        <time>2014-09-21T06:57:21Z</time>
      </trkpt>
      <trkpt lat="43.35179" lon="-0.54209">
        <ele>184.229858</ele>
        <time>2014-09-21T06:57:38Z</time>
      </trkpt>
      <trkpt lat="43.3517" lon="-0.54178">
        <ele>187.59436</ele>
        <time>2014-09-21T06:57:48Z</time>
      </trkpt>
      <trkpt lat="43.35174" lon="-0.54145">
        <ele>190.958984</ele>
        <time>2014-09-21T06:58:01Z</time>
      </trkpt>
      <trkpt lat="43.35186" lon="-0.54103">
        <ele>194.32373</ele>
        <time>2014-09-21T06:58:19Z</time>
      </trkpt>
      <trkpt lat="43.35192" lon="-0.54079">
        <ele>197.688232</ele>
        <time>2014-09-21T06:58:31Z</time>
      </trkpt>
      <trkpt lat="43.35179" lon="-0.54058">
        <ele>200.091675</ele>
        <time>2014-09-21T06:58:46Z</time>
      </trkpt>
      <trkpt lat="43.35147" lon="-0.54043">
        <ele>201.533569</ele>
        <time>2014-09-21T06:59:02Z</time>
      </trkpt>
      <trkpt lat="43.35112" lon="-0.54034">
        <ele>202.494873</ele>
        <time>2014-09-21T06:59:16Z</time>
      </trkpt>
      <trkpt lat="43.3509" lon="-0.54006">
        <ele>202.014282</ele>
        <time>2014-09-21T06:59:27Z</time>
      </trkpt>
      <trkpt lat="43.35078" lon="-0.53979">
        <ele>201.052856</ele>
        <time>2014-09-21T06:59:33Z</time>
      </trkpt>
      <trkpt lat="43.35062" lon="-0.53935">
        <ele>200.091675</ele>
        <time>2014-09-21T06:59:39Z</time>
      </trkpt>
      <trkpt lat="43.35056" lon="-0.53866">
        <ele>199.61084</ele>
        <time>2014-09-21T06:59:49Z</time>
      </trkpt>
      <trkpt lat="43.35047" lon="-0.53804">
        <ele>197.688232</ele>
        <time>2014-09-21T07:00:00Z</time>
      </trkpt>
      <trkpt lat="43.35045" lon="-0.53796">
        <ele>197.688232</ele>
        <time>2014-09-21T07:00:01Z</time>
      </trkpt>
      <trkpt lat="43.3504" lon="-0.53766">
        <ele>195.765625</ele>
        <time>2014-09-21T07:00:04Z</time>
      </trkpt>
      <trkpt lat="43.35025" lon="-0.5369">
        <ele>192.881714</ele>
        <time>2014-09-21T07:00:12Z</time>
      </trkpt>
      <trkpt lat="43.35008" lon="-0.53643">
        <ele>195.284912</ele>
        <time>2014-09-21T07:00:19Z</time>
      </trkpt>
      <trkpt lat="43.35006" lon="-0.5363">
        <ele>195.284912</ele>
        <time>2014-09-21T07:00:21Z</time>
      </trkpt>
      <trkpt lat="43.35003" lon="-0.53618">
        <ele>196.246338</ele>
        <time>2014-09-21T07:00:23Z</time>
      </trkpt>
      <trkpt lat="43.35" lon="-0.53525">
        <ele>197.688232</ele>
        <time>2014-09-21T07:00:39Z</time>
      </trkpt>
      <trkpt lat="43.35002" lon="-0.53462">
        <ele>198.649536</ele>
        <time>2014-09-21T07:00:49Z</time>
      </trkpt>
      <trkpt lat="43.34995" lon="-0.53373">
        <ele>200.091675</ele>
        <time>2014-09-21T07:01:04Z</time>
      </trkpt>
      <trkpt lat="43.34975" lon="-0.53322">
        <ele>200.091675</ele>
        <time>2014-09-21T07:01:17Z</time>
      </trkpt>
      <trkpt lat="43.34967" lon="-0.53292">
        <ele>202.494873</ele>
        <time>2014-09-21T07:01:24Z</time>
      </trkpt>
      <trkpt lat="43.34965" lon="-0.5328">
        <ele>203.456177</ele>
        <time>2014-09-21T07:01:28Z</time>
      </trkpt>
      <trkpt lat="43.3496" lon="-0.53241">
        <ele>204.41748</ele>
        <time>2014-09-21T07:01:41Z</time>
      </trkpt>
      <trkpt lat="43.34933" lon="-0.53194">
        <ele>202.975464</ele>
        <time>2014-09-21T07:01:52Z</time>
      </trkpt>
      <trkpt lat="43.34931" lon="-0.5319">
        <ele>203.456177</ele>
        <time>2014-09-21T07:01:53Z</time>
      </trkpt>
      <trkpt lat="43.34909" lon="-0.53172">
        <ele>201.533569</ele>
        <time>2014-09-21T07:01:59Z</time>
      </trkpt>
      <trkpt lat="43.34864" lon="-0.53171">
        <ele>198.649536</ele>
        <time>2014-09-21T07:02:07Z</time>
      </trkpt>
      <trkpt lat="43.34851" lon="-0.5317">
        <ele>198.168945</ele>
        <time>2014-09-21T07:02:09Z</time>
      </trkpt>
      <trkpt lat="43.34827" lon="-0.53166">
        <ele>197.688232</ele>
        <time>2014-09-21T07:02:13Z</time>
      </trkpt>
      <trkpt lat="43.34785" lon="-0.53182">
        <ele>199.130127</ele>
        <time>2014-09-21T07:02:25Z</time>
      </trkpt>
      <trkpt lat="43.34746" lon="-0.5323">
        <ele>202.494873</ele>
        <time>2014-09-21T07:02:42Z</time>
      </trkpt>
      <trkpt lat="43.34725" lon="-0.53261">
        <ele>202.975464</ele>
        <time>2014-09-21T07:02:53Z</time>
      </trkpt>
      <trkpt lat="43.34708" lon="-0.53314">
        <ele>203.93689</ele>
        <time>2014-09-21T07:03:06Z</time>
      </trkpt>
      <trkpt lat="43.34701" lon="-0.5336">
        <ele>203.456177</ele>
        <time>2014-09-21T07:03:16Z</time>
      </trkpt>
      <trkpt lat="43.34692" lon="-0.53407">
        <ele>204.41748</ele>
        <time>2014-09-21T07:03:28Z</time>
      </trkpt>
      <trkpt lat="43.34673" lon="-0.53459">
        <ele>207.301392</ele>
        <time>2014-09-21T07:03:44Z</time>
      </trkpt>
      <trkpt lat="43.34659" lon="-0.53491">
        <ele>209.224121</ele>
        <time>2014-09-21T07:03:55Z</time>
      </trkpt>
      <trkpt lat="43.34648" lon="-0.5353">
        <ele>211.627441</ele>
        <time>2014-09-21T07:04:08Z</time>
      </trkpt>
      <trkpt lat="43.34639" lon="-0.53564">
        <ele>214.03064</ele>
        <time>2014-09-21T07:04:19Z</time>
      </trkpt>
      <trkpt lat="43.34624" lon="-0.53595">
        <ele>214.991943</ele>
        <time>2014-09-21T07:04:30Z</time>
      </trkpt>
      <trkpt lat="43.34608" lon="-0.53621">
        <ele>216.914673</ele>
        <time>2014-09-21T07:04:40Z</time>
      </trkpt>
      <trkpt lat="43.34589" lon="-0.53642">
        <ele>220.279175</ele>
        <time>2014-09-21T07:04:51Z</time>
      </trkpt>
      <trkpt lat="43.34582" lon="-0.53649">
        <ele>220.279175</ele>
        <time>2014-09-21T07:04:55Z</time>
      </trkpt>
      <trkpt lat="43.34571" lon="-0.53649">
        <ele>221.240601</ele>
        <time>2014-09-21T07:05:05Z</time>
      </trkpt>
      <trkpt lat="43.34571" lon="-0.53645">
        <ele>221.721191</ele>
        <time>2014-09-21T07:05:08Z</time>
      </trkpt>
      <trkpt lat="43.34578" lon="-0.5361">
        <ele>225.566528</ele>
        <time>2014-09-21T07:05:24Z</time>
      </trkpt>
      <trkpt lat="43.34579" lon="-0.53608">
        <ele>225.566528</ele>
        <time>2014-09-21T07:05:25Z</time>
      </trkpt>
      <trkpt lat="43.34584" lon="-0.53574">
        <ele>228.931152</ele>
        <time>2014-09-21T07:05:38Z</time>
      </trkpt>
      <trkpt lat="43.34585" lon="-0.53572">
        <ele>228.450439</ele>
        <time>2014-09-21T07:05:39Z</time>
      </trkpt>
      <trkpt lat="43.34587" lon="-0.53558">
        <ele>229.411743</ele>
        <time>2014-09-21T07:05:44Z</time>
      </trkpt>
      <trkpt lat="43.34586" lon="-0.53516">
        <ele>230.373047</ele>
        <time>2014-09-21T07:05:58Z</time>
      </trkpt>
      <trkpt lat="43.34584" lon="-0.5347">
        <ele>232.776489</ele>
        <time>2014-09-21T07:06:13Z</time>
      </trkpt>
      <trkpt lat="43.34581" lon="-0.53441">
        <ele>235.660278</ele>
        <time>2014-09-21T07:06:25Z</time>
      </trkpt>
      <trkpt lat="43.34579" lon="-0.53417">
        <ele>238.544312</ele>
        <time>2014-09-21T07:06:36Z</time>
      </trkpt>
      <trkpt lat="43.34577" lon="-0.53394">
        <ele>241.428223</ele>
        <time>2014-09-21T07:06:46Z</time>
      </trkpt>
      <trkpt lat="43.34574" lon="-0.53364">
        <ele>244.792847</ele>
        <time>2014-09-21T07:06:58Z</time>
      </trkpt>
      <trkpt lat="43.34569" lon="-0.53332">
        <ele>245.273438</ele>
        <time>2014-09-21T07:07:09Z</time>
      </trkpt>
      <trkpt lat="43.34561" lon="-0.53264">
        <ele>245.75415</ele>
        <time>2014-09-21T07:07:24Z</time>
      </trkpt>
      <trkpt lat="43.34554" lon="-0.53227">
        <ele>248.638184</ele>
        <time>2014-09-21T07:07:34Z</time>
      </trkpt>
      <trkpt lat="43.34551" lon="-0.53193">
        <ele>251.522095</ele>
        <time>2014-09-21T07:07:45Z</time>
      </trkpt>
      <trkpt lat="43.34552" lon="-0.53191">
        <ele>251.522095</ele>
        <time>2014-09-21T07:07:46Z</time>
      </trkpt>
      <trkpt lat="43.34554" lon="-0.53164">
        <ele>253.925415</ele>
        <time>2014-09-21T07:08:00Z</time>
      </trkpt>
      <trkpt lat="43.34551" lon="-0.53146">
        <ele>254.886597</ele>
        <time>2014-09-21T07:08:07Z</time>
      </trkpt>
      <trkpt lat="43.34549" lon="-0.53133">
        <ele>256.328735</ele>
        <time>2014-09-21T07:08:12Z</time>
      </trkpt>
      <trkpt lat="43.34546" lon="-0.53093">
        <ele>258.731934</ele>
        <time>2014-09-21T07:08:25Z</time>
      </trkpt>
      <trkpt lat="43.34538" lon="-0.53063">
        <ele>260.654541</ele>
        <time>2014-09-21T07:08:37Z</time>
      </trkpt>
      <trkpt lat="43.34526" lon="-0.53032">
        <ele>261.135254</ele>
        <time>2014-09-21T07:08:51Z</time>
      </trkpt>
      <trkpt lat="43.34505" lon="-0.53004">
        <ele>257.770752</ele>
        <time>2014-09-21T07:09:02Z</time>
      </trkpt>
      <trkpt lat="43.34488" lon="-0.52968">
        <ele>255.36731</ele>
        <time>2014-09-21T07:09:12Z</time>
      </trkpt>
      <trkpt lat="43.34484" lon="-0.52961">
        <ele>254.406006</ele>
        <time>2014-09-21T07:09:15Z</time>
      </trkpt>
      <trkpt lat="43.3447" lon="-0.52943">
        <ele>252.483398</ele>
        <time>2014-09-21T07:09:20Z</time>
      </trkpt>
      <trkpt lat="43.34462" lon="-0.52934">
        <ele>250.560791</ele>
        <time>2014-09-21T07:09:23Z</time>
      </trkpt>
      <trkpt lat="43.34457" lon="-0.52926">
        <ele>249.118774</ele>
        <time>2014-09-21T07:09:25Z</time>
      </trkpt>
      <trkpt lat="43.34447" lon="-0.52903">
        <ele>246.234863</ele>
        <time>2014-09-21T07:09:29Z</time>
      </trkpt>
      <trkpt lat="43.34442" lon="-0.5289">
        <ele>245.75415</ele>
        <time>2014-09-21T07:09:31Z</time>
      </trkpt>
      <trkpt lat="43.34431" lon="-0.52858">
        <ele>244.792847</ele>
        <time>2014-09-21T07:09:36Z</time>
      </trkpt>
      <trkpt lat="43.34426" lon="-0.52844">
        <ele>243.35083</ele>
        <time>2014-09-21T07:09:39Z</time>
      </trkpt>
      <trkpt lat="43.34413" lon="-0.5281">
        <ele>243.831543</ele>
        <time>2014-09-21T07:09:49Z</time>
      </trkpt>
      <trkpt lat="43.34392" lon="-0.5281">
        <ele>243.35083</ele>
        <time>2014-09-21T07:09:57Z</time>
      </trkpt>
      <trkpt lat="43.34386" lon="-0.52812">
        <ele>243.831543</ele>
        <time>2014-09-21T07:10:00Z</time>
      </trkpt>
      <trkpt lat="43.34375" lon="-0.52824">
        <ele>243.831543</ele>
        <time>2014-09-21T07:10:06Z</time>
      </trkpt>
      <trkpt lat="43.34373" lon="-0.52828">
        <ele>244.312256</ele>
        <time>2014-09-21T07:10:08Z</time>
      </trkpt>
      <trkpt lat="43.34369" lon="-0.5284">
        <ele>244.312256</ele>
        <time>2014-09-21T07:10:12Z</time>
      </trkpt>
      <trkpt lat="43.34363" lon="-0.52854">
        <ele>245.75415</ele>
        <time>2014-09-21T07:10:16Z</time>
      </trkpt>
      <trkpt lat="43.34361" lon="-0.52858">
        <ele>245.273438</ele>
        <time>2014-09-21T07:10:17Z</time>
      </trkpt>
      <trkpt lat="43.34347" lon="-0.52872">
        <ele>246.234863</ele>
        <time>2014-09-21T07:10:24Z</time>
      </trkpt>
      <trkpt lat="43.34324" lon="-0.52904">
        <ele>243.831543</ele>
        <time>2014-09-21T07:10:34Z</time>
      </trkpt>
      <trkpt lat="43.34307" lon="-0.52921">
        <ele>242.389648</ele>
        <time>2014-09-21T07:10:38Z</time>
      </trkpt>
      <trkpt lat="43.34289" lon="-0.52935">
        <ele>240.947632</ele>
        <time>2014-09-21T07:10:42Z</time>
      </trkpt>
      <trkpt lat="43.34282" lon="-0.52953">
        <ele>239.024902</ele>
        <time>2014-09-21T07:10:46Z</time>
      </trkpt>
      <trkpt lat="43.34278" lon="-0.52962">
        <ele>238.063599</ele>
        <time>2014-09-21T07:10:48Z</time>
      </trkpt>
      <trkpt lat="43.34268" lon="-0.52986">
        <ele>234.218384</ele>
        <time>2014-09-21T07:10:52Z</time>
      </trkpt>
      <trkpt lat="43.34246" lon="-0.53026">
        <ele>231.334351</ele>
        <time>2014-09-21T07:10:57Z</time>
      </trkpt>
      <trkpt lat="43.3421" lon="-0.53061">
        <ele>232.295776</ele>
        <time>2014-09-21T07:11:06Z</time>
      </trkpt>
      <trkpt lat="43.34191" lon="-0.53091">
        <ele>228.931152</ele>
        <time>2014-09-21T07:11:14Z</time>
      </trkpt>
      <trkpt lat="43.34189" lon="-0.53093">
        <ele>228.931152</ele>
        <time>2014-09-21T07:11:15Z</time>
      </trkpt>
      <trkpt lat="43.34181" lon="-0.53088">
        <ele>228.450439</ele>
        <time>2014-09-21T07:11:19Z</time>
      </trkpt>
      <trkpt lat="43.34172" lon="-0.53076">
        <ele>229.892334</ele>
        <time>2014-09-21T07:11:25Z</time>
      </trkpt>
      <trkpt lat="43.34155" lon="-0.53079">
        <ele>231.334351</ele>
        <time>2014-09-21T07:11:38Z</time>
      </trkpt>
      <trkpt lat="43.34149" lon="-0.53088">
        <ele>230.85376</ele>
        <time>2014-09-21T07:11:44Z</time>
      </trkpt>
      <trkpt lat="43.34144" lon="-0.53092">
        <ele>230.373047</ele>
        <time>2014-09-21T07:11:47Z</time>
      </trkpt>
      <trkpt lat="43.34132" lon="-0.53081">
        <ele>233.25708</ele>
        <time>2014-09-21T07:11:55Z</time>
      </trkpt>
      <trkpt lat="43.34131" lon="-0.53079">
        <ele>233.25708</ele>
        <time>2014-09-21T07:11:56Z</time>
      </trkpt>
      <trkpt lat="43.34125" lon="-0.53076">
        <ele>233.737671</ele>
        <time>2014-09-21T07:11:59Z</time>
      </trkpt>
      <trkpt lat="43.34089" lon="-0.53059">
        <ele>235.179688</ele>
        <time>2014-09-21T07:12:15Z</time>
      </trkpt>
      <trkpt lat="43.34059" lon="-0.53029">
        <ele>234.699097</ele>
        <time>2014-09-21T07:12:30Z</time>
      </trkpt>
      <trkpt lat="43.34055" lon="-0.53018">
        <ele>234.699097</ele>
        <time>2014-09-21T07:12:32Z</time>
      </trkpt>
      <trkpt lat="43.3404" lon="-0.52937">
        <ele>231.814941</ele>
        <time>2014-09-21T07:12:45Z</time>
      </trkpt>
      <trkpt lat="43.34047" lon="-0.52867">
        <ele>231.334351</ele>
        <time>2014-09-21T07:12:56Z</time>
      </trkpt>
      <trkpt lat="43.34044" lon="-0.52785">
        <ele>229.411743</ele>
        <time>2014-09-21T07:13:08Z</time>
      </trkpt>
      <trkpt lat="43.34036" lon="-0.52754">
        <ele>224.124512</ele>
        <time>2014-09-21T07:13:12Z</time>
      </trkpt>
      <trkpt lat="43.34034" lon="-0.52746">
        <ele>224.124512</ele>
        <time>2014-09-21T07:13:13Z</time>
      </trkpt>
      <trkpt lat="43.34028" lon="-0.52724">
        <ele>221.240601</ele>
        <time>2014-09-21T07:13:16Z</time>
      </trkpt>
      <trkpt lat="43.34021" lon="-0.52705">
        <ele>217.395386</ele>
        <time>2014-09-21T07:13:19Z</time>
      </trkpt>
      <trkpt lat="43.34012" lon="-0.52686">
        <ele>213.550049</ele>
        <time>2014-09-21T07:13:23Z</time>
      </trkpt>
      <trkpt lat="43.34014" lon="-0.52653">
        <ele>210.185425</ele>
        <time>2014-09-21T07:13:31Z</time>
      </trkpt>
      <trkpt lat="43.34028" lon="-0.52638">
        <ele>210.185425</ele>
        <time>2014-09-21T07:13:35Z</time>
      </trkpt>
      <trkpt lat="43.34047" lon="-0.5262">
        <ele>209.224121</ele>
        <time>2014-09-21T07:13:40Z</time>
      </trkpt>
      <trkpt lat="43.3407" lon="-0.5261">
        <ele>208.743408</ele>
        <time>2014-09-21T07:13:45Z</time>
      </trkpt>
      <trkpt lat="43.34105" lon="-0.52587">
        <ele>207.782104</ele>
        <time>2014-09-21T07:13:52Z</time>
      </trkpt>
      <trkpt lat="43.34113" lon="-0.52583">
        <ele>207.782104</ele>
        <time>2014-09-21T07:13:54Z</time>
      </trkpt>
      <trkpt lat="43.34152" lon="-0.52552">
        <ele>210.666016</ele>
        <time>2014-09-21T07:14:05Z</time>
      </trkpt>
      <trkpt lat="43.34149" lon="-0.52525">
        <ele>210.185425</ele>
        <time>2014-09-21T07:14:11Z</time>
      </trkpt>
      <trkpt lat="43.34124" lon="-0.52462">
        <ele>210.666016</ele>
        <time>2014-09-21T07:14:24Z</time>
      </trkpt>
      <trkpt lat="43.34106" lon="-0.52421">
        <ele>211.146729</ele>
        <time>2014-09-21T07:14:32Z</time>
      </trkpt>
      <trkpt lat="43.34091" lon="-0.52383">
        <ele>210.185425</ele>
        <time>2014-09-21T07:14:39Z</time>
      </trkpt>
      <trkpt lat="43.3408" lon="-0.52346">
        <ele>210.666016</ele>
        <time>2014-09-21T07:14:45Z</time>
      </trkpt>
      <trkpt lat="43.34075" lon="-0.5232">
        <ele>210.666016</ele>
        <time>2014-09-21T07:14:49Z</time>
      </trkpt>
      <trkpt lat="43.34064" lon="-0.52295">
        <ele>209.704834</ele>
        <time>2014-09-21T07:14:53Z</time>
      </trkpt>
      <trkpt lat="43.34056" lon="-0.52282">
        <ele>209.224121</ele>
        <time>2014-09-21T07:14:56Z</time>
      </trkpt>
      <trkpt lat="43.34027" lon="-0.52231">
        <ele>210.185425</ele>
        <time>2014-09-21T07:15:09Z</time>
      </trkpt>
      <trkpt lat="43.3401" lon="-0.5219">
        <ele>213.550049</ele>
        <time>2014-09-21T07:15:20Z</time>
      </trkpt>
      <trkpt lat="43.34008" lon="-0.52187">
        <ele>213.550049</ele>
        <time>2014-09-21T07:15:21Z</time>
      </trkpt>
      <trkpt lat="43.34005" lon="-0.52179">
        <ele>215.472656</ele>
        <time>2014-09-21T07:15:24Z</time>
      </trkpt>
      <trkpt lat="43.33982" lon="-0.52165">
        <ele>217.395386</ele>
        <time>2014-09-21T07:15:37Z</time>
      </trkpt>
      <trkpt lat="43.33942" lon="-0.52156">
        <ele>219.798584</ele>
        <time>2014-09-21T07:15:52Z</time>
      </trkpt>
      <trkpt lat="43.33912" lon="-0.5214">
        <ele>222.201782</ele>
        <time>2014-09-21T07:16:04Z</time>
      </trkpt>
      <trkpt lat="43.33876" lon="-0.52097">
        <ele>219.798584</ele>
        <time>2014-09-21T07:16:16Z</time>
      </trkpt>
      <trkpt lat="43.33864" lon="-0.52081">
        <ele>218.83728</ele>
        <time>2014-09-21T07:16:19Z</time>
      </trkpt>
      <trkpt lat="43.33846" lon="-0.52061">
        <ele>217.875977</ele>
        <time>2014-09-21T07:16:23Z</time>
      </trkpt>
      <trkpt lat="43.33827" lon="-0.52036">
        <ele>218.356567</ele>
        <time>2014-09-21T07:16:28Z</time>
      </trkpt>
      <trkpt lat="43.33816" lon="-0.51998">
        <ele>219.317993</ele>
        <time>2014-09-21T07:16:35Z</time>
      </trkpt>
      <trkpt lat="43.33815" lon="-0.5197">
        <ele>219.317993</ele>
        <time>2014-09-21T07:16:40Z</time>
      </trkpt>
      <trkpt lat="43.33811" lon="-0.51946">
        <ele>219.798584</ele>
        <time>2014-09-21T07:16:44Z</time>
      </trkpt>
      <trkpt lat="43.3379" lon="-0.51886">
        <ele>218.83728</ele>
        <time>2014-09-21T07:16:56Z</time>
      </trkpt>
      <trkpt lat="43.33762" lon="-0.51818">
        <ele>217.875977</ele>
        <time>2014-09-21T07:17:08Z</time>
      </trkpt>
      <trkpt lat="43.33719" lon="-0.51774">
        <ele>215.472656</ele>
        <time>2014-09-21T07:17:19Z</time>
      </trkpt>
      <trkpt lat="43.3367" lon="-0.51716">
        <ele>213.550049</ele>
        <time>2014-09-21T07:17:31Z</time>
      </trkpt>
      <trkpt lat="43.33654" lon="-0.51703">
        <ele>211.627441</ele>
        <time>2014-09-21T07:17:34Z</time>
      </trkpt>
      <trkpt lat="43.33647" lon="-0.517">
        <ele>211.627441</ele>
        <time>2014-09-21T07:17:35Z</time>
      </trkpt>
      <trkpt lat="43.33585" lon="-0.51656">
        <ele>211.146729</ele>
        <time>2014-09-21T07:17:46Z</time>
      </trkpt>
      <trkpt lat="43.33566" lon="-0.51643">
        <ele>209.704834</ele>
        <time>2014-09-21T07:17:49Z</time>
      </trkpt>
      <trkpt lat="43.33517" lon="-0.51621">
        <ele>206.340088</ele>
        <time>2014-09-21T07:17:56Z</time>
      </trkpt>
      <trkpt lat="43.33494" lon="-0.516">
        <ele>205.378784</ele>
        <time>2014-09-21T07:18:00Z</time>
      </trkpt>
      <trkpt lat="43.33477" lon="-0.51573">
        <ele>204.898071</ele>
        <time>2014-09-21T07:18:04Z</time>
      </trkpt>
      <trkpt lat="43.33445" lon="-0.51501">
        <ele>208.743408</ele>
        <time>2014-09-21T07:18:16Z</time>
      </trkpt>
      <trkpt lat="43.33415" lon="-0.51422">
        <ele>209.224121</ele>
        <time>2014-09-21T07:18:33Z</time>
      </trkpt>
      <trkpt lat="43.33391" lon="-0.51355">
        <ele>210.666016</ele>
        <time>2014-09-21T07:18:47Z</time>
      </trkpt>
      <trkpt lat="43.33381" lon="-0.51316">
        <ele>211.627441</ele>
        <time>2014-09-21T07:18:58Z</time>
      </trkpt>
      <trkpt lat="43.33373" lon="-0.51297">
        <ele>213.069336</ele>
        <time>2014-09-21T07:19:04Z</time>
      </trkpt>
      <trkpt lat="43.3337" lon="-0.51288">
        <ele>214.03064</ele>
        <time>2014-09-21T07:19:08Z</time>
      </trkpt>
      <trkpt lat="43.33357" lon="-0.51256">
        <ele>217.395386</ele>
        <time>2014-09-21T07:19:20Z</time>
      </trkpt>
      <trkpt lat="43.33352" lon="-0.51246">
        <ele>218.83728</ele>
        <time>2014-09-21T07:19:27Z</time>
      </trkpt>
      <trkpt lat="43.33333" lon="-0.51263">
        <ele>216.914673</ele>
        <time>2014-09-21T07:19:34Z</time>
      </trkpt>
      <trkpt lat="43.33327" lon="-0.51285">
        <ele>217.395386</ele>
        <time>2014-09-21T07:19:38Z</time>
      </trkpt>
      <trkpt lat="43.33326" lon="-0.51313">
        <ele>218.83728</ele>
        <time>2014-09-21T07:19:44Z</time>
      </trkpt>
      <trkpt lat="43.33313" lon="-0.51379">
        <ele>220.279175</ele>
        <time>2014-09-21T07:20:02Z</time>
      </trkpt>
      <trkpt lat="43.33296" lon="-0.51408">
        <ele>221.721191</ele>
        <time>2014-09-21T07:20:13Z</time>
      </trkpt>
      <trkpt lat="43.33275" lon="-0.51446">
        <ele>219.798584</ele>
        <time>2014-09-21T07:20:25Z</time>
      </trkpt>
      <trkpt lat="43.33258" lon="-0.51458">
        <ele>215.953247</ele>
        <time>2014-09-21T07:20:29Z</time>
      </trkpt>
      <trkpt lat="43.3324" lon="-0.51473">
        <ele>212.588623</ele>
        <time>2014-09-21T07:20:32Z</time>
      </trkpt>
      <trkpt lat="43.33224" lon="-0.51486">
        <ele>211.146729</ele>
        <time>2014-09-21T07:20:35Z</time>
      </trkpt>
      <trkpt lat="43.33204" lon="-0.51513">
        <ele>208.262817</ele>
        <time>2014-09-21T07:20:40Z</time>
      </trkpt>
      <trkpt lat="43.33187" lon="-0.5153">
        <ele>205.378784</ele>
        <time>2014-09-21T07:20:44Z</time>
      </trkpt>
      <trkpt lat="43.33178" lon="-0.51558">
        <ele>207.301392</ele>
        <time>2014-09-21T07:20:52Z</time>
      </trkpt>
      <trkpt lat="43.33178" lon="-0.51562">
        <ele>208.743408</ele>
        <time>2014-09-21T07:20:54Z</time>
      </trkpt>
      <trkpt lat="43.33172" lon="-0.51597">
        <ele>212.108032</ele>
        <time>2014-09-21T07:21:09Z</time>
      </trkpt>
      <trkpt lat="43.33172" lon="-0.51614">
        <ele>215.953247</ele>
        <time>2014-09-21T07:21:18Z</time>
      </trkpt>
      <trkpt lat="43.33186" lon="-0.51633">
        <ele>217.875977</ele>
        <time>2014-09-21T07:21:30Z</time>
      </trkpt>
      <trkpt lat="43.33212" lon="-0.5165">
        <ele>217.395386</ele>
        <time>2014-09-21T07:21:41Z</time>
      </trkpt>
      <trkpt lat="43.33231" lon="-0.51663">
        <ele>216.43396</ele>
        <time>2014-09-21T07:21:46Z</time>
      </trkpt>
      <trkpt lat="43.3324" lon="-0.51669">
        <ele>215.953247</ele>
        <time>2014-09-21T07:21:48Z</time>
      </trkpt>
      <trkpt lat="43.33276" lon="-0.51702">
        <ele>216.914673</ele>
        <time>2014-09-21T07:21:57Z</time>
      </trkpt>
      <trkpt lat="43.33284" lon="-0.51708">
        <ele>216.43396</ele>
        <time>2014-09-21T07:21:59Z</time>
      </trkpt>
      <trkpt lat="43.33301" lon="-0.5172">
        <ele>215.953247</ele>
        <time>2014-09-21T07:22:03Z</time>
      </trkpt>
      <trkpt lat="43.3334" lon="-0.5177">
        <ele>213.069336</ele>
        <time>2014-09-21T07:22:12Z</time>
      </trkpt>
      <trkpt lat="43.33343" lon="-0.51778">
        <ele>213.550049</ele>
        <time>2014-09-21T07:22:13Z</time>
      </trkpt>
      <trkpt lat="43.33349" lon="-0.51793">
        <ele>212.588623</ele>
        <time>2014-09-21T07:22:15Z</time>
      </trkpt>
      <trkpt lat="43.33365" lon="-0.51855">
        <ele>212.108032</ele>
        <time>2014-09-21T07:22:26Z</time>
      </trkpt>
      <trkpt lat="43.33369" lon="-0.51913">
        <ele>214.03064</ele>
        <time>2014-09-21T07:22:37Z</time>
      </trkpt>
      <trkpt lat="43.33366" lon="-0.51929">
        <ele>214.51123</ele>
        <time>2014-09-21T07:22:40Z</time>
      </trkpt>
      <trkpt lat="43.33359" lon="-0.51988">
        <ele>216.914673</ele>
        <time>2014-09-21T07:22:52Z</time>
      </trkpt>
      <trkpt lat="43.33363" lon="-0.52007">
        <ele>215.953247</ele>
        <time>2014-09-21T07:22:55Z</time>
      </trkpt>
      <trkpt lat="43.33384" lon="-0.52056">
        <ele>214.991943</ele>
        <time>2014-09-21T07:23:02Z</time>
      </trkpt>
      <trkpt lat="43.33386" lon="-0.52077">
        <ele>214.51123</ele>
        <time>2014-09-21T07:23:05Z</time>
      </trkpt>
      <trkpt lat="43.33391" lon="-0.52174">
        <ele>213.069336</ele>
        <time>2014-09-21T07:23:18Z</time>
      </trkpt>
      <trkpt lat="43.33393" lon="-0.52207">
        <ele>213.069336</ele>
        <time>2014-09-21T07:23:23Z</time>
      </trkpt>
      <trkpt lat="43.33396" lon="-0.52266">
        <ele>213.550049</ele>
        <time>2014-09-21T07:23:32Z</time>
      </trkpt>
      <trkpt lat="43.33391" lon="-0.52322">
        <ele>215.953247</ele>
        <time>2014-09-21T07:23:44Z</time>
      </trkpt>
      <trkpt lat="43.3339" lon="-0.52352">
        <ele>216.914673</ele>
        <time>2014-09-21T07:23:53Z</time>
      </trkpt>
      <trkpt lat="43.33387" lon="-0.5236">
        <ele>219.317993</ele>
        <time>2014-09-21T07:23:57Z</time>
      </trkpt>
      <trkpt lat="43.33385" lon="-0.5237">
        <ele>221.240601</ele>
        <time>2014-09-21T07:24:02Z</time>
      </trkpt>
      <trkpt lat="43.33379" lon="-0.52385">
        <ele>225.085938</ele>
        <time>2014-09-21T07:24:13Z</time>
      </trkpt>
      <trkpt lat="43.33375" lon="-0.52397">
        <ele>227.489136</ele>
        <time>2014-09-21T07:24:26Z</time>
      </trkpt>
      <trkpt lat="43.33372" lon="-0.52401">
        <ele>229.411743</ele>
        <time>2014-09-21T07:24:38Z</time>
      </trkpt>
      <trkpt lat="43.33359" lon="-0.52413">
        <ele>232.295776</ele>
        <time>2014-09-21T07:25:00Z</time>
      </trkpt>
      <trkpt lat="43.33357" lon="-0.52413">
        <ele>231.814941</ele>
        <time>2014-09-21T07:25:11Z</time>
      </trkpt>
      <trkpt lat="43.33342" lon="-0.52376">
        <ele>235.660278</ele>
        <time>2014-09-21T07:25:30Z</time>
      </trkpt>
      <trkpt lat="43.33333" lon="-0.52349">
        <ele>238.544312</ele>
        <time>2014-09-21T07:25:43Z</time>
      </trkpt>
      <trkpt lat="43.3333" lon="-0.52341">
        <ele>239.505493</ele>
        <time>2014-09-21T07:25:47Z</time>
      </trkpt>
      <trkpt lat="43.33322" lon="-0.52317">
        <ele>242.870239</ele>
        <time>2014-09-21T07:26:01Z</time>
      </trkpt>
      <trkpt lat="43.33308" lon="-0.52276">
        <ele>246.234863</ele>
        <time>2014-09-21T07:26:20Z</time>
      </trkpt>
      <trkpt lat="43.33304" lon="-0.52265">
        <ele>248.157593</ele>
        <time>2014-09-21T07:26:25Z</time>
      </trkpt>
      <trkpt lat="43.33293" lon="-0.52232">
        <ele>250.560791</ele>
        <time>2014-09-21T07:26:40Z</time>
      </trkpt>
      <trkpt lat="43.33284" lon="-0.52204">
        <ele>252.002808</ele>
        <time>2014-09-21T07:26:52Z</time>
      </trkpt>
      <trkpt lat="43.33278" lon="-0.5216">
        <ele>253.444702</ele>
        <time>2014-09-21T07:27:05Z</time>
      </trkpt>
      <trkpt lat="43.33274" lon="-0.52103">
        <ele>252.483398</ele>
        <time>2014-09-21T07:27:17Z</time>
      </trkpt>
      <trkpt lat="43.33277" lon="-0.52088">
        <ele>252.002808</ele>
        <time>2014-09-21T07:27:20Z</time>
      </trkpt>
      <trkpt lat="43.3328" lon="-0.52059">
        <ele>250.560791</ele>
        <time>2014-09-21T07:27:25Z</time>
      </trkpt>
      <trkpt lat="43.3328" lon="-0.52031">
        <ele>250.560791</ele>
        <time>2014-09-21T07:27:29Z</time>
      </trkpt>
      <trkpt lat="43.33276" lon="-0.52002">
        <ele>249.118774</ele>
        <time>2014-09-21T07:27:33Z</time>
      </trkpt>
      <trkpt lat="43.33275" lon="-0.51987">
        <ele>248.157593</ele>
        <time>2014-09-21T07:27:35Z</time>
      </trkpt>
      <trkpt lat="43.33269" lon="-0.51945">
        <ele>248.638184</ele>
        <time>2014-09-21T07:27:43Z</time>
      </trkpt>
      <trkpt lat="43.3326" lon="-0.51895">
        <ele>249.599487</ele>
        <time>2014-09-21T07:27:54Z</time>
      </trkpt>
      <trkpt lat="43.33257" lon="-0.51886">
        <ele>248.638184</ele>
        <time>2014-09-21T07:27:56Z</time>
      </trkpt>
      <trkpt lat="43.33239" lon="-0.51826">
        <ele>250.0802</ele>
        <time>2014-09-21T07:28:07Z</time>
      </trkpt>
      <trkpt lat="43.33231" lon="-0.51803">
        <ele>249.599487</ele>
        <time>2014-09-21T07:28:12Z</time>
      </trkpt>
      <trkpt lat="43.33215" lon="-0.51784">
        <ele>250.0802</ele>
        <time>2014-09-21T07:28:17Z</time>
      </trkpt>
      <trkpt lat="43.33197" lon="-0.5177">
        <ele>248.157593</ele>
        <time>2014-09-21T07:28:21Z</time>
      </trkpt>
      <trkpt lat="43.33188" lon="-0.51762">
        <ele>246.715454</ele>
        <time>2014-09-21T07:28:23Z</time>
      </trkpt>
      <trkpt lat="43.33175" lon="-0.51751">
        <ele>244.792847</ele>
        <time>2014-09-21T07:28:26Z</time>
      </trkpt>
      <trkpt lat="43.33171" lon="-0.51748">
        <ele>243.831543</ele>
        <time>2014-09-21T07:28:27Z</time>
      </trkpt>
      <trkpt lat="43.33155" lon="-0.51737">
        <ele>239.505493</ele>
        <time>2014-09-21T07:28:31Z</time>
      </trkpt>
      <trkpt lat="43.33143" lon="-0.51731">
        <ele>236.621704</ele>
        <time>2014-09-21T07:28:34Z</time>
      </trkpt>
      <trkpt lat="43.33133" lon="-0.51719">
        <ele>234.699097</ele>
        <time>2014-09-21T07:28:37Z</time>
      </trkpt>
      <trkpt lat="43.33126" lon="-0.51703">
        <ele>237.102295</ele>
        <time>2014-09-21T07:28:43Z</time>
      </trkpt>
      <trkpt lat="43.33116" lon="-0.51694">
        <ele>239.986206</ele>
        <time>2014-09-21T07:28:49Z</time>
      </trkpt>
      <trkpt lat="43.3311" lon="-0.51689">
        <ele>240.467041</ele>
        <time>2014-09-21T07:28:53Z</time>
      </trkpt>
      <trkpt lat="43.33108" lon="-0.51687">
        <ele>241.908936</ele>
        <time>2014-09-21T07:28:55Z</time>
      </trkpt>
      <trkpt lat="43.33095" lon="-0.51672">
        <ele>244.792847</ele>
        <time>2014-09-21T07:29:05Z</time>
      </trkpt>
      <trkpt lat="43.33084" lon="-0.51656">
        <ele>248.157593</ele>
        <time>2014-09-21T07:29:15Z</time>
      </trkpt>
      <trkpt lat="43.33079" lon="-0.51648">
        <ele>249.118774</ele>
        <time>2014-09-21T07:29:21Z</time>
      </trkpt>
      <trkpt lat="43.3305" lon="-0.51615">
        <ele>251.522095</ele>
        <time>2014-09-21T07:29:42Z</time>
      </trkpt>
      <trkpt lat="43.33009" lon="-0.51575">
        <ele>252.483398</ele>
        <time>2014-09-21T07:30:02Z</time>
      </trkpt>
      <trkpt lat="43.32997" lon="-0.51558">
        <ele>254.406006</ele>
        <time>2014-09-21T07:30:09Z</time>
      </trkpt>
      <trkpt lat="43.32954" lon="-0.51505">
        <ele>256.328735</ele>
        <time>2014-09-21T07:30:32Z</time>
      </trkpt>
      <trkpt lat="43.32926" lon="-0.51466">
        <ele>259.693359</ele>
        <time>2014-09-21T07:30:47Z</time>
      </trkpt>
      <trkpt lat="43.32896" lon="-0.51443">
        <ele>263.057861</ele>
        <time>2014-09-21T07:31:00Z</time>
      </trkpt>
      <trkpt lat="43.32851" lon="-0.5142">
        <ele>263.057861</ele>
        <time>2014-09-21T07:31:15Z</time>
      </trkpt>
      <trkpt lat="43.32839" lon="-0.51418">
        <ele>261.615967</ele>
        <time>2014-09-21T07:31:18Z</time>
      </trkpt>
      <trkpt lat="43.32835" lon="-0.51418">
        <ele>261.615967</ele>
        <time>2014-09-21T07:31:19Z</time>
      </trkpt>
      <trkpt lat="43.32819" lon="-0.51412">
        <ele>259.693359</ele>
        <time>2014-09-21T07:31:23Z</time>
      </trkpt>
      <trkpt lat="43.32815" lon="-0.51408">
        <ele>259.693359</ele>
        <time>2014-09-21T07:31:24Z</time>
      </trkpt>
      <trkpt lat="43.328" lon="-0.5139">
        <ele>257.770752</ele>
        <time>2014-09-21T07:31:28Z</time>
      </trkpt>
      <trkpt lat="43.32734" lon="-0.5132">
        <ele>257.290039</ele>
        <time>2014-09-21T07:31:43Z</time>
      </trkpt>
      <trkpt lat="43.3273" lon="-0.51316">
        <ele>257.290039</ele>
        <time>2014-09-21T07:31:44Z</time>
      </trkpt>
      <trkpt lat="43.32672" lon="-0.51273">
        <ele>260.654541</ele>
        <time>2014-09-21T07:32:00Z</time>
      </trkpt>
      <trkpt lat="43.32647" lon="-0.51252">
        <ele>262.577148</ele>
        <time>2014-09-21T07:32:09Z</time>
      </trkpt>
      <trkpt lat="43.32604" lon="-0.51214">
        <ele>264.980591</ele>
        <time>2014-09-21T07:32:27Z</time>
      </trkpt>
      <trkpt lat="43.32591" lon="-0.51204">
        <ele>265.461304</ele>
        <time>2014-09-21T07:32:40Z</time>
      </trkpt>
      <trkpt lat="43.32587" lon="-0.51205">
        <ele>264.019287</ele>
        <time>2014-09-21T07:32:54Z</time>
      </trkpt>
      <trkpt lat="43.32584" lon="-0.51213">
        <ele>265.941895</ele>
        <time>2014-09-21T07:35:26Z</time>
      </trkpt>
      <trkpt lat="43.32588" lon="-0.51205">
        <ele>266.422485</ele>
        <time>2014-09-21T07:36:07Z</time>
      </trkpt>
      <trkpt lat="43.32588" lon="-0.512">
        <ele>265.461304</ele>
        <time>2014-09-21T07:36:17Z</time>
      </trkpt>
      <trkpt lat="43.32587" lon="-0.512">
        <ele>265.461304</ele>
        <time>2014-09-21T07:36:30Z</time>
      </trkpt>
      <trkpt lat="43.32558" lon="-0.51169">
        <ele>265.461304</ele>
        <time>2014-09-21T07:36:45Z</time>
      </trkpt>
      <trkpt lat="43.32504" lon="-0.51096">
        <ele>267.383911</ele>
        <time>2014-09-21T07:37:04Z</time>
      </trkpt>
      <trkpt lat="43.32484" lon="-0.51022">
        <ele>267.864502</ele>
        <time>2014-09-21T07:37:18Z</time>
      </trkpt>
      <trkpt lat="43.32478" lon="-0.51002">
        <ele>267.383911</ele>
        <time>2014-09-21T07:37:22Z</time>
      </trkpt>
      <trkpt lat="43.32473" lon="-0.50988">
        <ele>265.941895</ele>
        <time>2014-09-21T07:37:24Z</time>
      </trkpt>
      <trkpt lat="43.32461" lon="-0.50971">
        <ele>264.980591</ele>
        <time>2014-09-21T07:37:27Z</time>
      </trkpt>
      <trkpt lat="43.32437" lon="-0.50933">
        <ele>263.538574</ele>
        <time>2014-09-21T07:37:32Z</time>
      </trkpt>
      <trkpt lat="43.32416" lon="-0.50865">
        <ele>260.654541</ele>
        <time>2014-09-21T07:37:39Z</time>
      </trkpt>
      <trkpt lat="43.32408" lon="-0.50849">
        <ele>259.693359</ele>
        <time>2014-09-21T07:37:41Z</time>
      </trkpt>
      <trkpt lat="43.32364" lon="-0.50787">
        <ele>256.328735</ele>
        <time>2014-09-21T07:37:48Z</time>
      </trkpt>
      <trkpt lat="43.32357" lon="-0.50778">
        <ele>256.328735</ele>
        <time>2014-09-21T07:37:49Z</time>
      </trkpt>
      <trkpt lat="43.32298" lon="-0.50713">
        <ele>252.963989</ele>
        <time>2014-09-21T07:37:58Z</time>
      </trkpt>
      <trkpt lat="43.32246" lon="-0.50667">
        <ele>255.848022</ele>
        <time>2014-09-21T07:38:09Z</time>
      </trkpt>
      <trkpt lat="43.3223" lon="-0.50652">
        <ele>257.290039</ele>
        <time>2014-09-21T07:38:13Z</time>
      </trkpt>
      <trkpt lat="43.32216" lon="-0.50637">
        <ele>258.251343</ele>
        <time>2014-09-21T07:38:17Z</time>
      </trkpt>
      <trkpt lat="43.32203" lon="-0.50619">
        <ele>258.251343</ele>
        <time>2014-09-21T07:38:21Z</time>
      </trkpt>
      <trkpt lat="43.32155" lon="-0.50517">
        <ele>258.251343</ele>
        <time>2014-09-21T07:38:37Z</time>
      </trkpt>
      <trkpt lat="43.32116" lon="-0.50435">
        <ele>256.328735</ele>
        <time>2014-09-21T07:38:49Z</time>
      </trkpt>
      <trkpt lat="43.32105" lon="-0.50405">
        <ele>252.963989</ele>
        <time>2014-09-21T07:38:52Z</time>
      </trkpt>
      <trkpt lat="43.32091" lon="-0.50365">
        <ele>249.118774</ele>
        <time>2014-09-21T07:38:57Z</time>
      </trkpt>
      <trkpt lat="43.32088" lon="-0.50357">
        <ele>248.638184</ele>
        <time>2014-09-21T07:38:58Z</time>
      </trkpt>
      <trkpt lat="43.3208" lon="-0.50342">
        <ele>246.715454</ele>
        <time>2014-09-21T07:39:01Z</time>
      </trkpt>
      <trkpt lat="43.32073" lon="-0.50332">
        <ele>245.75415</ele>
        <time>2014-09-21T07:39:04Z</time>
      </trkpt>
      <trkpt lat="43.32047" lon="-0.50308">
        <ele>245.75415</ele>
        <time>2014-09-21T07:39:10Z</time>
      </trkpt>
      <trkpt lat="43.32038" lon="-0.50295">
        <ele>245.75415</ele>
        <time>2014-09-21T07:39:12Z</time>
      </trkpt>
      <trkpt lat="43.3203" lon="-0.50281">
        <ele>245.75415</ele>
        <time>2014-09-21T07:39:14Z</time>
      </trkpt>
      <trkpt lat="43.32006" lon="-0.50214">
        <ele>246.234863</ele>
        <time>2014-09-21T07:39:25Z</time>
      </trkpt>
      <trkpt lat="43.31993" lon="-0.50176">
        <ele>247.196045</ele>
        <time>2014-09-21T07:39:32Z</time>
      </trkpt>
      <trkpt lat="43.31985" lon="-0.50158">
        <ele>247.196045</ele>
        <time>2014-09-21T07:39:35Z</time>
      </trkpt>
      <trkpt lat="43.31963" lon="-0.50126">
        <ele>247.676758</ele>
        <time>2014-09-21T07:39:41Z</time>
      </trkpt>
      <trkpt lat="43.31932" lon="-0.50087">
        <ele>251.522095</ele>
        <time>2014-09-21T07:39:51Z</time>
      </trkpt>
      <trkpt lat="43.31894" lon="-0.50051">
        <ele>252.002808</ele>
        <time>2014-09-21T07:40:05Z</time>
      </trkpt>
      <trkpt lat="43.31887" lon="-0.50045">
        <ele>252.483398</ele>
        <time>2014-09-21T07:40:07Z</time>
      </trkpt>
      <trkpt lat="43.31859" lon="-0.50038">
        <ele>250.560791</ele>
        <time>2014-09-21T07:40:12Z</time>
      </trkpt>
      <trkpt lat="43.31837" lon="-0.50039">
        <ele>249.599487</ele>
        <time>2014-09-21T07:40:15Z</time>
      </trkpt>
      <trkpt lat="43.3181" lon="-0.50028">
        <ele>248.638184</ele>
        <time>2014-09-21T07:40:19Z</time>
      </trkpt>
      <trkpt lat="43.31788" lon="-0.50006">
        <ele>247.676758</ele>
        <time>2014-09-21T07:40:23Z</time>
      </trkpt>
      <trkpt lat="43.31759" lon="-0.50003">
        <ele>245.75415</ele>
        <time>2014-09-21T07:40:32Z</time>
      </trkpt>
      <trkpt lat="43.3176" lon="-0.50004">
        <ele>245.75415</ele>
        <time>2014-09-21T07:40:36Z</time>
      </trkpt>
      <trkpt lat="43.31765" lon="-0.50007">
        <ele>245.273438</ele>
        <time>2014-09-21T07:40:46Z</time>
      </trkpt>
      <trkpt lat="43.31765" lon="-0.50017">
        <ele>244.792847</ele>
        <time>2014-09-21T07:40:50Z</time>
      </trkpt>
      <trkpt lat="43.31769" lon="-0.50038">
        <ele>241.428223</ele>
        <time>2014-09-21T07:40:55Z</time>
      </trkpt>
      <trkpt lat="43.31771" lon="-0.50042">
        <ele>240.947632</ele>
        <time>2014-09-21T07:40:56Z</time>
      </trkpt>
      <trkpt lat="43.3178" lon="-0.50063">
        <ele>238.544312</ele>
        <time>2014-09-21T07:41:01Z</time>
      </trkpt>
      <trkpt lat="43.3179" lon="-0.50076">
        <ele>235.660278</ele>
        <time>2014-09-21T07:41:06Z</time>
      </trkpt>
      <trkpt lat="43.31805" lon="-0.50092">
        <ele>233.737671</ele>
        <time>2014-09-21T07:41:11Z</time>
      </trkpt>
      <trkpt lat="43.31827" lon="-0.50114">
        <ele>228.450439</ele>
        <time>2014-09-21T07:41:17Z</time>
      </trkpt>
      <trkpt lat="43.31834" lon="-0.50121">
        <ele>227.489136</ele>
        <time>2014-09-21T07:41:19Z</time>
      </trkpt>
      <trkpt lat="43.31864" lon="-0.50148">
        <ele>226.527832</ele>
        <time>2014-09-21T07:41:28Z</time>
      </trkpt>
      <trkpt lat="43.31871" lon="-0.50154">
        <ele>226.047119</ele>
        <time>2014-09-21T07:41:30Z</time>
      </trkpt>
      <trkpt lat="43.31889" lon="-0.50181">
        <ele>224.605225</ele>
        <time>2014-09-21T07:41:35Z</time>
      </trkpt>
      <trkpt lat="43.31904" lon="-0.50208">
        <ele>224.605225</ele>
        <time>2014-09-21T07:41:40Z</time>
      </trkpt>
      <trkpt lat="43.31919" lon="-0.50223">
        <ele>224.124512</ele>
        <time>2014-09-21T07:41:44Z</time>
      </trkpt>
      <trkpt lat="43.31929" lon="-0.50233">
        <ele>223.643799</ele>
        <time>2014-09-21T07:41:47Z</time>
      </trkpt>
      <trkpt lat="43.31945" lon="-0.50315">
        <ele>221.721191</ele>
        <time>2014-09-21T07:41:58Z</time>
      </trkpt>
      <trkpt lat="43.31945" lon="-0.50326">
        <ele>220.759888</ele>
        <time>2014-09-21T07:41:59Z</time>
      </trkpt>
      <trkpt lat="43.31956" lon="-0.50365">
        <ele>219.798584</ele>
        <time>2014-09-21T07:42:03Z</time>
      </trkpt>
      <trkpt lat="43.31962" lon="-0.50388">
        <ele>216.43396</ele>
        <time>2014-09-21T07:42:05Z</time>
      </trkpt>
      <trkpt lat="43.31966" lon="-0.5041">
        <ele>214.51123</ele>
        <time>2014-09-21T07:42:07Z</time>
      </trkpt>
      <trkpt lat="43.31939" lon="-0.5043">
        <ele>211.146729</ele>
        <time>2014-09-21T07:42:12Z</time>
      </trkpt>
      <trkpt lat="43.31912" lon="-0.50411">
        <ele>208.262817</ele>
        <time>2014-09-21T07:42:15Z</time>
      </trkpt>
      <trkpt lat="43.31867" lon="-0.50373">
        <ele>204.41748</ele>
        <time>2014-09-21T07:42:20Z</time>
      </trkpt>
      <trkpt lat="43.31848" lon="-0.50358">
        <ele>201.052856</ele>
        <time>2014-09-21T07:42:22Z</time>
      </trkpt>
      <trkpt lat="43.31821" lon="-0.50339">
        <ele>197.20752</ele>
        <time>2014-09-21T07:42:25Z</time>
      </trkpt>
      <trkpt lat="43.31808" lon="-0.50333">
        <ele>193.843018</ele>
        <time>2014-09-21T07:42:27Z</time>
      </trkpt>
      <trkpt lat="43.31793" lon="-0.50332">
        <ele>189.516968</ele>
        <time>2014-09-21T07:42:31Z</time>
      </trkpt>
      <trkpt lat="43.31791" lon="-0.50334">
        <ele>189.036377</ele>
        <time>2014-09-21T07:42:32Z</time>
      </trkpt>
      <trkpt lat="43.318" lon="-0.50353">
        <ele>187.59436</ele>
        <time>2014-09-21T07:42:36Z</time>
      </trkpt>
      <trkpt lat="43.31811" lon="-0.50368">
        <ele>186.633179</ele>
        <time>2014-09-21T07:42:39Z</time>
      </trkpt>
      <trkpt lat="43.31821" lon="-0.50401">
        <ele>184.229858</ele>
        <time>2014-09-21T07:42:43Z</time>
      </trkpt>
      <trkpt lat="43.31832" lon="-0.50455">
        <ele>178.942627</ele>
        <time>2014-09-21T07:42:48Z</time>
      </trkpt>
      <trkpt lat="43.31838" lon="-0.50481">
        <ele>175.577881</ele>
        <time>2014-09-21T07:42:51Z</time>
      </trkpt>
      <trkpt lat="43.31841" lon="-0.50502">
        <ele>174.135864</ele>
        <time>2014-09-21T07:42:54Z</time>
      </trkpt>
      <trkpt lat="43.3184" lon="-0.50518">
        <ele>171.252075</ele>
        <time>2014-09-21T07:42:57Z</time>
      </trkpt>
      <trkpt lat="43.31839" lon="-0.50528">
        <ele>170.290649</ele>
        <time>2014-09-21T07:42:59Z</time>
      </trkpt>
      <trkpt lat="43.31838" lon="-0.50544">
        <ele>167.406738</ele>
        <time>2014-09-21T07:43:03Z</time>
      </trkpt>
      <trkpt lat="43.31837" lon="-0.50566">
        <ele>164.042114</ele>
        <time>2014-09-21T07:43:09Z</time>
      </trkpt>
      <trkpt lat="43.31837" lon="-0.5057">
        <ele>163.561523</ele>
        <time>2014-09-21T07:43:10Z</time>
      </trkpt>
      <trkpt lat="43.31837" lon="-0.50587">
        <ele>160.67749</ele>
        <time>2014-09-21T07:43:15Z</time>
      </trkpt>
      <trkpt lat="43.3183" lon="-0.50622">
        <ele>158.27417</ele>
        <time>2014-09-21T07:43:23Z</time>
      </trkpt>
      <trkpt lat="43.31831" lon="-0.50647">
        <ele>157.312866</ele>
        <time>2014-09-21T07:43:29Z</time>
      </trkpt>
      <trkpt lat="43.31831" lon="-0.50652">
        <ele>156.832153</ele>
        <time>2014-09-21T07:43:31Z</time>
      </trkpt>
      <trkpt lat="43.31831" lon="-0.50674">
        <ele>157.793579</ele>
        <time>2014-09-21T07:43:36Z</time>
      </trkpt>
      <trkpt lat="43.3183" lon="-0.50681">
        <ele>157.793579</ele>
        <time>2014-09-21T07:43:38Z</time>
      </trkpt>
      <trkpt lat="43.31831" lon="-0.50694">
        <ele>159.716187</ele>
        <time>2014-09-21T07:43:43Z</time>
      </trkpt>
      <trkpt lat="43.31827" lon="-0.50711">
        <ele>160.196899</ele>
        <time>2014-09-21T07:43:57Z</time>
      </trkpt>
      <trkpt lat="43.31823" lon="-0.50713">
        <ele>160.67749</ele>
        <time>2014-09-21T07:44:16Z</time>
      </trkpt>
      <trkpt lat="43.31819" lon="-0.50725">
        <ele>161.638916</ele>
        <time>2014-09-21T07:44:28Z</time>
      </trkpt>
      <trkpt lat="43.31815" lon="-0.50742">
        <ele>164.042114</ele>
        <time>2014-09-21T07:44:39Z</time>
      </trkpt>
      <trkpt lat="43.31815" lon="-0.50745">
        <ele>164.522705</ele>
        <time>2014-09-21T07:44:41Z</time>
      </trkpt>
      <trkpt lat="43.31812" lon="-0.50759">
        <ele>165.964722</ele>
        <time>2014-09-21T07:44:52Z</time>
      </trkpt>
      <trkpt lat="43.31811" lon="-0.50761">
        <ele>165.484131</ele>
        <time>2014-09-21T07:44:54Z</time>
      </trkpt>
      <trkpt lat="43.31806" lon="-0.50788">
        <ele>168.848755</ele>
        <time>2014-09-21T07:45:09Z</time>
      </trkpt>
      <trkpt lat="43.31805" lon="-0.50801">
        <ele>169.329468</ele>
        <time>2014-09-21T07:45:19Z</time>
      </trkpt>
      <trkpt lat="43.3181" lon="-0.50831">
        <ele>170.290649</ele>
        <time>2014-09-21T07:45:30Z</time>
      </trkpt>
      <trkpt lat="43.31818" lon="-0.50859">
        <ele>170.771362</ele>
        <time>2014-09-21T07:45:41Z</time>
      </trkpt>
      <trkpt lat="43.31843" lon="-0.50908">
        <ele>168.848755</ele>
        <time>2014-09-21T07:45:55Z</time>
      </trkpt>
      <trkpt lat="43.31848" lon="-0.50918">
        <ele>168.368042</ele>
        <time>2014-09-21T07:45:57Z</time>
      </trkpt>
      <trkpt lat="43.31857" lon="-0.5094">
        <ele>166.926025</ele>
        <time>2014-09-21T07:46:01Z</time>
      </trkpt>
      <trkpt lat="43.31871" lon="-0.50966">
        <ele>165.964722</ele>
        <time>2014-09-21T07:46:06Z</time>
      </trkpt>
      <trkpt lat="43.31881" lon="-0.50976">
        <ele>165.964722</ele>
        <time>2014-09-21T07:46:09Z</time>
      </trkpt>
      <trkpt lat="43.31904" lon="-0.51011">
        <ele>162.600098</ele>
        <time>2014-09-21T07:46:15Z</time>
      </trkpt>
      <trkpt lat="43.31915" lon="-0.51046">
        <ele>160.67749</ele>
        <time>2014-09-21T07:46:20Z</time>
      </trkpt>
      <trkpt lat="43.31918" lon="-0.5106">
        <ele>160.196899</ele>
        <time>2014-09-21T07:46:22Z</time>
      </trkpt>
      <trkpt lat="43.31914" lon="-0.51119">
        <ele>156.351563</ele>
        <time>2014-09-21T07:46:28Z</time>
      </trkpt>
      <trkpt lat="43.31911" lon="-0.51139">
        <ele>154.909546</ele>
        <time>2014-09-21T07:46:30Z</time>
      </trkpt>
      <trkpt lat="43.31909" lon="-0.51182">
        <ele>154.428955</ele>
        <time>2014-09-21T07:46:35Z</time>
      </trkpt>
      <trkpt lat="43.31912" lon="-0.51204">
        <ele>154.428955</ele>
        <time>2014-09-21T07:46:38Z</time>
      </trkpt>
      <trkpt lat="43.31917" lon="-0.51227">
        <ele>153.948364</ele>
        <time>2014-09-21T07:46:45Z</time>
      </trkpt>
      <trkpt lat="43.31914" lon="-0.51227">
        <ele>153.948364</ele>
        <time>2014-09-21T07:46:50Z</time>
      </trkpt>
      <trkpt lat="43.31909" lon="-0.51228">
        <ele>155.870972</ele>
        <time>2014-09-21T07:46:55Z</time>
      </trkpt>
      <trkpt lat="43.31898" lon="-0.51236">
        <ele>158.27417</ele>
        <time>2014-09-21T07:47:02Z</time>
      </trkpt>
      <trkpt lat="43.3189" lon="-0.51238">
        <ele>159.716187</ele>
        <time>2014-09-21T07:47:21Z</time>
      </trkpt>
      <trkpt lat="43.3189" lon="-0.51239">
        <ele>158.754761</ele>
        <time>2014-09-21T07:47:24Z</time>
      </trkpt>
      <trkpt lat="43.31875" lon="-0.51233">
        <ele>160.67749</ele>
        <time>2014-09-21T07:47:35Z</time>
      </trkpt>
      <trkpt lat="43.31856" lon="-0.51219">
        <ele>163.080811</ele>
        <time>2014-09-21T07:47:45Z</time>
      </trkpt>
      <trkpt lat="43.31844" lon="-0.51203">
        <ele>166.445313</ele>
        <time>2014-09-21T07:47:53Z</time>
      </trkpt>
      <trkpt lat="43.3183" lon="-0.51192">
        <ele>169.329468</ele>
        <time>2014-09-21T07:48:04Z</time>
      </trkpt>
      <trkpt lat="43.31822" lon="-0.51193">
        <ele>170.771362</ele>
        <time>2014-09-21T07:48:11Z</time>
      </trkpt>
      <trkpt lat="43.31808" lon="-0.51193">
        <ele>174.135864</ele>
        <time>2014-09-21T07:48:22Z</time>
      </trkpt>
      <trkpt lat="43.31792" lon="-0.51188">
        <ele>176.539307</ele>
        <time>2014-09-21T07:48:35Z</time>
      </trkpt>
      <trkpt lat="43.31777" lon="-0.51182">
        <ele>177.02002</ele>
        <time>2014-09-21T07:48:45Z</time>
      </trkpt>
      <trkpt lat="43.31754" lon="-0.51184">
        <ele>179.423218</ele>
        <time>2014-09-21T07:49:00Z</time>
      </trkpt>
      <trkpt lat="43.31739" lon="-0.5118">
        <ele>182.787842</ele>
        <time>2014-09-21T07:49:12Z</time>
      </trkpt>
      <trkpt lat="43.31719" lon="-0.51173">
        <ele>184.710571</ele>
        <time>2014-09-21T07:49:26Z</time>
      </trkpt>
      <trkpt lat="43.31708" lon="-0.51176">
        <ele>186.152466</ele>
        <time>2014-09-21T07:49:36Z</time>
      </trkpt>
      <trkpt lat="43.31686" lon="-0.5117">
        <ele>188.075073</ele>
        <time>2014-09-21T07:49:51Z</time>
      </trkpt>
      <trkpt lat="43.31675" lon="-0.51161">
        <ele>189.036377</ele>
        <time>2014-09-21T07:50:00Z</time>
      </trkpt>
      <trkpt lat="43.31666" lon="-0.51158">
        <ele>190.958984</ele>
        <time>2014-09-21T07:50:05Z</time>
      </trkpt>
      <trkpt lat="43.3165" lon="-0.51145">
        <ele>191.920288</ele>
        <time>2014-09-21T07:50:19Z</time>
      </trkpt>
      <trkpt lat="43.31632" lon="-0.5113">
        <ele>190.958984</ele>
        <time>2014-09-21T07:50:31Z</time>
      </trkpt>
      <trkpt lat="43.31622" lon="-0.51122">
        <ele>190.478394</ele>
        <time>2014-09-21T07:50:39Z</time>
      </trkpt>
      <trkpt lat="43.31619" lon="-0.51119">
        <ele>190.478394</ele>
        <time>2014-09-21T07:50:41Z</time>
      </trkpt>
      <trkpt lat="43.31614" lon="-0.51115">
        <ele>190.958984</ele>
        <time>2014-09-21T07:50:45Z</time>
      </trkpt>
      <trkpt lat="43.31607" lon="-0.51108">
        <ele>191.439575</ele>
        <time>2014-09-21T07:50:50Z</time>
      </trkpt>
      <trkpt lat="43.316" lon="-0.51106">
        <ele>192.401123</ele>
        <time>2014-09-21T07:50:54Z</time>
      </trkpt>
      <trkpt lat="43.31595" lon="-0.51103">
        <ele>193.362305</ele>
        <time>2014-09-21T07:50:58Z</time>
      </trkpt>
      <trkpt lat="43.31591" lon="-0.511">
        <ele>194.32373</ele>
        <time>2014-09-21T07:51:01Z</time>
      </trkpt>
      <trkpt lat="43.31587" lon="-0.51098">
        <ele>195.765625</ele>
        <time>2014-09-21T07:51:04Z</time>
      </trkpt>
      <trkpt lat="43.3158" lon="-0.51079">
        <ele>198.168945</ele>
        <time>2014-09-21T07:51:15Z</time>
      </trkpt>
      <trkpt lat="43.31564" lon="-0.51063">
        <ele>199.61084</ele>
        <time>2014-09-21T07:51:27Z</time>
      </trkpt>
      <trkpt lat="43.3155" lon="-0.51044">
        <ele>201.533569</ele>
        <time>2014-09-21T07:51:39Z</time>
      </trkpt>
      <trkpt lat="43.31535" lon="-0.51039">
        <ele>202.975464</ele>
        <time>2014-09-21T07:51:50Z</time>
      </trkpt>
      <trkpt lat="43.31518" lon="-0.51022">
        <ele>204.41748</ele>
        <time>2014-09-21T07:52:05Z</time>
      </trkpt>
      <trkpt lat="43.31518" lon="-0.51016">
        <ele>205.859497</ele>
        <time>2014-09-21T07:52:11Z</time>
      </trkpt>
      <trkpt lat="43.31516" lon="-0.51013">
        <ele>205.859497</ele>
        <time>2014-09-21T07:52:14Z</time>
      </trkpt>
      <trkpt lat="43.31504" lon="-0.5101">
        <ele>205.859497</ele>
        <time>2014-09-21T07:52:29Z</time>
      </trkpt>
      <trkpt lat="43.31486" lon="-0.51008">
        <ele>209.224121</ele>
        <time>2014-09-21T07:52:41Z</time>
      </trkpt>
      <trkpt lat="43.31468" lon="-0.50992">
        <ele>209.704834</ele>
        <time>2014-09-21T07:52:57Z</time>
      </trkpt>
      <trkpt lat="43.31463" lon="-0.50983">
        <ele>210.666016</ele>
        <time>2014-09-21T07:53:03Z</time>
      </trkpt>
      <trkpt lat="43.31464" lon="-0.50961">
        <ele>206.820679</ele>
        <time>2014-09-21T07:53:14Z</time>
      </trkpt>
      <trkpt lat="43.31464" lon="-0.5096">
        <ele>208.743408</ele>
        <time>2014-09-21T07:53:15Z</time>
      </trkpt>
      <trkpt lat="43.31463" lon="-0.50948">
        <ele>207.782104</ele>
        <time>2014-09-21T07:53:19Z</time>
      </trkpt>
      <trkpt lat="43.31457" lon="-0.50931">
        <ele>208.262817</ele>
        <time>2014-09-21T07:53:30Z</time>
      </trkpt>
      <trkpt lat="43.31454" lon="-0.50925">
        <ele>208.743408</ele>
        <time>2014-09-21T07:53:34Z</time>
      </trkpt>
      <trkpt lat="43.31447" lon="-0.5092">
        <ele>210.185425</ele>
        <time>2014-09-21T07:53:40Z</time>
      </trkpt>
      <trkpt lat="43.31447" lon="-0.50922">
        <ele>210.185425</ele>
        <time>2014-09-21T07:53:44Z</time>
      </trkpt>
      <trkpt lat="43.31451" lon="-0.5093">
        <ele>211.146729</ele>
        <time>2014-09-21T07:53:49Z</time>
      </trkpt>
      <trkpt lat="43.3145" lon="-0.50941">
        <ele>212.108032</ele>
        <time>2014-09-21T07:53:54Z</time>
      </trkpt>
      <trkpt lat="43.31443" lon="-0.50939">
        <ele>213.550049</ele>
        <time>2014-09-21T07:53:59Z</time>
      </trkpt>
      <trkpt lat="43.31432" lon="-0.50923">
        <ele>216.43396</ele>
        <time>2014-09-21T07:54:09Z</time>
      </trkpt>
      <trkpt lat="43.31422" lon="-0.50904">
        <ele>218.356567</ele>
        <time>2014-09-21T07:54:19Z</time>
      </trkpt>
      <trkpt lat="43.31419" lon="-0.50897">
        <ele>218.83728</ele>
        <time>2014-09-21T07:54:23Z</time>
      </trkpt>
      <trkpt lat="43.31406" lon="-0.50878">
        <ele>221.240601</ele>
        <time>2014-09-21T07:54:36Z</time>
      </trkpt>
      <trkpt lat="43.31394" lon="-0.50866">
        <ele>222.682495</ele>
        <time>2014-09-21T07:54:46Z</time>
      </trkpt>
      <trkpt lat="43.31387" lon="-0.50862">
        <ele>224.605225</ele>
        <time>2014-09-21T07:54:53Z</time>
      </trkpt>
      <trkpt lat="43.31364" lon="-0.50859">
        <ele>227.489136</ele>
        <time>2014-09-21T07:55:07Z</time>
      </trkpt>
      <trkpt lat="43.31353" lon="-0.50856">
        <ele>228.931152</ele>
        <time>2014-09-21T07:55:19Z</time>
      </trkpt>
      <trkpt lat="43.31348" lon="-0.50851">
        <ele>228.931152</ele>
        <time>2014-09-21T07:55:24Z</time>
      </trkpt>
      <trkpt lat="43.31339" lon="-0.50837">
        <ele>230.85376</ele>
        <time>2014-09-21T07:55:35Z</time>
      </trkpt>
      <trkpt lat="43.31332" lon="-0.50826">
        <ele>232.776489</ele>
        <time>2014-09-21T07:55:46Z</time>
      </trkpt>
      <trkpt lat="43.31324" lon="-0.50815">
        <ele>232.776489</ele>
        <time>2014-09-21T07:55:57Z</time>
      </trkpt>
      <trkpt lat="43.31302" lon="-0.50791">
        <ele>231.814941</ele>
        <time>2014-09-21T07:56:09Z</time>
      </trkpt>
      <trkpt lat="43.31286" lon="-0.50785">
        <ele>232.295776</ele>
        <time>2014-09-21T07:56:17Z</time>
      </trkpt>
      <trkpt lat="43.31272" lon="-0.50776">
        <ele>232.776489</ele>
        <time>2014-09-21T07:56:24Z</time>
      </trkpt>
      <trkpt lat="43.31239" lon="-0.50761">
        <ele>233.737671</ele>
        <time>2014-09-21T07:56:38Z</time>
      </trkpt>
      <trkpt lat="43.3122" lon="-0.50738">
        <ele>235.179688</ele>
        <time>2014-09-21T07:56:48Z</time>
      </trkpt>
      <trkpt lat="43.31195" lon="-0.50699">
        <ele>233.737671</ele>
        <time>2014-09-21T07:56:58Z</time>
      </trkpt>
      <trkpt lat="43.3118" lon="-0.50671">
        <ele>234.218384</ele>
        <time>2014-09-21T07:57:08Z</time>
      </trkpt>
      <trkpt lat="43.31168" lon="-0.50659">
        <ele>234.218384</ele>
        <time>2014-09-21T07:57:15Z</time>
      </trkpt>
      <trkpt lat="43.31144" lon="-0.50655">
        <ele>233.25708</ele>
        <time>2014-09-21T07:57:21Z</time>
      </trkpt>
      <trkpt lat="43.31125" lon="-0.50645">
        <ele>232.776489</ele>
        <time>2014-09-21T07:57:25Z</time>
      </trkpt>
      <trkpt lat="43.31097" lon="-0.50633">
        <ele>227.969727</ele>
        <time>2014-09-21T07:57:30Z</time>
      </trkpt>
      <trkpt lat="43.31083" lon="-0.50611">
        <ele>226.047119</ele>
        <time>2014-09-21T07:57:34Z</time>
      </trkpt>
      <trkpt lat="43.31066" lon="-0.50588">
        <ele>226.527832</ele>
        <time>2014-09-21T07:57:40Z</time>
      </trkpt>
      <trkpt lat="43.31026" lon="-0.50558">
        <ele>228.450439</ele>
        <time>2014-09-21T07:57:51Z</time>
      </trkpt>
      <trkpt lat="43.30985" lon="-0.50525">
        <ele>228.931152</ele>
        <time>2014-09-21T07:58:03Z</time>
      </trkpt>
      <trkpt lat="43.30974" lon="-0.50515">
        <ele>228.931152</ele>
        <time>2014-09-21T07:58:06Z</time>
      </trkpt>
      <trkpt lat="43.30944" lon="-0.50477">
        <ele>230.373047</ele>
        <time>2014-09-21T07:58:17Z</time>
      </trkpt>
      <trkpt lat="43.30915" lon="-0.50468">
        <ele>232.295776</ele>
        <time>2014-09-21T07:58:27Z</time>
      </trkpt>
      <trkpt lat="43.30912" lon="-0.50467">
        <ele>232.295776</ele>
        <time>2014-09-21T07:58:28Z</time>
      </trkpt>
      <trkpt lat="43.30886" lon="-0.50457">
        <ele>232.776489</ele>
        <time>2014-09-21T07:58:38Z</time>
      </trkpt>
      <trkpt lat="43.30857" lon="-0.50441">
        <ele>235.660278</ele>
        <time>2014-09-21T07:58:51Z</time>
      </trkpt>
      <trkpt lat="43.30833" lon="-0.50428">
        <ele>238.544312</ele>
        <time>2014-09-21T07:59:06Z</time>
      </trkpt>
      <trkpt lat="43.30818" lon="-0.50415">
        <ele>241.908936</ele>
        <time>2014-09-21T07:59:19Z</time>
      </trkpt>
      <trkpt lat="43.30808" lon="-0.50404">
        <ele>244.312256</ele>
        <time>2014-09-21T07:59:30Z</time>
      </trkpt>
      <trkpt lat="43.30795" lon="-0.50389">
        <ele>247.196045</ele>
        <time>2014-09-21T07:59:43Z</time>
      </trkpt>
      <trkpt lat="43.30791" lon="-0.50384">
        <ele>248.638184</ele>
        <time>2014-09-21T07:59:47Z</time>
      </trkpt>
      <trkpt lat="43.3078" lon="-0.50372">
        <ele>252.483398</ele>
        <time>2014-09-21T07:59:58Z</time>
      </trkpt>
      <trkpt lat="43.30764" lon="-0.50356">
        <ele>255.848022</ele>
        <time>2014-09-21T08:00:13Z</time>
      </trkpt>
      <trkpt lat="43.30745" lon="-0.50345">
        <ele>258.251343</ele>
        <time>2014-09-21T08:00:27Z</time>
      </trkpt>
      <trkpt lat="43.30721" lon="-0.50325">
        <ele>259.693359</ele>
        <time>2014-09-21T08:00:43Z</time>
      </trkpt>
      <trkpt lat="43.30693" lon="-0.50289">
        <ele>261.615967</ele>
        <time>2014-09-21T08:01:01Z</time>
      </trkpt>
      <trkpt lat="43.3066" lon="-0.50254">
        <ele>265.461304</ele>
        <time>2014-09-21T08:01:21Z</time>
      </trkpt>
      <trkpt lat="43.30637" lon="-0.50226">
        <ele>268.825806</ele>
        <time>2014-09-21T08:01:36Z</time>
      </trkpt>
      <trkpt lat="43.30625" lon="-0.50204">
        <ele>272.19043</ele>
        <time>2014-09-21T08:01:45Z</time>
      </trkpt>
      <trkpt lat="43.30604" lon="-0.50166">
        <ele>275.074463</ele>
        <time>2014-09-21T08:02:01Z</time>
      </trkpt>
      <trkpt lat="43.30585" lon="-0.50143">
        <ele>276.516357</ele>
        <time>2014-09-21T08:02:13Z</time>
      </trkpt>
      <trkpt lat="43.30565" lon="-0.50117">
        <ele>273.151855</ele>
        <time>2014-09-21T08:02:20Z</time>
      </trkpt>
      <trkpt lat="43.30546" lon="-0.50092">
        <ele>272.19043</ele>
        <time>2014-09-21T08:02:24Z</time>
      </trkpt>
      <trkpt lat="43.30525" lon="-0.5006">
        <ele>269.306519</ele>
        <time>2014-09-21T08:02:28Z</time>
      </trkpt>
      <trkpt lat="43.30517" lon="-0.50039">
        <ele>267.864502</ele>
        <time>2014-09-21T08:02:30Z</time>
      </trkpt>
      <trkpt lat="43.30513" lon="-0.50027">
        <ele>265.941895</ele>
        <time>2014-09-21T08:02:31Z</time>
      </trkpt>
      <trkpt lat="43.30511" lon="-0.49992">
        <ele>263.057861</ele>
        <time>2014-09-21T08:02:36Z</time>
      </trkpt>
      <trkpt lat="43.30503" lon="-0.50001">
        <ele>262.577148</ele>
        <time>2014-09-21T08:02:42Z</time>
      </trkpt>
      <trkpt lat="43.30499" lon="-0.50042">
        <ele>260.17395</ele>
        <time>2014-09-21T08:02:49Z</time>
      </trkpt>
      <trkpt lat="43.30499" lon="-0.50057">
        <ele>258.731934</ele>
        <time>2014-09-21T08:02:51Z</time>
      </trkpt>
      <trkpt lat="43.30499" lon="-0.50067">
        <ele>257.290039</ele>
        <time>2014-09-21T08:02:53Z</time>
      </trkpt>
      <trkpt lat="43.30501" lon="-0.50086">
        <ele>254.886597</ele>
        <time>2014-09-21T08:02:58Z</time>
      </trkpt>
      <trkpt lat="43.30499" lon="-0.50099">
        <ele>252.963989</ele>
        <time>2014-09-21T08:03:01Z</time>
      </trkpt>
      <trkpt lat="43.30487" lon="-0.50134">
        <ele>249.599487</ele>
        <time>2014-09-21T08:03:06Z</time>
      </trkpt>
      <trkpt lat="43.30481" lon="-0.50142">
        <ele>246.234863</ele>
        <time>2014-09-21T08:03:08Z</time>
      </trkpt>
      <trkpt lat="43.30478" lon="-0.50147">
        <ele>245.75415</ele>
        <time>2014-09-21T08:03:09Z</time>
      </trkpt>
      <trkpt lat="43.3047" lon="-0.50157">
        <ele>242.870239</ele>
        <time>2014-09-21T08:03:12Z</time>
      </trkpt>
      <trkpt lat="43.30461" lon="-0.50168">
        <ele>241.428223</ele>
        <time>2014-09-21T08:03:15Z</time>
      </trkpt>
      <trkpt lat="43.30458" lon="-0.50171">
        <ele>241.428223</ele>
        <time>2014-09-21T08:03:16Z</time>
      </trkpt>
      <trkpt lat="43.30446" lon="-0.50182">
        <ele>237.102295</ele>
        <time>2014-09-21T08:03:20Z</time>
      </trkpt>
      <trkpt lat="43.30443" lon="-0.50203">
        <ele>235.179688</ele>
        <time>2014-09-21T08:03:25Z</time>
      </trkpt>
      <trkpt lat="43.30441" lon="-0.50212">
        <ele>235.179688</ele>
        <time>2014-09-21T08:03:27Z</time>
      </trkpt>
      <trkpt lat="43.30439" lon="-0.50217">
        <ele>233.25708</ele>
        <time>2014-09-21T08:03:29Z</time>
      </trkpt>
      <trkpt lat="43.30439" lon="-0.50235">
        <ele>229.411743</ele>
        <time>2014-09-21T08:03:34Z</time>
      </trkpt>
      <trkpt lat="43.30431" lon="-0.50248">
        <ele>227.008545</ele>
        <time>2014-09-21T08:03:38Z</time>
      </trkpt>
      <trkpt lat="43.30423" lon="-0.50256">
        <ele>225.085938</ele>
        <time>2014-09-21T08:03:41Z</time>
      </trkpt>
      <trkpt lat="43.30412" lon="-0.50264">
        <ele>222.682495</ele>
        <time>2014-09-21T08:03:45Z</time>
      </trkpt>
      <trkpt lat="43.30408" lon="-0.50265">
        <ele>221.240601</ele>
        <time>2014-09-21T08:03:46Z</time>
      </trkpt>
      <trkpt lat="43.30386" lon="-0.50265">
        <ele>217.395386</ele>
        <time>2014-09-21T08:03:52Z</time>
      </trkpt>
      <trkpt lat="43.30384" lon="-0.50265">
        <ele>217.395386</ele>
        <time>2014-09-21T08:03:53Z</time>
      </trkpt>
      <trkpt lat="43.3037" lon="-0.5026">
        <ele>215.953247</ele>
        <time>2014-09-21T08:03:59Z</time>
      </trkpt>
      <trkpt lat="43.3039" lon="-0.50284">
        <ele>214.991943</ele>
        <time>2014-09-21T08:04:08Z</time>
      </trkpt>
      <trkpt lat="43.3044" lon="-0.50336">
        <ele>212.108032</ele>
        <time>2014-09-21T08:04:18Z</time>
      </trkpt>
      <trkpt lat="43.30462" lon="-0.50369">
        <ele>210.185425</ele>
        <time>2014-09-21T08:04:23Z</time>
      </trkpt>
      <trkpt lat="43.30477" lon="-0.50388">
        <ele>210.185425</ele>
        <time>2014-09-21T08:04:26Z</time>
      </trkpt>
      <trkpt lat="43.3054" lon="-0.50463">
        <ele>206.340088</ele>
        <time>2014-09-21T08:04:37Z</time>
      </trkpt>
      <trkpt lat="43.30586" lon="-0.50513">
        <ele>202.975464</ele>
        <time>2014-09-21T08:04:45Z</time>
      </trkpt>
      <trkpt lat="43.30592" lon="-0.50518">
        <ele>202.975464</ele>
        <time>2014-09-21T08:04:46Z</time>
      </trkpt>
      <trkpt lat="43.3063" lon="-0.5054">
        <ele>201.533569</ele>
        <time>2014-09-21T08:04:51Z</time>
      </trkpt>
      <trkpt lat="43.30667" lon="-0.5057">
        <ele>198.168945</ele>
        <time>2014-09-21T08:04:56Z</time>
      </trkpt>
      <trkpt lat="43.30681" lon="-0.50586">
        <ele>197.20752</ele>
        <time>2014-09-21T08:04:58Z</time>
      </trkpt>
      <trkpt lat="43.30716" lon="-0.50624">
        <ele>194.32373</ele>
        <time>2014-09-21T08:05:03Z</time>
      </trkpt>
      <trkpt lat="43.30735" lon="-0.50641">
        <ele>190.958984</ele>
        <time>2014-09-21T08:05:06Z</time>
      </trkpt>
      <trkpt lat="43.30762" lon="-0.50655">
        <ele>186.152466</ele>
        <time>2014-09-21T08:05:09Z</time>
      </trkpt>
      <trkpt lat="43.30848" lon="-0.50689">
        <ele>183.749023</ele>
        <time>2014-09-21T08:05:18Z</time>
      </trkpt>
      <trkpt lat="43.30867" lon="-0.50702">
        <ele>184.229858</ele>
        <time>2014-09-21T08:05:21Z</time>
      </trkpt>
      <trkpt lat="43.30878" lon="-0.50713">
        <ele>183.268433</ele>
        <time>2014-09-21T08:05:23Z</time>
      </trkpt>
      <trkpt lat="43.30962" lon="-0.508">
        <ele>182.307129</ele>
        <time>2014-09-21T08:05:36Z</time>
      </trkpt>
      <trkpt lat="43.30999" lon="-0.50828">
        <ele>180.384521</ele>
        <time>2014-09-21T08:05:41Z</time>
      </trkpt>
      <trkpt lat="43.31035" lon="-0.50858">
        <ele>179.903809</ele>
        <time>2014-09-21T08:05:47Z</time>
      </trkpt>
      <trkpt lat="43.31052" lon="-0.50885">
        <ele>179.903809</ele>
        <time>2014-09-21T08:05:52Z</time>
      </trkpt>
      <trkpt lat="43.31062" lon="-0.50912">
        <ele>180.384521</ele>
        <time>2014-09-21T08:05:57Z</time>
      </trkpt>
      <trkpt lat="43.31092" lon="-0.50954">
        <ele>177.981201</ele>
        <time>2014-09-21T08:06:03Z</time>
      </trkpt>
      <trkpt lat="43.31099" lon="-0.50961">
        <ele>177.50061</ele>
        <time>2014-09-21T08:06:04Z</time>
      </trkpt>
      <trkpt lat="43.31153" lon="-0.51027">
        <ele>175.577881</ele>
        <time>2014-09-21T08:06:13Z</time>
      </trkpt>
      <trkpt lat="43.3117" lon="-0.51061">
        <ele>176.058594</ele>
        <time>2014-09-21T08:06:18Z</time>
      </trkpt>
      <trkpt lat="43.31235" lon="-0.51129">
        <ele>172.69397</ele>
        <time>2014-09-21T08:06:29Z</time>
      </trkpt>
      <trkpt lat="43.31257" lon="-0.51151">
        <ele>173.655273</ele>
        <time>2014-09-21T08:06:33Z</time>
      </trkpt>
      <trkpt lat="43.31283" lon="-0.51169">
        <ele>173.655273</ele>
        <time>2014-09-21T08:06:37Z</time>
      </trkpt>
      <trkpt lat="43.3136" lon="-0.51204">
        <ele>170.771362</ele>
        <time>2014-09-21T08:06:47Z</time>
      </trkpt>
      <trkpt lat="43.31447" lon="-0.51224">
        <ele>168.368042</ele>
        <time>2014-09-21T08:07:01Z</time>
      </trkpt>
      <trkpt lat="43.31502" lon="-0.51216">
        <ele>166.926025</ele>
        <time>2014-09-21T08:07:08Z</time>
      </trkpt>
      <trkpt lat="43.31522" lon="-0.51218">
        <ele>167.406738</ele>
        <time>2014-09-21T08:07:11Z</time>
      </trkpt>
      <trkpt lat="43.31538" lon="-0.51247">
        <ele>165.484131</ele>
        <time>2014-09-21T08:07:15Z</time>
      </trkpt>
      <trkpt lat="43.31563" lon="-0.51302">
        <ele>162.119507</ele>
        <time>2014-09-21T08:07:21Z</time>
      </trkpt>
      <trkpt lat="43.31574" lon="-0.5132">
        <ele>161.158203</ele>
        <time>2014-09-21T08:07:23Z</time>
      </trkpt>
      <trkpt lat="43.31587" lon="-0.51338">
        <ele>159.235474</ele>
        <time>2014-09-21T08:07:25Z</time>
      </trkpt>
      <trkpt lat="43.31636" lon="-0.51365">
        <ele>156.832153</ele>
        <time>2014-09-21T08:07:30Z</time>
      </trkpt>
      <trkpt lat="43.3166" lon="-0.51375">
        <ele>152.986938</ele>
        <time>2014-09-21T08:07:33Z</time>
      </trkpt>
      <trkpt lat="43.31668" lon="-0.51377">
        <ele>152.986938</ele>
        <time>2014-09-21T08:07:34Z</time>
      </trkpt>
      <trkpt lat="43.31716" lon="-0.51394">
        <ele>151.544922</ele>
        <time>2014-09-21T08:07:41Z</time>
      </trkpt>
      <trkpt lat="43.3175" lon="-0.514">
        <ele>152.025757</ele>
        <time>2014-09-21T08:07:46Z</time>
      </trkpt>
      <trkpt lat="43.31762" lon="-0.51404">
        <ele>152.025757</ele>
        <time>2014-09-21T08:07:48Z</time>
      </trkpt>
      <trkpt lat="43.31795" lon="-0.51423">
        <ele>152.506348</ele>
        <time>2014-09-21T08:07:54Z</time>
      </trkpt>
      <trkpt lat="43.31821" lon="-0.51439">
        <ele>153.467651</ele>
        <time>2014-09-21T08:08:00Z</time>
      </trkpt>
      <trkpt lat="43.3183" lon="-0.51442">
        <ele>154.428955</ele>
        <time>2014-09-21T08:08:02Z</time>
      </trkpt>
      <trkpt lat="43.31844" lon="-0.51442">
        <ele>152.986938</ele>
        <time>2014-09-21T08:08:05Z</time>
      </trkpt>
      <trkpt lat="43.31862" lon="-0.51431">
        <ele>152.025757</ele>
        <time>2014-09-21T08:08:08Z</time>
      </trkpt>
      <trkpt lat="43.31897" lon="-0.51386">
        <ele>152.506348</ele>
        <time>2014-09-21T08:08:16Z</time>
      </trkpt>
      <trkpt lat="43.31916" lon="-0.51373">
        <ele>151.064209</ele>
        <time>2014-09-21T08:08:22Z</time>
      </trkpt>
      <trkpt lat="43.31925" lon="-0.51385">
        <ele>150.103027</ele>
        <time>2014-09-21T08:08:24Z</time>
      </trkpt>
      <trkpt lat="43.31969" lon="-0.51425">
        <ele>148.661011</ele>
        <time>2014-09-21T08:08:32Z</time>
      </trkpt>
      <trkpt lat="43.31992" lon="-0.5144">
        <ele>148.18042</ele>
        <time>2014-09-21T08:08:37Z</time>
      </trkpt>
      <trkpt lat="43.31988" lon="-0.51458">
        <ele>148.18042</ele>
        <time>2014-09-21T08:08:41Z</time>
      </trkpt>
      <trkpt lat="43.31943" lon="-0.51516">
        <ele>146.257813</ele>
        <time>2014-09-21T08:08:52Z</time>
      </trkpt>
      <trkpt lat="43.31938" lon="-0.51536">
        <ele>144.815796</ele>
        <time>2014-09-21T08:08:55Z</time>
      </trkpt>
      <trkpt lat="43.31939" lon="-0.51544">
        <ele>144.815796</ele>
        <time>2014-09-21T08:08:56Z</time>
      </trkpt>
      <trkpt lat="43.3196" lon="-0.51665">
        <ele>142.893066</ele>
        <time>2014-09-21T08:09:11Z</time>
      </trkpt>
      <trkpt lat="43.3197" lon="-0.51753">
        <ele>142.412476</ele>
        <time>2014-09-21T08:09:24Z</time>
      </trkpt>
      <trkpt lat="43.31967" lon="-0.51782">
        <ele>141.931763</ele>
        <time>2014-09-21T08:09:28Z</time>
      </trkpt>
      <trkpt lat="43.31963" lon="-0.51803">
        <ele>140.970459</ele>
        <time>2014-09-21T08:09:31Z</time>
      </trkpt>
      <trkpt lat="43.31964" lon="-0.51863">
        <ele>141.45105</ele>
        <time>2014-09-21T08:09:42Z</time>
      </trkpt>
      <trkpt lat="43.31965" lon="-0.51873">
        <ele>141.45105</ele>
        <time>2014-09-21T08:09:44Z</time>
      </trkpt>
      <trkpt lat="43.3197" lon="-0.51896">
        <ele>140.970459</ele>
        <time>2014-09-21T08:09:48Z</time>
      </trkpt>
      <trkpt lat="43.31937" lon="-0.51939">
        <ele>140.970459</ele>
        <time>2014-09-21T08:09:59Z</time>
      </trkpt>
      <trkpt lat="43.31934" lon="-0.51942">
        <ele>140.970459</ele>
        <time>2014-09-21T08:10:00Z</time>
      </trkpt>
      <trkpt lat="43.31921" lon="-0.5196">
        <ele>140.970459</ele>
        <time>2014-09-21T08:10:05Z</time>
      </trkpt>
      <trkpt lat="43.31912" lon="-0.51993">
        <ele>141.45105</ele>
        <time>2014-09-21T08:10:11Z</time>
      </trkpt>
      <trkpt lat="43.31904" lon="-0.52048">
        <ele>141.45105</ele>
        <time>2014-09-21T08:10:22Z</time>
      </trkpt>
      <trkpt lat="43.31876" lon="-0.52105">
        <ele>139.047852</ele>
        <time>2014-09-21T08:10:31Z</time>
      </trkpt>
      <trkpt lat="43.31875" lon="-0.52116">
        <ele>140.009155</ele>
        <time>2014-09-21T08:10:34Z</time>
      </trkpt>
      <trkpt lat="43.31886" lon="-0.52172">
        <ele>140.009155</ele>
        <time>2014-09-21T08:10:47Z</time>
      </trkpt>
      <trkpt lat="43.31896" lon="-0.52218">
        <ele>140.009155</ele>
        <time>2014-09-21T08:10:59Z</time>
      </trkpt>
      <trkpt lat="43.31911" lon="-0.52266">
        <ele>140.489868</ele>
        <time>2014-09-21T08:11:10Z</time>
      </trkpt>
      <trkpt lat="43.31909" lon="-0.52308">
        <ele>141.45105</ele>
        <time>2014-09-21T08:11:18Z</time>
      </trkpt>
      <trkpt lat="43.31908" lon="-0.52314">
        <ele>140.009155</ele>
        <time>2014-09-21T08:11:20Z</time>
      </trkpt>
      <trkpt lat="43.31903" lon="-0.52327">
        <ele>140.489868</ele>
        <time>2014-09-21T08:11:25Z</time>
      </trkpt>
      <trkpt lat="43.3191" lon="-0.52343">
        <ele>140.489868</ele>
        <time>2014-09-21T08:11:30Z</time>
      </trkpt>
      <trkpt lat="43.31913" lon="-0.52375">
        <ele>139.528442</ele>
        <time>2014-09-21T08:11:39Z</time>
      </trkpt>
      <trkpt lat="43.31903" lon="-0.52398">
        <ele>140.009155</ele>
        <time>2014-09-21T08:11:45Z</time>
      </trkpt>
      <trkpt lat="43.31876" lon="-0.52426">
        <ele>139.528442</ele>
        <time>2014-09-21T08:11:56Z</time>
      </trkpt>
      <trkpt lat="43.31876" lon="-0.52458">
        <ele>136.644653</ele>
        <time>2014-09-21T08:12:05Z</time>
      </trkpt>
      <trkpt lat="43.31886" lon="-0.52468">
        <ele>136.16394</ele>
        <time>2014-09-21T08:12:14Z</time>
      </trkpt>
      <trkpt lat="43.31893" lon="-0.52496">
        <ele>137.125244</ele>
        <time>2014-09-21T08:12:26Z</time>
      </trkpt>
      <trkpt lat="43.31896" lon="-0.52523">
        <ele>138.086548</ele>
        <time>2014-09-21T08:12:34Z</time>
      </trkpt>
      <trkpt lat="43.31892" lon="-0.52531">
        <ele>140.489868</ele>
        <time>2014-09-21T08:12:38Z</time>
      </trkpt>
      <trkpt lat="43.3188" lon="-0.52523">
        <ele>140.970459</ele>
        <time>2014-09-21T08:12:43Z</time>
      </trkpt>
      <trkpt lat="43.31835" lon="-0.52503">
        <ele>141.45105</ele>
        <time>2014-09-21T08:12:56Z</time>
      </trkpt>
      <trkpt lat="43.31776" lon="-0.52478">
        <ele>141.45105</ele>
        <time>2014-09-21T08:13:11Z</time>
      </trkpt>
      <trkpt lat="43.31768" lon="-0.52475">
        <ele>141.45105</ele>
        <time>2014-09-21T08:13:13Z</time>
      </trkpt>
      <trkpt lat="43.31745" lon="-0.52471">
        <ele>141.45105</ele>
        <time>2014-09-21T08:13:18Z</time>
      </trkpt>
      <trkpt lat="43.31737" lon="-0.52468">
        <ele>140.970459</ele>
        <time>2014-09-21T08:13:20Z</time>
      </trkpt>
      <trkpt lat="43.31713" lon="-0.5245">
        <ele>141.931763</ele>
        <time>2014-09-21T08:13:27Z</time>
      </trkpt>
      <trkpt lat="43.31664" lon="-0.52407">
        <ele>141.931763</ele>
        <time>2014-09-21T08:13:42Z</time>
      </trkpt>
      <trkpt lat="43.31642" lon="-0.52411">
        <ele>141.931763</ele>
        <time>2014-09-21T08:13:50Z</time>
      </trkpt>
      <trkpt lat="43.31629" lon="-0.52453">
        <ele>142.412476</ele>
        <time>2014-09-21T08:14:01Z</time>
      </trkpt>
      <trkpt lat="43.31614" lon="-0.52494">
        <ele>142.893066</ele>
        <time>2014-09-21T08:14:12Z</time>
      </trkpt>
      <trkpt lat="43.31582" lon="-0.52559">
        <ele>144.815796</ele>
        <time>2014-09-21T08:14:29Z</time>
      </trkpt>
      <trkpt lat="43.31576" lon="-0.52572">
        <ele>144.815796</ele>
        <time>2014-09-21T08:14:33Z</time>
      </trkpt>
      <trkpt lat="43.31563" lon="-0.52585">
        <ele>145.296387</ele>
        <time>2014-09-21T08:14:38Z</time>
      </trkpt>
      <trkpt lat="43.31527" lon="-0.52618">
        <ele>147.699707</ele>
        <time>2014-09-21T08:14:52Z</time>
      </trkpt>
      <trkpt lat="43.31503" lon="-0.52642">
        <ele>148.18042</ele>
        <time>2014-09-21T08:15:02Z</time>
      </trkpt>
      <trkpt lat="43.31472" lon="-0.5268">
        <ele>149.622314</ele>
        <time>2014-09-21T08:15:17Z</time>
      </trkpt>
      <trkpt lat="43.31446" lon="-0.52713">
        <ele>151.544922</ele>
        <time>2014-09-21T08:15:31Z</time>
      </trkpt>
      <trkpt lat="43.31421" lon="-0.52737">
        <ele>151.544922</ele>
        <time>2014-09-21T08:15:43Z</time>
      </trkpt>
      <trkpt lat="43.31398" lon="-0.52763">
        <ele>153.948364</ele>
        <time>2014-09-21T08:15:56Z</time>
      </trkpt>
      <trkpt lat="43.31385" lon="-0.52777">
        <ele>155.390259</ele>
        <time>2014-09-21T08:16:04Z</time>
      </trkpt>
      <trkpt lat="43.31378" lon="-0.52785">
        <ele>156.351563</ele>
        <time>2014-09-21T08:16:09Z</time>
      </trkpt>
      <trkpt lat="43.31362" lon="-0.52804">
        <ele>157.312866</ele>
        <time>2014-09-21T08:16:22Z</time>
      </trkpt>
      <trkpt lat="43.31361" lon="-0.52806">
        <ele>157.312866</ele>
        <time>2014-09-21T08:16:23Z</time>
      </trkpt>
      <trkpt lat="43.31346" lon="-0.52828">
        <ele>159.716187</ele>
        <time>2014-09-21T08:16:36Z</time>
      </trkpt>
      <trkpt lat="43.31342" lon="-0.52835">
        <ele>160.196899</ele>
        <time>2014-09-21T08:16:40Z</time>
      </trkpt>
      <trkpt lat="43.31332" lon="-0.52848">
        <ele>161.158203</ele>
        <time>2014-09-21T08:16:48Z</time>
      </trkpt>
      <trkpt lat="43.31324" lon="-0.5286">
        <ele>161.638916</ele>
        <time>2014-09-21T08:16:54Z</time>
      </trkpt>
      <trkpt lat="43.31299" lon="-0.52888">
        <ele>164.042114</ele>
        <time>2014-09-21T08:17:09Z</time>
      </trkpt>
      <trkpt lat="43.31264" lon="-0.52931">
        <ele>166.926025</ele>
        <time>2014-09-21T08:17:31Z</time>
      </trkpt>
      <trkpt lat="43.31254" lon="-0.52946">
        <ele>169.329468</ele>
        <time>2014-09-21T08:17:38Z</time>
      </trkpt>
      <trkpt lat="43.31222" lon="-0.52986">
        <ele>172.69397</ele>
        <time>2014-09-21T08:17:59Z</time>
      </trkpt>
      <trkpt lat="43.31191" lon="-0.53018">
        <ele>175.09729</ele>
        <time>2014-09-21T08:18:18Z</time>
      </trkpt>
      <trkpt lat="43.3116" lon="-0.53047">
        <ele>177.50061</ele>
        <time>2014-09-21T08:18:35Z</time>
      </trkpt>
      <trkpt lat="43.3113" lon="-0.53084">
        <ele>178.942627</ele>
        <time>2014-09-21T08:18:53Z</time>
      </trkpt>
      <trkpt lat="43.31109" lon="-0.53104">
        <ele>181.826416</ele>
        <time>2014-09-21T08:19:06Z</time>
      </trkpt>
      <trkpt lat="43.31082" lon="-0.53122">
        <ele>182.787842</ele>
        <time>2014-09-21T08:19:21Z</time>
      </trkpt>
      <trkpt lat="43.31063" lon="-0.53137">
        <ele>183.749023</ele>
        <time>2014-09-21T08:19:33Z</time>
      </trkpt>
      <trkpt lat="43.3103" lon="-0.53155">
        <ele>185.191162</ele>
        <time>2014-09-21T08:19:49Z</time>
      </trkpt>
      <trkpt lat="43.31009" lon="-0.53182">
        <ele>188.075073</ele>
        <time>2014-09-21T08:20:02Z</time>
      </trkpt>
      <trkpt lat="43.3099" lon="-0.53203">
        <ele>189.997681</ele>
        <time>2014-09-21T08:20:15Z</time>
      </trkpt>
      <trkpt lat="43.3097" lon="-0.53214">
        <ele>190.958984</ele>
        <time>2014-09-21T08:20:26Z</time>
      </trkpt>
      <trkpt lat="43.30946" lon="-0.53226">
        <ele>192.401123</ele>
        <time>2014-09-21T08:20:37Z</time>
      </trkpt>
      <trkpt lat="43.30934" lon="-0.53235">
        <ele>193.843018</ele>
        <time>2014-09-21T08:20:43Z</time>
      </trkpt>
      <trkpt lat="43.3093" lon="-0.53238">
        <ele>194.32373</ele>
        <time>2014-09-21T08:20:45Z</time>
      </trkpt>
      <trkpt lat="43.30923" lon="-0.53247">
        <ele>194.804321</ele>
        <time>2014-09-21T08:20:54Z</time>
      </trkpt>
      <trkpt lat="43.3091" lon="-0.53256">
        <ele>197.688232</ele>
        <time>2014-09-21T08:21:08Z</time>
      </trkpt>
      <trkpt lat="43.30908" lon="-0.53259">
        <ele>198.168945</ele>
        <time>2014-09-21T08:21:10Z</time>
      </trkpt>
      <trkpt lat="43.30898" lon="-0.53268">
        <ele>199.130127</ele>
        <time>2014-09-21T08:21:21Z</time>
      </trkpt>
      <trkpt lat="43.3089" lon="-0.53276">
        <ele>199.130127</ele>
        <time>2014-09-21T08:21:27Z</time>
      </trkpt>
      <trkpt lat="43.30868" lon="-0.53301">
        <ele>201.052856</ele>
        <time>2014-09-21T08:21:42Z</time>
      </trkpt>
      <trkpt lat="43.30865" lon="-0.53305">
        <ele>201.533569</ele>
        <time>2014-09-21T08:21:44Z</time>
      </trkpt>
      <trkpt lat="43.30857" lon="-0.5331">
        <ele>201.533569</ele>
        <time>2014-09-21T08:21:48Z</time>
      </trkpt>
      <trkpt lat="43.30832" lon="-0.53326">
        <ele>202.494873</ele>
        <time>2014-09-21T08:22:00Z</time>
      </trkpt>
      <trkpt lat="43.30819" lon="-0.53337">
        <ele>206.340088</ele>
        <time>2014-09-21T08:22:09Z</time>
      </trkpt>
      <trkpt lat="43.30807" lon="-0.53353">
        <ele>209.704834</ele>
        <time>2014-09-21T08:22:20Z</time>
      </trkpt>
      <trkpt lat="43.30797" lon="-0.53371">
        <ele>209.704834</ele>
        <time>2014-09-21T08:22:32Z</time>
      </trkpt>
      <trkpt lat="43.30796" lon="-0.53385">
        <ele>211.627441</ele>
        <time>2014-09-21T08:22:39Z</time>
      </trkpt>
      <trkpt lat="43.30796" lon="-0.53391">
        <ele>212.108032</ele>
        <time>2014-09-21T08:22:42Z</time>
      </trkpt>
      <trkpt lat="43.3079" lon="-0.53402">
        <ele>213.069336</ele>
        <time>2014-09-21T08:22:49Z</time>
      </trkpt>
      <trkpt lat="43.30775" lon="-0.53423">
        <ele>215.472656</ele>
        <time>2014-09-21T08:23:02Z</time>
      </trkpt>
      <trkpt lat="43.30751" lon="-0.53442">
        <ele>217.875977</ele>
        <time>2014-09-21T08:23:14Z</time>
      </trkpt>
      <trkpt lat="43.3073" lon="-0.53466">
        <ele>219.798584</ele>
        <time>2014-09-21T08:23:30Z</time>
      </trkpt>
      <trkpt lat="43.30723" lon="-0.53473">
        <ele>219.798584</ele>
        <time>2014-09-21T08:23:35Z</time>
      </trkpt>
      <trkpt lat="43.30709" lon="-0.535">
        <ele>222.201782</ele>
        <time>2014-09-21T08:23:46Z</time>
      </trkpt>
      <trkpt lat="43.30686" lon="-0.53526">
        <ele>223.163208</ele>
        <time>2014-09-21T08:23:59Z</time>
      </trkpt>
      <trkpt lat="43.30659" lon="-0.53515">
        <ele>224.605225</ele>
        <time>2014-09-21T08:24:13Z</time>
      </trkpt>
      <trkpt lat="43.30626" lon="-0.53502">
        <ele>227.969727</ele>
        <time>2014-09-21T08:24:32Z</time>
      </trkpt>
      <trkpt lat="43.30591" lon="-0.53492">
        <ele>230.85376</ele>
        <time>2014-09-21T08:24:54Z</time>
      </trkpt>
      <trkpt lat="43.30583" lon="-0.53487">
        <ele>231.334351</ele>
        <time>2014-09-21T08:25:05Z</time>
      </trkpt>
      <trkpt lat="43.30577" lon="-0.53485">
        <ele>231.814941</ele>
        <time>2014-09-21T08:25:18Z</time>
      </trkpt>
      <trkpt lat="43.30553" lon="-0.53481">
        <ele>234.218384</ele>
        <time>2014-09-21T08:25:34Z</time>
      </trkpt>
      <trkpt lat="43.30552" lon="-0.53482">
        <ele>233.25708</ele>
        <time>2014-09-21T08:25:36Z</time>
      </trkpt>
      <trkpt lat="43.3055" lon="-0.53488">
        <ele>235.179688</ele>
        <time>2014-09-21T08:25:40Z</time>
      </trkpt>
      <trkpt lat="43.30539" lon="-0.53511">
        <ele>239.024902</ele>
        <time>2014-09-21T08:25:54Z</time>
      </trkpt>
      <trkpt lat="43.30536" lon="-0.53521">
        <ele>240.467041</ele>
        <time>2014-09-21T08:26:00Z</time>
      </trkpt>
      <trkpt lat="43.30522" lon="-0.53547">
        <ele>243.35083</ele>
        <time>2014-09-21T08:26:16Z</time>
      </trkpt>
      <trkpt lat="43.30499" lon="-0.53584">
        <ele>246.715454</ele>
        <time>2014-09-21T08:26:39Z</time>
      </trkpt>
      <trkpt lat="43.30487" lon="-0.53607">
        <ele>249.599487</ele>
        <time>2014-09-21T08:26:53Z</time>
      </trkpt>
      <trkpt lat="43.30491" lon="-0.53616">
        <ele>251.041382</ele>
        <time>2014-09-21T08:26:59Z</time>
      </trkpt>
      <trkpt lat="43.30512" lon="-0.53632">
        <ele>254.406006</ele>
        <time>2014-09-21T08:27:16Z</time>
      </trkpt>
      <trkpt lat="43.30526" lon="-0.53642">
        <ele>258.251343</ele>
        <time>2014-09-21T08:27:28Z</time>
      </trkpt>
      <trkpt lat="43.30529" lon="-0.53648">
        <ele>259.212646</ele>
        <time>2014-09-21T08:27:32Z</time>
      </trkpt>
      <trkpt lat="43.30543" lon="-0.53667">
        <ele>262.577148</ele>
        <time>2014-09-21T08:27:48Z</time>
      </trkpt>
      <trkpt lat="43.30556" lon="-0.53697">
        <ele>265.461304</ele>
        <time>2014-09-21T08:28:04Z</time>
      </trkpt>
      <trkpt lat="43.30562" lon="-0.53713">
        <ele>267.383911</ele>
        <time>2014-09-21T08:28:10Z</time>
      </trkpt>
      <trkpt lat="43.30575" lon="-0.53766">
        <ele>269.787109</ele>
        <time>2014-09-21T08:28:29Z</time>
      </trkpt>
      <trkpt lat="43.30576" lon="-0.53792">
        <ele>271.709717</ele>
        <time>2014-09-21T08:28:37Z</time>
      </trkpt>
      <trkpt lat="43.30581" lon="-0.53827">
        <ele>273.151855</ele>
        <time>2014-09-21T08:28:47Z</time>
      </trkpt>
      <trkpt lat="43.30597" lon="-0.53866">
        <ele>275.555054</ele>
        <time>2014-09-21T08:29:01Z</time>
      </trkpt>
      <trkpt lat="43.30622" lon="-0.53876">
        <ele>278.438965</ele>
        <time>2014-09-21T08:29:15Z</time>
      </trkpt>
      <trkpt lat="43.30637" lon="-0.53893">
        <ele>280.361694</ele>
        <time>2014-09-21T08:29:27Z</time>
      </trkpt>
      <trkpt lat="43.30665" lon="-0.53937">
        <ele>281.322998</ele>
        <time>2014-09-21T08:29:41Z</time>
      </trkpt>
      <trkpt lat="43.30709" lon="-0.5401">
        <ele>281.322998</ele>
        <time>2014-09-21T08:29:57Z</time>
      </trkpt>
      <trkpt lat="43.30737" lon="-0.54031">
        <ele>281.803589</ele>
        <time>2014-09-21T08:30:05Z</time>
      </trkpt>
      <trkpt lat="43.30798" lon="-0.54047">
        <ele>285.168213</ele>
        <time>2014-09-21T08:30:20Z</time>
      </trkpt>
      <trkpt lat="43.30836" lon="-0.54057">
        <ele>288.532959</ele>
        <time>2014-09-21T08:30:32Z</time>
      </trkpt>
      <trkpt lat="43.30885" lon="-0.54077">
        <ele>291.416748</ele>
        <time>2014-09-21T08:30:50Z</time>
      </trkpt>
      <trkpt lat="43.30923" lon="-0.54096">
        <ele>292.378174</ele>
        <time>2014-09-21T08:31:03Z</time>
      </trkpt>
      <trkpt lat="43.30939" lon="-0.54086">
        <ele>291.897461</ele>
        <time>2014-09-21T08:31:10Z</time>
      </trkpt>
      <trkpt lat="43.30948" lon="-0.54076">
        <ele>291.416748</ele>
        <time>2014-09-21T08:31:23Z</time>
      </trkpt>
      <trkpt lat="43.30944" lon="-0.54072">
        <ele>290.936157</ele>
        <time>2014-09-21T08:31:44Z</time>
      </trkpt>
      <trkpt lat="43.30947" lon="-0.54076">
        <ele>291.416748</ele>
        <time>2014-09-21T08:32:06Z</time>
      </trkpt>
      <trkpt lat="43.30945" lon="-0.54078">
        <ele>291.416748</ele>
        <time>2014-09-21T08:32:28Z</time>
      </trkpt>
      <trkpt lat="43.30947" lon="-0.54078">
        <ele>290.936157</ele>
        <time>2014-09-21T08:32:47Z</time>
      </trkpt>
      <trkpt lat="43.3095" lon="-0.54077">
        <ele>291.897461</ele>
        <time>2014-09-21T08:33:04Z</time>
      </trkpt>
      <trkpt lat="43.3095" lon="-0.54075">
        <ele>291.897461</ele>
        <time>2014-09-21T08:33:23Z</time>
      </trkpt>
      <trkpt lat="43.30951" lon="-0.54072">
        <ele>292.378174</ele>
        <time>2014-09-21T08:33:28Z</time>
      </trkpt>
      <trkpt lat="43.30963" lon="-0.54098">
        <ele>291.897461</ele>
        <time>2014-09-21T08:33:38Z</time>
      </trkpt>
      <trkpt lat="43.3097" lon="-0.54136">
        <ele>291.897461</ele>
        <time>2014-09-21T08:33:48Z</time>
      </trkpt>
      <trkpt lat="43.3098" lon="-0.54151">
        <ele>291.897461</ele>
        <time>2014-09-21T08:33:51Z</time>
      </trkpt>
      <trkpt lat="43.31006" lon="-0.54213">
        <ele>288.052246</ele>
        <time>2014-09-21T08:33:59Z</time>
      </trkpt>
      <trkpt lat="43.31013" lon="-0.54233">
        <ele>287.09082</ele>
        <time>2014-09-21T08:34:01Z</time>
      </trkpt>
      <trkpt lat="43.31022" lon="-0.54266">
        <ele>283.726196</ele>
        <time>2014-09-21T08:34:05Z</time>
      </trkpt>
      <trkpt lat="43.31046" lon="-0.54261">
        <ele>282.284302</ele>
        <time>2014-09-21T08:34:11Z</time>
      </trkpt>
      <trkpt lat="43.3105" lon="-0.54229">
        <ele>285.168213</ele>
        <time>2014-09-21T08:34:18Z</time>
      </trkpt>
      <trkpt lat="43.31047" lon="-0.542">
        <ele>287.09082</ele>
        <time>2014-09-21T08:34:26Z</time>
      </trkpt>
      <trkpt lat="43.31049" lon="-0.5418">
        <ele>288.052246</ele>
        <time>2014-09-21T08:34:31Z</time>
      </trkpt>
      <trkpt lat="43.3106" lon="-0.54175">
        <ele>288.532959</ele>
        <time>2014-09-21T08:34:35Z</time>
      </trkpt>
      <trkpt lat="43.31083" lon="-0.54184">
        <ele>288.052246</ele>
        <time>2014-09-21T08:34:41Z</time>
      </trkpt>
      <trkpt lat="43.311" lon="-0.54199">
        <ele>287.09082</ele>
        <time>2014-09-21T08:34:45Z</time>
      </trkpt>
      <trkpt lat="43.31162" lon="-0.54239">
        <ele>286.129517</ele>
        <time>2014-09-21T08:34:58Z</time>
      </trkpt>
      <trkpt lat="43.31183" lon="-0.54249">
        <ele>285.168213</ele>
        <time>2014-09-21T08:35:02Z</time>
      </trkpt>
      <trkpt lat="43.31267" lon="-0.54287">
        <ele>282.765015</ele>
        <time>2014-09-21T08:35:16Z</time>
      </trkpt>
      <trkpt lat="43.3133" lon="-0.54306">
        <ele>279.880859</ele>
        <time>2014-09-21T08:35:27Z</time>
      </trkpt>
      <trkpt lat="43.31429" lon="-0.54338">
        <ele>277.477661</ele>
        <time>2014-09-21T08:35:44Z</time>
      </trkpt>
      <trkpt lat="43.31461" lon="-0.5434">
        <ele>275.555054</ele>
        <time>2014-09-21T08:35:50Z</time>
      </trkpt>
      <trkpt lat="43.31475" lon="-0.54344">
        <ele>274.113037</ele>
        <time>2014-09-21T08:35:53Z</time>
      </trkpt>
      <trkpt lat="43.31487" lon="-0.54347">
        <ele>271.229126</ele>
        <time>2014-09-21T08:35:58Z</time>
      </trkpt>
      <trkpt lat="43.31491" lon="-0.54348">
        <ele>270.2677</ele>
        <time>2014-09-21T08:36:00Z</time>
      </trkpt>
      <trkpt lat="43.31518" lon="-0.54355">
        <ele>267.383911</ele>
        <time>2014-09-21T08:36:09Z</time>
      </trkpt>
      <trkpt lat="43.31545" lon="-0.54367">
        <ele>264.499878</ele>
        <time>2014-09-21T08:36:14Z</time>
      </trkpt>
      <trkpt lat="43.31555" lon="-0.54373">
        <ele>263.057861</ele>
        <time>2014-09-21T08:36:16Z</time>
      </trkpt>
      <trkpt lat="43.31601" lon="-0.5438">
        <ele>259.212646</ele>
        <time>2014-09-21T08:36:22Z</time>
      </trkpt>
      <trkpt lat="43.31636" lon="-0.54381">
        <ele>255.36731</ele>
        <time>2014-09-21T08:36:26Z</time>
      </trkpt>
      <trkpt lat="43.3166" lon="-0.54384">
        <ele>252.002808</ele>
        <time>2014-09-21T08:36:30Z</time>
      </trkpt>
      <trkpt lat="43.31664" lon="-0.54385">
        <ele>251.522095</ele>
        <time>2014-09-21T08:36:31Z</time>
      </trkpt>
      <trkpt lat="43.31702" lon="-0.54388">
        <ele>248.638184</ele>
        <time>2014-09-21T08:36:38Z</time>
      </trkpt>
      <trkpt lat="43.31718" lon="-0.54396">
        <ele>247.196045</ele>
        <time>2014-09-21T08:36:41Z</time>
      </trkpt>
      <trkpt lat="43.31729" lon="-0.5441">
        <ele>244.792847</ele>
        <time>2014-09-21T08:36:45Z</time>
      </trkpt>
      <trkpt lat="43.31719" lon="-0.5444">
        <ele>240.947632</ele>
        <time>2014-09-21T08:36:51Z</time>
      </trkpt>
      <trkpt lat="43.31699" lon="-0.54473">
        <ele>237.582886</ele>
        <time>2014-09-21T08:36:56Z</time>
      </trkpt>
      <trkpt lat="43.31695" lon="-0.54479">
        <ele>236.621704</ele>
        <time>2014-09-21T08:36:57Z</time>
      </trkpt>
      <trkpt lat="43.31674" lon="-0.54501">
        <ele>232.776489</ele>
        <time>2014-09-21T08:37:02Z</time>
      </trkpt>
      <trkpt lat="43.31672" lon="-0.54504">
        <ele>231.334351</ele>
        <time>2014-09-21T08:37:03Z</time>
      </trkpt>
      <trkpt lat="43.31652" lon="-0.54523">
        <ele>228.931152</ele>
        <time>2014-09-21T08:37:07Z</time>
      </trkpt>
      <trkpt lat="43.3163" lon="-0.54548">
        <ele>223.163208</ele>
        <time>2014-09-21T08:37:12Z</time>
      </trkpt>
      <trkpt lat="43.31601" lon="-0.54584">
        <ele>220.759888</ele>
        <time>2014-09-21T08:37:21Z</time>
      </trkpt>
      <trkpt lat="43.31561" lon="-0.54597">
        <ele>222.201782</ele>
        <time>2014-09-21T08:37:29Z</time>
      </trkpt>
      <trkpt lat="43.31555" lon="-0.54598">
        <ele>221.721191</ele>
        <time>2014-09-21T08:37:30Z</time>
      </trkpt>
      <trkpt lat="43.31542" lon="-0.546">
        <ele>220.279175</ele>
        <time>2014-09-21T08:37:32Z</time>
      </trkpt>
      <trkpt lat="43.31532" lon="-0.54602">
        <ele>218.83728</ele>
        <time>2014-09-21T08:37:34Z</time>
      </trkpt>
      <trkpt lat="43.3152" lon="-0.54607">
        <ele>218.356567</ele>
        <time>2014-09-21T08:37:37Z</time>
      </trkpt>
      <trkpt lat="43.31535" lon="-0.54628">
        <ele>219.317993</ele>
        <time>2014-09-21T08:37:44Z</time>
      </trkpt>
      <trkpt lat="43.31536" lon="-0.54653">
        <ele>221.240601</ele>
        <time>2014-09-21T08:37:58Z</time>
      </trkpt>
      <trkpt lat="43.3154" lon="-0.54667">
        <ele>223.163208</ele>
        <time>2014-09-21T08:38:08Z</time>
      </trkpt>
      <trkpt lat="43.31548" lon="-0.54688">
        <ele>226.047119</ele>
        <time>2014-09-21T08:38:22Z</time>
      </trkpt>
      <trkpt lat="43.31555" lon="-0.54696">
        <ele>225.085938</ele>
        <time>2014-09-21T08:38:31Z</time>
      </trkpt>
      <trkpt lat="43.3156" lon="-0.54702">
        <ele>225.085938</ele>
        <time>2014-09-21T08:38:35Z</time>
      </trkpt>
      <trkpt lat="43.3158" lon="-0.54723">
        <ele>225.085938</ele>
        <time>2014-09-21T08:38:49Z</time>
      </trkpt>
      <trkpt lat="43.31602" lon="-0.54756">
        <ele>224.605225</ele>
        <time>2014-09-21T08:39:00Z</time>
      </trkpt>
      <trkpt lat="43.3163" lon="-0.54786">
        <ele>222.682495</ele>
        <time>2014-09-21T08:39:07Z</time>
      </trkpt>
      <trkpt lat="43.31657" lon="-0.54812">
        <ele>221.721191</ele>
        <time>2014-09-21T08:39:12Z</time>
      </trkpt>
      <trkpt lat="43.31693" lon="-0.54831">
        <ele>220.759888</ele>
        <time>2014-09-21T08:39:18Z</time>
      </trkpt>
      <trkpt lat="43.31709" lon="-0.54839">
        <ele>219.798584</ele>
        <time>2014-09-21T08:39:21Z</time>
      </trkpt>
      <trkpt lat="43.31744" lon="-0.54815">
        <ele>217.875977</ele>
        <time>2014-09-21T08:39:28Z</time>
      </trkpt>
      <trkpt lat="43.31794" lon="-0.54826">
        <ele>214.991943</ele>
        <time>2014-09-21T08:39:36Z</time>
      </trkpt>
      <trkpt lat="43.31807" lon="-0.54852">
        <ele>213.069336</ele>
        <time>2014-09-21T08:39:39Z</time>
      </trkpt>
      <trkpt lat="43.31825" lon="-0.54872">
        <ele>211.627441</ele>
        <time>2014-09-21T08:39:42Z</time>
      </trkpt>
      <trkpt lat="43.31842" lon="-0.54876">
        <ele>210.185425</ele>
        <time>2014-09-21T08:39:44Z</time>
      </trkpt>
      <trkpt lat="43.3185" lon="-0.54876">
        <ele>209.224121</ele>
        <time>2014-09-21T08:39:45Z</time>
      </trkpt>
      <trkpt lat="43.31916" lon="-0.5487">
        <ele>203.93689</ele>
        <time>2014-09-21T08:39:52Z</time>
      </trkpt>
      <trkpt lat="43.31925" lon="-0.54869">
        <ele>204.41748</ele>
        <time>2014-09-21T08:39:53Z</time>
      </trkpt>
      <trkpt lat="43.31962" lon="-0.54854">
        <ele>201.052856</ele>
        <time>2014-09-21T08:39:57Z</time>
      </trkpt>
      <trkpt lat="43.31992" lon="-0.54841">
        <ele>197.20752</ele>
        <time>2014-09-21T08:40:01Z</time>
      </trkpt>
      <trkpt lat="43.32008" lon="-0.54839">
        <ele>196.726929</ele>
        <time>2014-09-21T08:40:03Z</time>
      </trkpt>
      <trkpt lat="43.32048" lon="-0.54846">
        <ele>195.765625</ele>
        <time>2014-09-21T08:40:08Z</time>
      </trkpt>
      <trkpt lat="43.32056" lon="-0.54849">
        <ele>197.688232</ele>
        <time>2014-09-21T08:40:15Z</time>
      </trkpt>
      <trkpt lat="43.32062" lon="-0.54853">
        <ele>200.091675</ele>
        <time>2014-09-21T08:40:34Z</time>
      </trkpt>
      <trkpt lat="43.3207" lon="-0.54861">
        <ele>201.052856</ele>
        <time>2014-09-21T08:40:46Z</time>
      </trkpt>
      <trkpt lat="43.32079" lon="-0.54889">
        <ele>204.41748</ele>
        <time>2014-09-21T08:41:02Z</time>
      </trkpt>
      <trkpt lat="43.32084" lon="-0.54902">
        <ele>206.820679</ele>
        <time>2014-09-21T08:41:15Z</time>
      </trkpt>
      <trkpt lat="43.32085" lon="-0.54912">
        <ele>207.301392</ele>
        <time>2014-09-21T08:41:34Z</time>
      </trkpt>
      <trkpt lat="43.32086" lon="-0.54916">
        <ele>208.262817</ele>
        <time>2014-09-21T08:41:48Z</time>
      </trkpt>
      <trkpt lat="43.32094" lon="-0.54927">
        <ele>210.185425</ele>
        <time>2014-09-21T08:42:04Z</time>
      </trkpt>
      <trkpt lat="43.32094" lon="-0.54927">
        <ele>210.666016</ele>
        <time>2014-09-21T08:42:23Z</time>
      </trkpt>
      <trkpt lat="43.32103" lon="-0.54936">
        <ele>212.588623</ele>
        <time>2014-09-21T08:42:33Z</time>
      </trkpt>
      <trkpt lat="43.32109" lon="-0.54941">
        <ele>213.069336</ele>
        <time>2014-09-21T08:42:48Z</time>
      </trkpt>
      <trkpt lat="43.32109" lon="-0.54941">
        <ele>213.550049</ele>
        <time>2014-09-21T08:43:26Z</time>
      </trkpt>
      <trkpt lat="43.32113" lon="-0.54945">
        <ele>214.03064</ele>
        <time>2014-09-21T08:43:31Z</time>
      </trkpt>
      <trkpt lat="43.32118" lon="-0.54948">
        <ele>213.550049</ele>
        <time>2014-09-21T08:43:35Z</time>
      </trkpt>
      <trkpt lat="43.32147" lon="-0.54983">
        <ele>217.875977</ele>
        <time>2014-09-21T08:43:57Z</time>
      </trkpt>
      <trkpt lat="43.3217" lon="-0.55006">
        <ele>220.759888</ele>
        <time>2014-09-21T08:44:12Z</time>
      </trkpt>
      <trkpt lat="43.322" lon="-0.5503">
        <ele>219.798584</ele>
        <time>2014-09-21T08:44:25Z</time>
      </trkpt>
      <trkpt lat="43.3226" lon="-0.55053">
        <ele>221.721191</ele>
        <time>2014-09-21T08:44:39Z</time>
      </trkpt>
      <trkpt lat="43.32263" lon="-0.55053">
        <ele>221.721191</ele>
        <time>2014-09-21T08:44:40Z</time>
      </trkpt>
      <trkpt lat="43.32317" lon="-0.55072">
        <ele>223.643799</ele>
        <time>2014-09-21T08:44:57Z</time>
      </trkpt>
      <trkpt lat="43.32392" lon="-0.55124">
        <ele>224.605225</ele>
        <time>2014-09-21T08:45:16Z</time>
      </trkpt>
      <trkpt lat="43.32416" lon="-0.55137">
        <ele>227.969727</ele>
        <time>2014-09-21T08:45:26Z</time>
      </trkpt>
      <trkpt lat="43.32453" lon="-0.55142">
        <ele>228.931152</ele>
        <time>2014-09-21T08:45:38Z</time>
      </trkpt>
      <trkpt lat="43.32515" lon="-0.55115">
        <ele>230.85376</ele>
        <time>2014-09-21T08:45:55Z</time>
      </trkpt>
      <trkpt lat="43.32565" lon="-0.55117">
        <ele>233.25708</ele>
        <time>2014-09-21T08:46:10Z</time>
      </trkpt>
      <trkpt lat="43.32609" lon="-0.55171">
        <ele>234.218384</ele>
        <time>2014-09-21T08:46:25Z</time>
      </trkpt>
      <trkpt lat="43.32627" lon="-0.55236">
        <ele>236.621704</ele>
        <time>2014-09-21T08:46:38Z</time>
      </trkpt>
      <trkpt lat="43.32652" lon="-0.55284">
        <ele>238.544312</ele>
        <time>2014-09-21T08:46:51Z</time>
      </trkpt>
      <trkpt lat="43.32686" lon="-0.55335">
        <ele>238.063599</ele>
        <time>2014-09-21T08:47:03Z</time>
      </trkpt>
      <trkpt lat="43.32719" lon="-0.55358">
        <ele>238.544312</ele>
        <time>2014-09-21T08:47:11Z</time>
      </trkpt>
      <trkpt lat="43.32726" lon="-0.55363">
        <ele>239.024902</ele>
        <time>2014-09-21T08:47:13Z</time>
      </trkpt>
      <trkpt lat="43.32787" lon="-0.55402">
        <ele>241.908936</ele>
        <time>2014-09-21T08:47:29Z</time>
      </trkpt>
      <trkpt lat="43.3284" lon="-0.55429">
        <ele>240.467041</ele>
        <time>2014-09-21T08:47:40Z</time>
      </trkpt>
      <trkpt lat="43.32875" lon="-0.55474">
        <ele>239.986206</ele>
        <time>2014-09-21T08:47:48Z</time>
      </trkpt>
      <trkpt lat="43.32911" lon="-0.5555">
        <ele>238.063599</ele>
        <time>2014-09-21T08:47:57Z</time>
      </trkpt>
      <trkpt lat="43.32922" lon="-0.55578">
        <ele>236.621704</ele>
        <time>2014-09-21T08:48:00Z</time>
      </trkpt>
      <trkpt lat="43.32948" lon="-0.55638">
        <ele>237.582886</ele>
        <time>2014-09-21T08:48:09Z</time>
      </trkpt>
      <trkpt lat="43.32968" lon="-0.55668">
        <ele>238.063599</ele>
        <time>2014-09-21T08:48:15Z</time>
      </trkpt>
      <trkpt lat="43.33057" lon="-0.55744">
        <ele>239.986206</ele>
        <time>2014-09-21T08:48:35Z</time>
      </trkpt>
      <trkpt lat="43.33106" lon="-0.55783">
        <ele>241.428223</ele>
        <time>2014-09-21T08:48:50Z</time>
      </trkpt>
      <trkpt lat="43.33161" lon="-0.55849">
        <ele>240.467041</ele>
        <time>2014-09-21T08:49:06Z</time>
      </trkpt>
      <trkpt lat="43.33232" lon="-0.55923">
        <ele>242.389648</ele>
        <time>2014-09-21T08:49:23Z</time>
      </trkpt>
      <trkpt lat="43.33288" lon="-0.55941">
        <ele>243.35083</ele>
        <time>2014-09-21T08:49:35Z</time>
      </trkpt>
      <trkpt lat="43.33323" lon="-0.55945">
        <ele>239.986206</ele>
        <time>2014-09-21T08:49:41Z</time>
      </trkpt>
      <trkpt lat="43.33356" lon="-0.55951">
        <ele>238.544312</ele>
        <time>2014-09-21T08:49:45Z</time>
      </trkpt>
      <trkpt lat="43.33387" lon="-0.55971">
        <ele>236.140991</ele>
        <time>2014-09-21T08:49:49Z</time>
      </trkpt>
      <trkpt lat="43.33393" lon="-0.5598">
        <ele>234.699097</ele>
        <time>2014-09-21T08:49:50Z</time>
      </trkpt>
      <trkpt lat="43.33405" lon="-0.55999">
        <ele>230.85376</ele>
        <time>2014-09-21T08:49:52Z</time>
      </trkpt>
      <trkpt lat="43.33439" lon="-0.56023">
        <ele>225.085938</ele>
        <time>2014-09-21T08:49:56Z</time>
      </trkpt>
      <trkpt lat="43.33449" lon="-0.56025">
        <ele>224.124512</ele>
        <time>2014-09-21T08:49:57Z</time>
      </trkpt>
      <trkpt lat="43.33479" lon="-0.56029">
        <ele>218.83728</ele>
        <time>2014-09-21T08:50:00Z</time>
      </trkpt>
      <trkpt lat="43.33488" lon="-0.56029">
        <ele>217.875977</ele>
        <time>2014-09-21T08:50:01Z</time>
      </trkpt>
      <trkpt lat="43.33537" lon="-0.56056">
        <ele>215.472656</ele>
        <time>2014-09-21T08:50:07Z</time>
      </trkpt>
      <trkpt lat="43.33602" lon="-0.56138">
        <ele>214.991943</ele>
        <time>2014-09-21T08:50:20Z</time>
      </trkpt>
      <trkpt lat="43.33652" lon="-0.56216">
        <ele>216.43396</ele>
        <time>2014-09-21T08:50:36Z</time>
      </trkpt>
      <trkpt lat="43.33665" lon="-0.56234">
        <ele>217.395386</ele>
        <time>2014-09-21T08:50:40Z</time>
      </trkpt>
      <trkpt lat="43.337" lon="-0.56255">
        <ele>218.83728</ele>
        <time>2014-09-21T08:50:50Z</time>
      </trkpt>
      <trkpt lat="43.33728" lon="-0.56283">
        <ele>221.721191</ele>
        <time>2014-09-21T08:51:05Z</time>
      </trkpt>
      <trkpt lat="43.33732" lon="-0.56286">
        <ele>223.163208</ele>
        <time>2014-09-21T08:51:22Z</time>
      </trkpt>
      <trkpt lat="43.33754" lon="-0.5631">
        <ele>225.566528</ele>
        <time>2014-09-21T08:51:37Z</time>
      </trkpt>
      <trkpt lat="43.33768" lon="-0.56336">
        <ele>227.969727</ele>
        <time>2014-09-21T08:51:51Z</time>
      </trkpt>
      <trkpt lat="43.33788" lon="-0.56372">
        <ele>230.373047</ele>
        <time>2014-09-21T08:52:06Z</time>
      </trkpt>
      <trkpt lat="43.33801" lon="-0.56404">
        <ele>233.25708</ele>
        <time>2014-09-21T08:52:21Z</time>
      </trkpt>
      <trkpt lat="43.3382" lon="-0.56435">
        <ele>236.621704</ele>
        <time>2014-09-21T08:52:38Z</time>
      </trkpt>
      <trkpt lat="43.33832" lon="-0.56462">
        <ele>239.505493</ele>
        <time>2014-09-21T08:52:52Z</time>
      </trkpt>
      <trkpt lat="43.3383" lon="-0.56506">
        <ele>239.986206</ele>
        <time>2014-09-21T08:53:09Z</time>
      </trkpt>
      <trkpt lat="43.33838" lon="-0.56541">
        <ele>239.024902</ele>
        <time>2014-09-21T08:53:17Z</time>
      </trkpt>
      <trkpt lat="43.33849" lon="-0.56594">
        <ele>238.544312</ele>
        <time>2014-09-21T08:53:25Z</time>
      </trkpt>
      <trkpt lat="43.33861" lon="-0.56673">
        <ele>238.544312</ele>
        <time>2014-09-21T08:53:39Z</time>
      </trkpt>
      <trkpt lat="43.33877" lon="-0.5674">
        <ele>240.467041</ele>
        <time>2014-09-21T08:53:56Z</time>
      </trkpt>
      <trkpt lat="43.33887" lon="-0.56765">
        <ele>243.831543</ele>
        <time>2014-09-21T08:54:04Z</time>
      </trkpt>
      <trkpt lat="43.33889" lon="-0.56767">
        <ele>243.35083</ele>
        <time>2014-09-21T08:54:05Z</time>
      </trkpt>
      <trkpt lat="43.33908" lon="-0.56782">
        <ele>246.234863</ele>
        <time>2014-09-21T08:54:18Z</time>
      </trkpt>
      <trkpt lat="43.33946" lon="-0.56781">
        <ele>246.715454</ele>
        <time>2014-09-21T08:54:30Z</time>
      </trkpt>
      <trkpt lat="43.33953" lon="-0.5678">
        <ele>246.715454</ele>
        <time>2014-09-21T08:54:32Z</time>
      </trkpt>
      <trkpt lat="43.34015" lon="-0.56774">
        <ele>247.676758</ele>
        <time>2014-09-21T08:54:46Z</time>
      </trkpt>
      <trkpt lat="43.34061" lon="-0.56744">
        <ele>247.676758</ele>
        <time>2014-09-21T08:54:57Z</time>
      </trkpt>
      <trkpt lat="43.34073" lon="-0.56741">
        <ele>247.196045</ele>
        <time>2014-09-21T08:55:00Z</time>
      </trkpt>
      <trkpt lat="43.34092" lon="-0.56746">
        <ele>245.75415</ele>
        <time>2014-09-21T08:55:04Z</time>
      </trkpt>
      <trkpt lat="43.34116" lon="-0.56755">
        <ele>244.312256</ele>
        <time>2014-09-21T08:55:08Z</time>
      </trkpt>
      <trkpt lat="43.34174" lon="-0.56783">
        <ele>241.428223</ele>
        <time>2014-09-21T08:55:16Z</time>
      </trkpt>
      <trkpt lat="43.34234" lon="-0.56819">
        <ele>239.986206</ele>
        <time>2014-09-21T08:55:27Z</time>
      </trkpt>
      <trkpt lat="43.34239" lon="-0.56825">
        <ele>239.024902</ele>
        <time>2014-09-21T08:55:37Z</time>
      </trkpt>
      <trkpt lat="43.34239" lon="-0.56825">
        <ele>238.063599</ele>
        <time>2014-09-21T08:55:45Z</time>
      </trkpt>
      <trkpt lat="43.34242" lon="-0.56828">
        <ele>239.024902</ele>
        <time>2014-09-21T08:55:48Z</time>
      </trkpt>
      <trkpt lat="43.3425" lon="-0.56839">
        <ele>238.544312</ele>
        <time>2014-09-21T08:55:53Z</time>
      </trkpt>
      <trkpt lat="43.34258" lon="-0.56852">
        <ele>239.024902</ele>
        <time>2014-09-21T08:55:56Z</time>
      </trkpt>
      <trkpt lat="43.34291" lon="-0.56901">
        <ele>238.544312</ele>
        <time>2014-09-21T08:56:06Z</time>
      </trkpt>
      <trkpt lat="43.34297" lon="-0.56911">
        <ele>239.505493</ele>
        <time>2014-09-21T08:56:08Z</time>
      </trkpt>
      <trkpt lat="43.34313" lon="-0.5694">
        <ele>239.024902</ele>
        <time>2014-09-21T08:56:14Z</time>
      </trkpt>
      <trkpt lat="43.34319" lon="-0.56961">
        <ele>239.986206</ele>
        <time>2014-09-21T08:56:18Z</time>
      </trkpt>
      <trkpt lat="43.34326" lon="-0.56985">
        <ele>238.544312</ele>
        <time>2014-09-21T08:56:22Z</time>
      </trkpt>
      <trkpt lat="43.3433" lon="-0.56998">
        <ele>238.544312</ele>
        <time>2014-09-21T08:56:24Z</time>
      </trkpt>
      <trkpt lat="43.34371" lon="-0.57074">
        <ele>237.582886</ele>
        <time>2014-09-21T08:56:36Z</time>
      </trkpt>
      <trkpt lat="43.34378" lon="-0.57086">
        <ele>237.582886</ele>
        <time>2014-09-21T08:56:38Z</time>
      </trkpt>
      <trkpt lat="43.34398" lon="-0.57103">
        <ele>236.621704</ele>
        <time>2014-09-21T08:56:42Z</time>
      </trkpt>
      <trkpt lat="43.34431" lon="-0.57109">
        <ele>235.179688</ele>
        <time>2014-09-21T08:56:47Z</time>
      </trkpt>
      <trkpt lat="43.34445" lon="-0.57109">
        <ele>234.218384</ele>
        <time>2014-09-21T08:56:49Z</time>
      </trkpt>
      <trkpt lat="43.34478" lon="-0.57118">
        <ele>230.373047</ele>
        <time>2014-09-21T08:56:54Z</time>
      </trkpt>
      <trkpt lat="43.34495" lon="-0.57124">
        <ele>227.489136</ele>
        <time>2014-09-21T08:56:57Z</time>
      </trkpt>
      <trkpt lat="43.34516" lon="-0.57137">
        <ele>223.643799</ele>
        <time>2014-09-21T08:57:01Z</time>
      </trkpt>
      <trkpt lat="43.34532" lon="-0.57149">
        <ele>221.240601</ele>
        <time>2014-09-21T08:57:04Z</time>
      </trkpt>
      <trkpt lat="43.34549" lon="-0.57163">
        <ele>217.395386</ele>
        <time>2014-09-21T08:57:09Z</time>
      </trkpt>
      <trkpt lat="43.34567" lon="-0.57165">
        <ele>214.991943</ele>
        <time>2014-09-21T08:57:13Z</time>
      </trkpt>
      <trkpt lat="43.34572" lon="-0.57167">
        <ele>214.03064</ele>
        <time>2014-09-21T08:57:14Z</time>
      </trkpt>
      <trkpt lat="43.34588" lon="-0.5718">
        <ele>211.627441</ele>
        <time>2014-09-21T08:57:17Z</time>
      </trkpt>
      <trkpt lat="43.3462" lon="-0.57208">
        <ele>207.782104</ele>
        <time>2014-09-21T08:57:22Z</time>
      </trkpt>
      <trkpt lat="43.34627" lon="-0.57213">
        <ele>207.782104</ele>
        <time>2014-09-21T08:57:23Z</time>
      </trkpt>
      <trkpt lat="43.34676" lon="-0.57266">
        <ele>204.898071</ele>
        <time>2014-09-21T08:57:33Z</time>
      </trkpt>
      <trkpt lat="43.34698" lon="-0.57296">
        <ele>203.456177</ele>
        <time>2014-09-21T08:57:37Z</time>
      </trkpt>
      <trkpt lat="43.34728" lon="-0.5732">
        <ele>202.014282</ele>
        <time>2014-09-21T08:57:42Z</time>
      </trkpt>
      <trkpt lat="43.34756" lon="-0.57344">
        <ele>200.572266</ele>
        <time>2014-09-21T08:57:48Z</time>
      </trkpt>
      <trkpt lat="43.34761" lon="-0.57349">
        <ele>199.130127</ele>
        <time>2014-09-21T08:57:50Z</time>
      </trkpt>
      <trkpt lat="43.34778" lon="-0.57324">
        <ele>196.246338</ele>
        <time>2014-09-21T08:57:57Z</time>
      </trkpt>
      <trkpt lat="43.34781" lon="-0.57321">
        <ele>194.804321</ele>
        <time>2014-09-21T08:57:58Z</time>
      </trkpt>
      <trkpt lat="43.34789" lon="-0.57316">
        <ele>193.362305</ele>
        <time>2014-09-21T08:58:00Z</time>
      </trkpt>
      <trkpt lat="43.34806" lon="-0.57304">
        <ele>189.516968</ele>
        <time>2014-09-21T08:58:04Z</time>
      </trkpt>
      <trkpt lat="43.34808" lon="-0.573">
        <ele>189.516968</ele>
        <time>2014-09-21T08:58:05Z</time>
      </trkpt>
      <trkpt lat="43.34816" lon="-0.57289">
        <ele>187.11377</ele>
        <time>2014-09-21T08:58:09Z</time>
      </trkpt>
      <trkpt lat="43.34841" lon="-0.57289">
        <ele>183.749023</ele>
        <time>2014-09-21T08:58:14Z</time>
      </trkpt>
      <trkpt lat="43.34861" lon="-0.57281">
        <ele>181.826416</ele>
        <time>2014-09-21T08:58:17Z</time>
      </trkpt>
      <trkpt lat="43.34873" lon="-0.57276">
        <ele>181.345825</ele>
        <time>2014-09-21T08:58:19Z</time>
      </trkpt>
      <trkpt lat="43.34887" lon="-0.57266">
        <ele>180.384521</ele>
        <time>2014-09-21T08:58:23Z</time>
      </trkpt>
      <trkpt lat="43.34889" lon="-0.57246">
        <ele>179.903809</ele>
        <time>2014-09-21T08:58:28Z</time>
      </trkpt>
      <trkpt lat="43.34892" lon="-0.57215">
        <ele>177.981201</ele>
        <time>2014-09-21T08:58:32Z</time>
      </trkpt>
      <trkpt lat="43.34896" lon="-0.57193">
        <ele>176.058594</ele>
        <time>2014-09-21T08:58:35Z</time>
      </trkpt>
      <trkpt lat="43.34899" lon="-0.57169">
        <ele>172.213257</ele>
        <time>2014-09-21T08:58:38Z</time>
      </trkpt>
      <trkpt lat="43.349" lon="-0.57162">
        <ele>171.252075</ele>
        <time>2014-09-21T08:58:39Z</time>
      </trkpt>
      <trkpt lat="43.34909" lon="-0.57136">
        <ele>166.445313</ele>
        <time>2014-09-21T08:58:43Z</time>
      </trkpt>
      <trkpt lat="43.34914" lon="-0.57122">
        <ele>164.522705</ele>
        <time>2014-09-21T08:58:45Z</time>
      </trkpt>
      <trkpt lat="43.34919" lon="-0.57102">
        <ele>161.638916</ele>
        <time>2014-09-21T08:58:48Z</time>
      </trkpt>
      <trkpt lat="43.34922" lon="-0.57091">
        <ele>160.67749</ele>
        <time>2014-09-21T08:58:50Z</time>
      </trkpt>
      <trkpt lat="43.34928" lon="-0.57079">
        <ele>159.235474</ele>
        <time>2014-09-21T08:58:52Z</time>
      </trkpt>
      <trkpt lat="43.34939" lon="-0.57047">
        <ele>154.428955</ele>
        <time>2014-09-21T08:58:56Z</time>
      </trkpt>
      <trkpt lat="43.34944" lon="-0.57031">
        <ele>153.467651</ele>
        <time>2014-09-21T08:58:58Z</time>
      </trkpt>
      <trkpt lat="43.3495" lon="-0.57019">
        <ele>150.103027</ele>
        <time>2014-09-21T08:59:01Z</time>
      </trkpt>
      <trkpt lat="43.34953" lon="-0.57016">
        <ele>149.141602</ele>
        <time>2014-09-21T08:59:03Z</time>
      </trkpt>
      <trkpt lat="43.3496" lon="-0.57009">
        <ele>147.218994</ele>
        <time>2014-09-21T08:59:06Z</time>
      </trkpt>
      <trkpt lat="43.34974" lon="-0.57002">
        <ele>145.7771</ele>
        <time>2014-09-21T08:59:09Z</time>
      </trkpt>
      <trkpt lat="43.34985" lon="-0.56985">
        <ele>141.931763</ele>
        <time>2014-09-21T08:59:13Z</time>
      </trkpt>
      <trkpt lat="43.34986" lon="-0.56979">
        <ele>141.45105</ele>
        <time>2014-09-21T08:59:14Z</time>
      </trkpt>
      <trkpt lat="43.34988" lon="-0.56965">
        <ele>141.45105</ele>
        <time>2014-09-21T08:59:16Z</time>
      </trkpt>
      <trkpt lat="43.34989" lon="-0.56941">
        <ele>139.528442</ele>
        <time>2014-09-21T08:59:19Z</time>
      </trkpt>
      <trkpt lat="43.34981" lon="-0.56913">
        <ele>134.721924</ele>
        <time>2014-09-21T08:59:23Z</time>
      </trkpt>
      <trkpt lat="43.34964" lon="-0.56901">
        <ele>133.279907</ele>
        <time>2014-09-21T08:59:26Z</time>
      </trkpt>
      <trkpt lat="43.34953" lon="-0.56903">
        <ele>132.318604</ele>
        <time>2014-09-21T08:59:29Z</time>
      </trkpt>
      <trkpt lat="43.34948" lon="-0.56902">
        <ele>131.3573</ele>
        <time>2014-09-21T08:59:31Z</time>
      </trkpt>
      <trkpt lat="43.34963" lon="-0.56886">
        <ele>129.915283</ele>
        <time>2014-09-21T08:59:38Z</time>
      </trkpt>
      <trkpt lat="43.34972" lon="-0.56876">
        <ele>129.434692</ele>
        <time>2014-09-21T08:59:40Z</time>
      </trkpt>
      <trkpt lat="43.34998" lon="-0.56875">
        <ele>127.992554</ele>
        <time>2014-09-21T08:59:46Z</time>
      </trkpt>
      <trkpt lat="43.35026" lon="-0.56891">
        <ele>126.069946</ele>
        <time>2014-09-21T08:59:52Z</time>
      </trkpt>
      <trkpt lat="43.35046" lon="-0.56898">
        <ele>126.069946</ele>
        <time>2014-09-21T08:59:56Z</time>
      </trkpt>
      <trkpt lat="43.35104" lon="-0.56942">
        <ele>125.108765</ele>
        <time>2014-09-21T09:00:09Z</time>
      </trkpt>
      <trkpt lat="43.35149" lon="-0.57022">
        <ele>125.589355</ele>
        <time>2014-09-21T09:00:23Z</time>
      </trkpt>
      <trkpt lat="43.35158" lon="-0.57037">
        <ele>126.550659</ele>
        <time>2014-09-21T09:00:26Z</time>
      </trkpt>
      <trkpt lat="43.3518" lon="-0.57047">
        <ele>126.069946</ele>
        <time>2014-09-21T09:00:31Z</time>
      </trkpt>
      <trkpt lat="43.35209" lon="-0.57041">
        <ele>126.550659</ele>
        <time>2014-09-21T09:00:37Z</time>
      </trkpt>
      <trkpt lat="43.35224" lon="-0.57034">
        <ele>126.550659</ele>
        <time>2014-09-21T09:00:41Z</time>
      </trkpt>
      <trkpt lat="43.35282" lon="-0.56999">
        <ele>126.069946</ele>
        <time>2014-09-21T09:00:55Z</time>
      </trkpt>
      <trkpt lat="43.35375" lon="-0.5695">
        <ele>125.589355</ele>
        <time>2014-09-21T09:01:12Z</time>
      </trkpt>
      <trkpt lat="43.35457" lon="-0.56902">
        <ele>125.589355</ele>
        <time>2014-09-21T09:01:28Z</time>
      </trkpt>
      <trkpt lat="43.35477" lon="-0.56889">
        <ele>125.108765</ele>
        <time>2014-09-21T09:01:32Z</time>
      </trkpt>
      <trkpt lat="43.35515" lon="-0.56854">
        <ele>125.108765</ele>
        <time>2014-09-21T09:01:41Z</time>
      </trkpt>
      <trkpt lat="43.35525" lon="-0.5681">
        <ele>126.069946</ele>
        <time>2014-09-21T09:01:49Z</time>
      </trkpt>
      <trkpt lat="43.35512" lon="-0.56688">
        <ele>125.108765</ele>
        <time>2014-09-21T09:02:07Z</time>
      </trkpt>
      <trkpt lat="43.35508" lon="-0.56669">
        <ele>125.108765</ele>
        <time>2014-09-21T09:02:10Z</time>
      </trkpt>
      <trkpt lat="43.35484" lon="-0.56609">
        <ele>125.108765</ele>
        <time>2014-09-21T09:02:21Z</time>
      </trkpt>
      <trkpt lat="43.35481" lon="-0.56598">
        <ele>126.069946</ele>
        <time>2014-09-21T09:02:23Z</time>
      </trkpt>
      <trkpt lat="43.35474" lon="-0.56575">
        <ele>126.069946</ele>
        <time>2014-09-21T09:02:27Z</time>
      </trkpt>
      <trkpt lat="43.35471" lon="-0.56562">
        <ele>125.589355</ele>
        <time>2014-09-21T09:02:29Z</time>
      </trkpt>
      <trkpt lat="43.35469" lon="-0.56538">
        <ele>125.589355</ele>
        <time>2014-09-21T09:02:33Z</time>
      </trkpt>
      <trkpt lat="43.35452" lon="-0.56481">
        <ele>126.069946</ele>
        <time>2014-09-21T09:02:45Z</time>
      </trkpt>
      <trkpt lat="43.35375" lon="-0.56478">
        <ele>127.031372</ele>
        <time>2014-09-21T09:03:01Z</time>
      </trkpt>
      <trkpt lat="43.35286" lon="-0.56481">
        <ele>126.069946</ele>
        <time>2014-09-21T09:03:17Z</time>
      </trkpt>
      <trkpt lat="43.35247" lon="-0.56482">
        <ele>126.069946</ele>
        <time>2014-09-21T09:03:24Z</time>
      </trkpt>
      <trkpt lat="43.35164" lon="-0.56463">
        <ele>127.031372</ele>
        <time>2014-09-21T09:03:40Z</time>
      </trkpt>
      <trkpt lat="43.35159" lon="-0.56462">
        <ele>126.550659</ele>
        <time>2014-09-21T09:03:41Z</time>
      </trkpt>
      <trkpt lat="43.35136" lon="-0.56441">
        <ele>126.550659</ele>
        <time>2014-09-21T09:03:47Z</time>
      </trkpt>
      <trkpt lat="43.35125" lon="-0.56409">
        <ele>126.069946</ele>
        <time>2014-09-21T09:03:54Z</time>
      </trkpt>
      <trkpt lat="43.35127" lon="-0.56408">
        <ele>125.589355</ele>
        <time>2014-09-21T09:04:03Z</time>
      </trkpt>
      <trkpt lat="43.35128" lon="-0.56411">
        <ele>126.069946</ele>
        <time>2014-09-21T09:04:06Z</time>
      </trkpt>
      <trkpt lat="43.35128" lon="-0.56414">
        <ele>125.589355</ele>
        <time>2014-09-21T09:04:08Z</time>
      </trkpt>
      <trkpt lat="43.35133" lon="-0.56439">
        <ele>125.589355</ele>
        <time>2014-09-21T09:04:19Z</time>
      </trkpt>
      <trkpt lat="43.35135" lon="-0.56439">
        <ele>126.550659</ele>
        <time>2014-09-21T09:04:21Z</time>
      </trkpt>
      <trkpt lat="43.35134" lon="-0.5643">
        <ele>126.550659</ele>
        <time>2014-09-21T09:04:25Z</time>
      </trkpt>
      <trkpt lat="43.35123" lon="-0.56405">
        <ele>126.550659</ele>
        <time>2014-09-21T09:04:31Z</time>
      </trkpt>
      <trkpt lat="43.35113" lon="-0.56375">
        <ele>126.550659</ele>
        <time>2014-09-21T09:04:36Z</time>
      </trkpt>
      <trkpt lat="43.35119" lon="-0.56228">
        <ele>126.550659</ele>
        <time>2014-09-21T09:04:53Z</time>
      </trkpt>
      <trkpt lat="43.3512" lon="-0.56131">
        <ele>126.550659</ele>
        <time>2014-09-21T09:05:04Z</time>
      </trkpt>
      <trkpt lat="43.3508" lon="-0.56001">
        <ele>127.031372</ele>
        <time>2014-09-21T09:05:20Z</time>
      </trkpt>
      <trkpt lat="43.35028" lon="-0.55843">
        <ele>126.550659</ele>
        <time>2014-09-21T09:05:41Z</time>
      </trkpt>
      <trkpt lat="43.3498" lon="-0.55702">
        <ele>126.550659</ele>
        <time>2014-09-21T09:06:00Z</time>
      </trkpt>
      <trkpt lat="43.34969" lon="-0.55674">
        <ele>126.069946</ele>
        <time>2014-09-21T09:06:04Z</time>
      </trkpt>
      <trkpt lat="43.34975" lon="-0.55623">
        <ele>127.511963</ele>
        <time>2014-09-21T09:06:11Z</time>
      </trkpt>
      <trkpt lat="43.34994" lon="-0.55593">
        <ele>127.031372</ele>
        <time>2014-09-21T09:06:16Z</time>
      </trkpt>
      <trkpt lat="43.35001" lon="-0.55553">
        <ele>126.550659</ele>
        <time>2014-09-21T09:06:21Z</time>
      </trkpt>
      <trkpt lat="43.34975" lon="-0.55462">
        <ele>126.550659</ele>
        <time>2014-09-21T09:06:36Z</time>
      </trkpt>
      <trkpt lat="43.34973" lon="-0.55457">
        <ele>126.069946</ele>
        <time>2014-09-21T09:06:47Z</time>
      </trkpt>
      <trkpt lat="43.34974" lon="-0.55457">
        <ele>126.069946</ele>
        <time>2014-09-21T09:07:02Z</time>
      </trkpt>
      <trkpt lat="43.34977" lon="-0.55455">
        <ele>126.069946</ele>
        <time>2014-09-21T09:07:19Z</time>
      </trkpt>
      <trkpt lat="43.3498" lon="-0.55449">
        <ele>126.550659</ele>
        <time>2014-09-21T09:07:23Z</time>
      </trkpt>
      <trkpt lat="43.35003" lon="-0.55389">
        <ele>127.031372</ele>
        <time>2014-09-21T09:07:36Z</time>
      </trkpt>
      <trkpt lat="43.35042" lon="-0.55292">
        <ele>127.511963</ele>
        <time>2014-09-21T09:07:50Z</time>
      </trkpt>
      <trkpt lat="43.35051" lon="-0.55256">
        <ele>127.511963</ele>
        <time>2014-09-21T09:07:57Z</time>
      </trkpt>
      <trkpt lat="43.35038" lon="-0.5524">
        <ele>127.511963</ele>
        <time>2014-09-21T09:08:01Z</time>
      </trkpt>
      <trkpt lat="43.34956" lon="-0.55192">
        <ele>127.511963</ele>
        <time>2014-09-21T09:08:17Z</time>
      </trkpt>
      <trkpt lat="43.34951" lon="-0.55188">
        <ele>127.511963</ele>
        <time>2014-09-21T09:08:18Z</time>
      </trkpt>
      <trkpt lat="43.34933" lon="-0.55172">
        <ele>127.031372</ele>
        <time>2014-09-21T09:08:22Z</time>
      </trkpt>
      <trkpt lat="43.34911" lon="-0.55149">
        <ele>127.031372</ele>
        <time>2014-09-21T09:08:27Z</time>
      </trkpt>
      <trkpt lat="43.3488" lon="-0.55133">
        <ele>127.992554</ele>
        <time>2014-09-21T09:08:33Z</time>
      </trkpt>
      <trkpt lat="43.34862" lon="-0.55139">
        <ele>127.511963</ele>
        <time>2014-09-21T09:08:37Z</time>
      </trkpt>
      <trkpt lat="43.34836" lon="-0.552">
        <ele>128.473389</ele>
        <time>2014-09-21T09:08:46Z</time>
      </trkpt>
      <trkpt lat="43.34805" lon="-0.55211">
        <ele>127.992554</ele>
        <time>2014-09-21T09:08:53Z</time>
      </trkpt>
      <trkpt lat="43.34786" lon="-0.55197">
        <ele>127.992554</ele>
        <time>2014-09-21T09:08:57Z</time>
      </trkpt>
      <trkpt lat="43.34752" lon="-0.55207">
        <ele>127.511963</ele>
        <time>2014-09-21T09:09:04Z</time>
      </trkpt>
      <trkpt lat="43.34739" lon="-0.55224">
        <ele>127.992554</ele>
        <time>2014-09-21T09:09:07Z</time>
      </trkpt>
      <trkpt lat="43.34731" lon="-0.55235">
        <ele>127.992554</ele>
        <time>2014-09-21T09:09:09Z</time>
      </trkpt>
      <trkpt lat="43.34708" lon="-0.55233">
        <ele>127.992554</ele>
        <time>2014-09-21T09:09:14Z</time>
      </trkpt>
      <trkpt lat="43.34624" lon="-0.55117">
        <ele>128.473389</ele>
        <time>2014-09-21T09:09:34Z</time>
      </trkpt>
      <trkpt lat="43.34617" lon="-0.55086">
        <ele>127.511963</ele>
        <time>2014-09-21T09:09:38Z</time>
      </trkpt>
      <trkpt lat="43.34598" lon="-0.55065">
        <ele>127.992554</ele>
        <time>2014-09-21T09:09:43Z</time>
      </trkpt>
      <trkpt lat="43.34497" lon="-0.55045">
        <ele>127.992554</ele>
        <time>2014-09-21T09:10:01Z</time>
      </trkpt>
      <trkpt lat="43.34472" lon="-0.5506">
        <ele>127.992554</ele>
        <time>2014-09-21T09:10:06Z</time>
      </trkpt>
      <trkpt lat="43.34439" lon="-0.55112">
        <ele>127.992554</ele>
        <time>2014-09-21T09:10:15Z</time>
      </trkpt>
      <trkpt lat="43.34423" lon="-0.55114">
        <ele>127.992554</ele>
        <time>2014-09-21T09:10:19Z</time>
      </trkpt>
      <trkpt lat="43.34413" lon="-0.55104">
        <ele>127.992554</ele>
        <time>2014-09-21T09:10:22Z</time>
      </trkpt>
      <trkpt lat="43.34404" lon="-0.55085">
        <ele>128.473389</ele>
        <time>2014-09-21T09:10:26Z</time>
      </trkpt>
      <trkpt lat="43.34399" lon="-0.55075">
        <ele>127.992554</ele>
        <time>2014-09-21T09:10:28Z</time>
      </trkpt>
      <trkpt lat="43.34372" lon="-0.55018">
        <ele>127.992554</ele>
        <time>2014-09-21T09:10:39Z</time>
      </trkpt>
      <trkpt lat="43.3437" lon="-0.54935">
        <ele>127.992554</ele>
        <time>2014-09-21T09:10:53Z</time>
      </trkpt>
      <trkpt lat="43.34365" lon="-0.54905">
        <ele>128.473389</ele>
        <time>2014-09-21T09:10:59Z</time>
      </trkpt>
      <trkpt lat="43.34349" lon="-0.54908">
        <ele>127.992554</ele>
        <time>2014-09-21T09:11:06Z</time>
      </trkpt>
      <trkpt lat="43.34339" lon="-0.5492">
        <ele>128.954102</ele>
        <time>2014-09-21T09:11:09Z</time>
      </trkpt>
      <trkpt lat="43.34294" lon="-0.54963">
        <ele>127.992554</ele>
        <time>2014-09-21T09:11:23Z</time>
      </trkpt>
      <trkpt lat="43.34286" lon="-0.54974">
        <ele>128.473389</ele>
        <time>2014-09-21T09:11:26Z</time>
      </trkpt>
      <trkpt lat="43.3426" lon="-0.5497">
        <ele>127.992554</ele>
        <time>2014-09-21T09:11:34Z</time>
      </trkpt>
      <trkpt lat="43.34246" lon="-0.54961">
        <ele>128.954102</ele>
        <time>2014-09-21T09:11:38Z</time>
      </trkpt>
      <trkpt lat="43.34231" lon="-0.54942">
        <ele>129.434692</ele>
        <time>2014-09-21T09:11:43Z</time>
      </trkpt>
      <trkpt lat="43.34227" lon="-0.5493">
        <ele>128.473389</ele>
        <time>2014-09-21T09:11:45Z</time>
      </trkpt>
      <trkpt lat="43.34207" lon="-0.54898">
        <ele>128.473389</ele>
        <time>2014-09-21T09:11:52Z</time>
      </trkpt>
      <trkpt lat="43.34208" lon="-0.54899">
        <ele>127.992554</ele>
        <time>2014-09-21T09:12:00Z</time>
      </trkpt>
      <trkpt lat="43.34208" lon="-0.549">
        <ele>127.992554</ele>
        <time>2014-09-21T09:12:15Z</time>
      </trkpt>
      <trkpt lat="43.34208" lon="-0.54899">
        <ele>128.954102</ele>
        <time>2014-09-21T09:12:19Z</time>
      </trkpt>
      <trkpt lat="43.34229" lon="-0.54863">
        <ele>128.473389</ele>
        <time>2014-09-21T09:12:30Z</time>
      </trkpt>
      <trkpt lat="43.34292" lon="-0.54776">
        <ele>128.473389</ele>
        <time>2014-09-21T09:12:49Z</time>
      </trkpt>
      <trkpt lat="43.34346" lon="-0.54708">
        <ele>128.473389</ele>
        <time>2014-09-21T09:13:06Z</time>
      </trkpt>
      <trkpt lat="43.34383" lon="-0.54734">
        <ele>128.473389</ele>
        <time>2014-09-21T09:13:16Z</time>
      </trkpt>
      <trkpt lat="43.3441" lon="-0.54746">
        <ele>128.473389</ele>
        <time>2014-09-21T09:13:22Z</time>
      </trkpt>
      <trkpt lat="43.34425" lon="-0.54761">
        <ele>128.473389</ele>
        <time>2014-09-21T09:13:26Z</time>
      </trkpt>
      <trkpt lat="43.34434" lon="-0.54772">
        <ele>127.992554</ele>
        <time>2014-09-21T09:13:29Z</time>
      </trkpt>
      <trkpt lat="43.34451" lon="-0.54784">
        <ele>127.992554</ele>
        <time>2014-09-21T09:13:33Z</time>
      </trkpt>
      <trkpt lat="43.34484" lon="-0.54822">
        <ele>128.473389</ele>
        <time>2014-09-21T09:13:42Z</time>
      </trkpt>
      <trkpt lat="43.34506" lon="-0.54833">
        <ele>128.473389</ele>
        <time>2014-09-21T09:13:47Z</time>
      </trkpt>
      <trkpt lat="43.34522" lon="-0.54849">
        <ele>127.992554</ele>
        <time>2014-09-21T09:13:51Z</time>
      </trkpt>
      <trkpt lat="43.34553" lon="-0.54845">
        <ele>127.992554</ele>
        <time>2014-09-21T09:13:59Z</time>
      </trkpt>
      <trkpt lat="43.34555" lon="-0.54838">
        <ele>127.992554</ele>
        <time>2014-09-21T09:14:00Z</time>
      </trkpt>
      <trkpt lat="43.34577" lon="-0.5474">
        <ele>128.954102</ele>
        <time>2014-09-21T09:14:15Z</time>
      </trkpt>
      <trkpt lat="43.34592" lon="-0.54718">
        <ele>129.915283</ele>
        <time>2014-09-21T09:14:20Z</time>
      </trkpt>
      <trkpt lat="43.34621" lon="-0.54692">
        <ele>130.876709</ele>
        <time>2014-09-21T09:14:32Z</time>
      </trkpt>
      <trkpt lat="43.34624" lon="-0.5469">
        <ele>131.837891</ele>
        <time>2014-09-21T09:14:34Z</time>
      </trkpt>
      <trkpt lat="43.34641" lon="-0.54687">
        <ele>133.279907</ele>
        <time>2014-09-21T09:14:43Z</time>
      </trkpt>
      <trkpt lat="43.34648" lon="-0.54686">
        <ele>134.721924</ele>
        <time>2014-09-21T09:14:47Z</time>
      </trkpt>
      <trkpt lat="43.34666" lon="-0.54685">
        <ele>136.16394</ele>
        <time>2014-09-21T09:14:56Z</time>
      </trkpt>
      <trkpt lat="43.34664" lon="-0.5468">
        <ele>137.125244</ele>
        <time>2014-09-21T09:15:02Z</time>
      </trkpt>
      <trkpt lat="43.3464" lon="-0.54673">
        <ele>138.086548</ele>
        <time>2014-09-21T09:15:16Z</time>
      </trkpt>
      <trkpt lat="43.34627" lon="-0.54671">
        <ele>137.605835</ele>
        <time>2014-09-21T09:15:19Z</time>
      </trkpt>
      <trkpt lat="43.34603" lon="-0.54655">
        <ele>137.125244</ele>
        <time>2014-09-21T09:15:24Z</time>
      </trkpt>
      <trkpt lat="43.34586" lon="-0.54586">
        <ele>136.644653</ele>
        <time>2014-09-21T09:15:32Z</time>
      </trkpt>
      <trkpt lat="43.34584" lon="-0.54577">
        <ele>136.644653</ele>
        <time>2014-09-21T09:15:33Z</time>
      </trkpt>
      <trkpt lat="43.34547" lon="-0.54547">
        <ele>135.202515</ele>
        <time>2014-09-21T09:15:41Z</time>
      </trkpt>
      <trkpt lat="43.34544" lon="-0.54543">
        <ele>134.241211</ele>
        <time>2014-09-21T09:15:46Z</time>
      </trkpt>
      <trkpt lat="43.34561" lon="-0.54528">
        <ele>136.16394</ele>
        <time>2014-09-21T09:16:01Z</time>
      </trkpt>
      <trkpt lat="43.34558" lon="-0.5453">
        <ele>135.683105</ele>
        <time>2014-09-21T09:16:04Z</time>
      </trkpt>
      <trkpt lat="43.34548" lon="-0.54539">
        <ele>137.125244</ele>
        <time>2014-09-21T09:16:11Z</time>
      </trkpt>
      <trkpt lat="43.34531" lon="-0.54543">
        <ele>137.125244</ele>
        <time>2014-09-21T09:16:19Z</time>
      </trkpt>
      <trkpt lat="43.34512" lon="-0.54527">
        <ele>140.489868</ele>
        <time>2014-09-21T09:16:30Z</time>
      </trkpt>
      <trkpt lat="43.34494" lon="-0.545">
        <ele>142.412476</ele>
        <time>2014-09-21T09:16:43Z</time>
      </trkpt>
      <trkpt lat="43.34491" lon="-0.54494">
        <ele>142.893066</ele>
        <time>2014-09-21T09:16:45Z</time>
      </trkpt>
      <trkpt lat="43.34484" lon="-0.54456">
        <ele>146.257813</ele>
        <time>2014-09-21T09:16:59Z</time>
      </trkpt>
      <trkpt lat="43.34467" lon="-0.54435">
        <ele>147.699707</ele>
        <time>2014-09-21T09:17:12Z</time>
      </trkpt>
      <trkpt lat="43.3445" lon="-0.54393">
        <ele>150.583618</ele>
        <time>2014-09-21T09:17:29Z</time>
      </trkpt>
      <trkpt lat="43.34433" lon="-0.5437">
        <ele>152.986938</ele>
        <time>2014-09-21T09:17:41Z</time>
      </trkpt>
      <trkpt lat="43.34429" lon="-0.54372">
        <ele>153.948364</ele>
        <time>2014-09-21T09:17:44Z</time>
      </trkpt>
      <trkpt lat="43.34405" lon="-0.54378">
        <ele>156.351563</ele>
        <time>2014-09-21T09:17:58Z</time>
      </trkpt>
      <trkpt lat="43.34391" lon="-0.54356">
        <ele>157.793579</ele>
        <time>2014-09-21T09:18:13Z</time>
      </trkpt>
      <trkpt lat="43.34391" lon="-0.54349">
        <ele>159.235474</ele>
        <time>2014-09-21T09:18:24Z</time>
      </trkpt>
      <trkpt lat="43.34389" lon="-0.54336">
        <ele>159.235474</ele>
        <time>2014-09-21T09:18:41Z</time>
      </trkpt>
      <trkpt lat="43.3439" lon="-0.54284">
        <ele>162.600098</ele>
        <time>2014-09-21T09:18:57Z</time>
      </trkpt>
      <trkpt lat="43.34403" lon="-0.54241">
        <ele>164.042114</ele>
        <time>2014-09-21T09:19:12Z</time>
      </trkpt>
      <trkpt lat="43.34403" lon="-0.54221">
        <ele>166.445313</ele>
        <time>2014-09-21T09:19:20Z</time>
      </trkpt>
      <trkpt lat="43.344" lon="-0.5419">
        <ele>169.810059</ele>
        <time>2014-09-21T09:19:32Z</time>
      </trkpt>
      <trkpt lat="43.34411" lon="-0.5417">
        <ele>171.732666</ele>
        <time>2014-09-21T09:19:44Z</time>
      </trkpt>
      <trkpt lat="43.34428" lon="-0.54191">
        <ele>172.69397</ele>
        <time>2014-09-21T09:19:56Z</time>
      </trkpt>
      <trkpt lat="43.34466" lon="-0.54203">
        <ele>173.655273</ele>
        <time>2014-09-21T09:20:11Z</time>
      </trkpt>
      <trkpt lat="43.34489" lon="-0.54205">
        <ele>173.655273</ele>
        <time>2014-09-21T09:20:17Z</time>
      </trkpt>
      <trkpt lat="43.34502" lon="-0.54208">
        <ele>173.655273</ele>
        <time>2014-09-21T09:20:20Z</time>
      </trkpt>
      <trkpt lat="43.34525" lon="-0.54217">
        <ele>173.174683</ele>
        <time>2014-09-21T09:20:25Z</time>
      </trkpt>
      <trkpt lat="43.34555" lon="-0.54215">
        <ele>174.616577</ele>
        <time>2014-09-21T09:20:35Z</time>
      </trkpt>
      <trkpt lat="43.34575" lon="-0.54185">
        <ele>178.461914</ele>
        <time>2014-09-21T09:20:51Z</time>
      </trkpt>
      <trkpt lat="43.34578" lon="-0.5418">
        <ele>177.981201</ele>
        <time>2014-09-21T09:20:54Z</time>
      </trkpt>
      <trkpt lat="43.34576" lon="-0.54163">
        <ele>179.423218</ele>
        <time>2014-09-21T09:21:03Z</time>
      </trkpt>
      <trkpt lat="43.34551" lon="-0.54142">
        <ele>180.865234</ele>
        <time>2014-09-21T09:21:18Z</time>
      </trkpt>
      <trkpt lat="43.34529" lon="-0.54129">
        <ele>182.787842</ele>
        <time>2014-09-21T09:21:31Z</time>
      </trkpt>
      <trkpt lat="43.34508" lon="-0.5412">
        <ele>183.749023</ele>
        <time>2014-09-21T09:21:42Z</time>
      </trkpt>
      <trkpt lat="43.34475" lon="-0.54101">
        <ele>186.152466</ele>
        <time>2014-09-21T09:21:59Z</time>
      </trkpt>
      <trkpt lat="43.34455" lon="-0.54085">
        <ele>189.036377</ele>
        <time>2014-09-21T09:22:12Z</time>
      </trkpt>
      <trkpt lat="43.34462" lon="-0.54067">
        <ele>191.439575</ele>
        <time>2014-09-21T09:22:24Z</time>
      </trkpt>
      <trkpt lat="43.34473" lon="-0.54062">
        <ele>192.881714</ele>
        <time>2014-09-21T09:22:36Z</time>
      </trkpt>
      <trkpt lat="43.34478" lon="-0.54058">
        <ele>193.843018</ele>
        <time>2014-09-21T09:22:49Z</time>
      </trkpt>
      <trkpt lat="43.3449" lon="-0.5405">
        <ele>195.765625</ele>
        <time>2014-09-21T09:23:01Z</time>
      </trkpt>
      <trkpt lat="43.34508" lon="-0.54034">
        <ele>198.168945</ele>
        <time>2014-09-21T09:23:19Z</time>
      </trkpt>
      <trkpt lat="43.34515" lon="-0.54023">
        <ele>199.61084</ele>
        <time>2014-09-21T09:23:35Z</time>
      </trkpt>
      <trkpt lat="43.34519" lon="-0.54015">
        <ele>200.572266</ele>
        <time>2014-09-21T09:23:40Z</time>
      </trkpt>
      <trkpt lat="43.34521" lon="-0.54011">
        <ele>200.572266</ele>
        <time>2014-09-21T09:23:43Z</time>
      </trkpt>
      <trkpt lat="43.34523" lon="-0.54004">
        <ele>201.052856</ele>
        <time>2014-09-21T09:23:47Z</time>
      </trkpt>
      <trkpt lat="43.34525" lon="-0.53998">
        <ele>201.052856</ele>
        <time>2014-09-21T09:23:50Z</time>
      </trkpt>
      <trkpt lat="43.34528" lon="-0.53978">
        <ele>202.494873</ele>
        <time>2014-09-21T09:24:02Z</time>
      </trkpt>
      <trkpt lat="43.34526" lon="-0.53955">
        <ele>205.378784</ele>
        <time>2014-09-21T09:24:16Z</time>
      </trkpt>
      <trkpt lat="43.34526" lon="-0.53953">
        <ele>204.41748</ele>
        <time>2014-09-21T09:24:17Z</time>
      </trkpt>
      <trkpt lat="43.34525" lon="-0.53949">
        <ele>205.859497</ele>
        <time>2014-09-21T09:24:19Z</time>
      </trkpt>
      <trkpt lat="43.34519" lon="-0.53925">
        <ele>208.743408</ele>
        <time>2014-09-21T09:24:33Z</time>
      </trkpt>
      <trkpt lat="43.34518" lon="-0.53923">
        <ele>208.743408</ele>
        <time>2014-09-21T09:24:35Z</time>
      </trkpt>
      <trkpt lat="43.34512" lon="-0.53888">
        <ele>212.108032</ele>
        <time>2014-09-21T09:24:53Z</time>
      </trkpt>
      <trkpt lat="43.34511" lon="-0.53882">
        <ele>212.588623</ele>
        <time>2014-09-21T09:24:56Z</time>
      </trkpt>
      <trkpt lat="43.3451" lon="-0.53869">
        <ele>212.588623</ele>
        <time>2014-09-21T09:25:01Z</time>
      </trkpt>
      <trkpt lat="43.34514" lon="-0.53824">
        <ele>213.550049</ele>
        <time>2014-09-21T09:25:13Z</time>
      </trkpt>
      <trkpt lat="43.34524" lon="-0.53777">
        <ele>214.991943</ele>
        <time>2014-09-21T09:25:24Z</time>
      </trkpt>
      <trkpt lat="43.34525" lon="-0.53732">
        <ele>215.953247</ele>
        <time>2014-09-21T09:25:36Z</time>
      </trkpt>
      <trkpt lat="43.34528" lon="-0.53703">
        <ele>217.395386</ele>
        <time>2014-09-21T09:25:44Z</time>
      </trkpt>
      <trkpt lat="43.3453" lon="-0.5368">
        <ele>218.83728</ele>
        <time>2014-09-21T09:25:51Z</time>
      </trkpt>
      <trkpt lat="43.34533" lon="-0.53662">
        <ele>220.279175</ele>
        <time>2014-09-21T09:25:58Z</time>
      </trkpt>
      <trkpt lat="43.34534" lon="-0.53647">
        <ele>220.279175</ele>
        <time>2014-09-21T09:26:04Z</time>
      </trkpt>
      <trkpt lat="43.34529" lon="-0.53605">
        <ele>220.759888</ele>
        <time>2014-09-21T09:26:16Z</time>
      </trkpt>
      <trkpt lat="43.34529" lon="-0.53598">
        <ele>220.279175</ele>
        <time>2014-09-21T09:26:17Z</time>
      </trkpt>
      <trkpt lat="43.34525" lon="-0.53584">
        <ele>219.798584</ele>
        <time>2014-09-21T09:26:19Z</time>
      </trkpt>
      <trkpt lat="43.34523" lon="-0.53566">
        <ele>219.798584</ele>
        <time>2014-09-21T09:26:22Z</time>
      </trkpt>
      <trkpt lat="43.34522" lon="-0.53544">
        <ele>219.798584</ele>
        <time>2014-09-21T09:26:25Z</time>
      </trkpt>
      <trkpt lat="43.34525" lon="-0.53498">
        <ele>219.798584</ele>
        <time>2014-09-21T09:26:32Z</time>
      </trkpt>
      <trkpt lat="43.34525" lon="-0.53485">
        <ele>219.798584</ele>
        <time>2014-09-21T09:26:34Z</time>
      </trkpt>
      <trkpt lat="43.34523" lon="-0.53474">
        <ele>219.798584</ele>
        <time>2014-09-21T09:26:36Z</time>
      </trkpt>
      <trkpt lat="43.34516" lon="-0.53456">
        <ele>219.317993</ele>
        <time>2014-09-21T09:26:39Z</time>
      </trkpt>
      <trkpt lat="43.34505" lon="-0.53429">
        <ele>218.83728</ele>
        <time>2014-09-21T09:26:44Z</time>
      </trkpt>
      <trkpt lat="43.34491" lon="-0.53376">
        <ele>221.240601</ele>
        <time>2014-09-21T09:26:55Z</time>
      </trkpt>
      <trkpt lat="43.34492" lon="-0.53346">
        <ele>223.643799</ele>
        <time>2014-09-21T09:27:05Z</time>
      </trkpt>
      <trkpt lat="43.34487" lon="-0.53317">
        <ele>224.124512</ele>
        <time>2014-09-21T09:27:16Z</time>
      </trkpt>
      <trkpt lat="43.34482" lon="-0.53308">
        <ele>223.163208</ele>
        <time>2014-09-21T09:27:18Z</time>
      </trkpt>
      <trkpt lat="43.34458" lon="-0.53263">
        <ele>222.682495</ele>
        <time>2014-09-21T09:27:28Z</time>
      </trkpt>
      <trkpt lat="43.34453" lon="-0.53252">
        <ele>222.682495</ele>
        <time>2014-09-21T09:27:30Z</time>
      </trkpt>
      <trkpt lat="43.34433" lon="-0.53197">
        <ele>222.201782</ele>
        <time>2014-09-21T09:27:38Z</time>
      </trkpt>
      <trkpt lat="43.34427" lon="-0.53161">
        <ele>221.721191</ele>
        <time>2014-09-21T09:27:43Z</time>
      </trkpt>
      <trkpt lat="43.34423" lon="-0.53091">
        <ele>223.643799</ele>
        <time>2014-09-21T09:27:55Z</time>
      </trkpt>
      <trkpt lat="43.3442" lon="-0.53061">
        <ele>223.643799</ele>
        <time>2014-09-21T09:28:01Z</time>
      </trkpt>
      <trkpt lat="43.34409" lon="-0.53039">
        <ele>223.163208</ele>
        <time>2014-09-21T09:28:05Z</time>
      </trkpt>
      <trkpt lat="43.34401" lon="-0.53023">
        <ele>223.163208</ele>
        <time>2014-09-21T09:28:08Z</time>
      </trkpt>
      <trkpt lat="43.34394" lon="-0.53013">
        <ele>222.682495</ele>
        <time>2014-09-21T09:28:10Z</time>
      </trkpt>
      <trkpt lat="43.3437" lon="-0.5299">
        <ele>221.721191</ele>
        <time>2014-09-21T09:28:15Z</time>
      </trkpt>
      <trkpt lat="43.34359" lon="-0.52987">
        <ele>222.201782</ele>
        <time>2014-09-21T09:28:17Z</time>
      </trkpt>
      <trkpt lat="43.34333" lon="-0.52997">
        <ele>222.682495</ele>
        <time>2014-09-21T09:28:23Z</time>
      </trkpt>
      <trkpt lat="43.34288" lon="-0.53029">
        <ele>224.124512</ele>
        <time>2014-09-21T09:28:36Z</time>
      </trkpt>
      <trkpt lat="43.34269" lon="-0.53053">
        <ele>223.163208</ele>
        <time>2014-09-21T09:28:43Z</time>
      </trkpt>
      <trkpt lat="43.34263" lon="-0.53073">
        <ele>222.682495</ele>
        <time>2014-09-21T09:28:46Z</time>
      </trkpt>
      <trkpt lat="43.34234" lon="-0.53114">
        <ele>222.682495</ele>
        <time>2014-09-21T09:28:55Z</time>
      </trkpt>
      <trkpt lat="43.34193" lon="-0.53162">
        <ele>223.163208</ele>
        <time>2014-09-21T09:29:07Z</time>
      </trkpt>
      <trkpt lat="43.34154" lon="-0.5318">
        <ele>222.682495</ele>
        <time>2014-09-21T09:29:17Z</time>
      </trkpt>
      <trkpt lat="43.34141" lon="-0.5318">
        <ele>221.240601</ele>
        <time>2014-09-21T09:29:19Z</time>
      </trkpt>
      <trkpt lat="43.34135" lon="-0.53179">
        <ele>221.240601</ele>
        <time>2014-09-21T09:29:20Z</time>
      </trkpt>
      <trkpt lat="43.3411" lon="-0.53177">
        <ele>220.759888</ele>
        <time>2014-09-21T09:29:24Z</time>
      </trkpt>
      <trkpt lat="43.34041" lon="-0.5318">
        <ele>217.395386</ele>
        <time>2014-09-21T09:29:36Z</time>
      </trkpt>
      <trkpt lat="43.34003" lon="-0.53172">
        <ele>215.472656</ele>
        <time>2014-09-21T09:29:42Z</time>
      </trkpt>
      <trkpt lat="43.33991" lon="-0.53168">
        <ele>213.550049</ele>
        <time>2014-09-21T09:29:45Z</time>
      </trkpt>
      <trkpt lat="43.33988" lon="-0.53167">
        <ele>213.550049</ele>
        <time>2014-09-21T09:29:46Z</time>
      </trkpt>
      <trkpt lat="43.33987" lon="-0.53189">
        <ele>211.146729</ele>
        <time>2014-09-21T09:29:52Z</time>
      </trkpt>
      <trkpt lat="43.33977" lon="-0.53204">
        <ele>207.782104</ele>
        <time>2014-09-21T09:29:56Z</time>
      </trkpt>
      <trkpt lat="43.33971" lon="-0.53212">
        <ele>206.820679</ele>
        <time>2014-09-21T09:29:58Z</time>
      </trkpt>
      <trkpt lat="43.33952" lon="-0.53224">
        <ele>202.494873</ele>
        <time>2014-09-21T09:30:02Z</time>
      </trkpt>
      <trkpt lat="43.33948" lon="-0.53226">
        <ele>201.052856</ele>
        <time>2014-09-21T09:30:03Z</time>
      </trkpt>
      <trkpt lat="43.33932" lon="-0.53228">
        <ele>199.61084</ele>
        <time>2014-09-21T09:30:07Z</time>
      </trkpt>
      <trkpt lat="43.33927" lon="-0.53222">
        <ele>198.649536</ele>
        <time>2014-09-21T09:30:11Z</time>
      </trkpt>
      <trkpt lat="43.33915" lon="-0.53218">
        <ele>198.168945</ele>
        <time>2014-09-21T09:30:17Z</time>
      </trkpt>
      <trkpt lat="43.33903" lon="-0.53193">
        <ele>197.688232</ele>
        <time>2014-09-21T09:30:24Z</time>
      </trkpt>
      <trkpt lat="43.33899" lon="-0.53193">
        <ele>197.20752</ele>
        <time>2014-09-21T09:30:27Z</time>
      </trkpt>
      <trkpt lat="43.33868" lon="-0.532">
        <ele>194.32373</ele>
        <time>2014-09-21T09:30:35Z</time>
      </trkpt>
      <trkpt lat="43.33852" lon="-0.53193">
        <ele>193.362305</ele>
        <time>2014-09-21T09:30:42Z</time>
      </trkpt>
      <trkpt lat="43.33828" lon="-0.53167">
        <ele>191.439575</ele>
        <time>2014-09-21T09:30:53Z</time>
      </trkpt>
      <trkpt lat="43.33822" lon="-0.53168">
        <ele>190.478394</ele>
        <time>2014-09-21T09:30:55Z</time>
      </trkpt>
      <trkpt lat="43.3381" lon="-0.53155">
        <ele>189.036377</ele>
        <time>2014-09-21T09:31:01Z</time>
      </trkpt>
      <trkpt lat="43.33805" lon="-0.53151">
        <ele>189.036377</ele>
        <time>2014-09-21T09:31:03Z</time>
      </trkpt>
      <trkpt lat="43.33799" lon="-0.53153">
        <ele>188.555786</ele>
        <time>2014-09-21T09:31:05Z</time>
      </trkpt>
      <trkpt lat="43.33787" lon="-0.53149">
        <ele>186.152466</ele>
        <time>2014-09-21T09:31:09Z</time>
      </trkpt>
      <trkpt lat="43.33775" lon="-0.53146">
        <ele>183.749023</ele>
        <time>2014-09-21T09:31:12Z</time>
      </trkpt>
      <trkpt lat="43.3375" lon="-0.53164">
        <ele>180.384521</ele>
        <time>2014-09-21T09:31:19Z</time>
      </trkpt>
      <trkpt lat="43.33735" lon="-0.53161">
        <ele>178.942627</ele>
        <time>2014-09-21T09:31:22Z</time>
      </trkpt>
      <trkpt lat="43.33724" lon="-0.53153">
        <ele>175.577881</ele>
        <time>2014-09-21T09:31:24Z</time>
      </trkpt>
      <trkpt lat="43.33715" lon="-0.53142">
        <ele>175.09729</ele>
        <time>2014-09-21T09:31:26Z</time>
      </trkpt>
      <trkpt lat="43.33701" lon="-0.53133">
        <ele>174.616577</ele>
        <time>2014-09-21T09:31:29Z</time>
      </trkpt>
      <trkpt lat="43.3368" lon="-0.53128">
        <ele>168.848755</ele>
        <time>2014-09-21T09:31:33Z</time>
      </trkpt>
      <trkpt lat="43.33676" lon="-0.53127">
        <ele>167.887329</ele>
        <time>2014-09-21T09:31:34Z</time>
      </trkpt>
      <trkpt lat="43.33659" lon="-0.53145">
        <ele>165.484131</ele>
        <time>2014-09-21T09:31:39Z</time>
      </trkpt>
      <trkpt lat="43.33631" lon="-0.53162">
        <ele>160.196899</ele>
        <time>2014-09-21T09:31:45Z</time>
      </trkpt>
      <trkpt lat="43.3362" lon="-0.53163">
        <ele>159.716187</ele>
        <time>2014-09-21T09:31:47Z</time>
      </trkpt>
      <trkpt lat="43.3359" lon="-0.53189">
        <ele>158.754761</ele>
        <time>2014-09-21T09:31:55Z</time>
      </trkpt>
      <trkpt lat="43.33564" lon="-0.53169">
        <ele>155.870972</ele>
        <time>2014-09-21T09:32:01Z</time>
      </trkpt>
      <trkpt lat="43.33558" lon="-0.5317">
        <ele>154.909546</ele>
        <time>2014-09-21T09:32:03Z</time>
      </trkpt>
      <trkpt lat="43.33552" lon="-0.53178">
        <ele>153.948364</ele>
        <time>2014-09-21T09:32:05Z</time>
      </trkpt>
      <trkpt lat="43.33542" lon="-0.53187">
        <ele>152.506348</ele>
        <time>2014-09-21T09:32:08Z</time>
      </trkpt>
      <trkpt lat="43.33536" lon="-0.53195">
        <ele>151.544922</ele>
        <time>2014-09-21T09:32:10Z</time>
      </trkpt>
      <trkpt lat="43.33526" lon="-0.53203">
        <ele>151.544922</ele>
        <time>2014-09-21T09:32:12Z</time>
      </trkpt>
      <trkpt lat="43.33483" lon="-0.53234">
        <ele>147.699707</ele>
        <time>2014-09-21T09:32:22Z</time>
      </trkpt>
      <trkpt lat="43.3347" lon="-0.53249">
        <ele>145.7771</ele>
        <time>2014-09-21T09:32:29Z</time>
      </trkpt>
      <trkpt lat="43.33452" lon="-0.5325">
        <ele>144.335205</ele>
        <time>2014-09-21T09:32:36Z</time>
      </trkpt>
      <trkpt lat="43.33439" lon="-0.53265">
        <ele>145.296387</ele>
        <time>2014-09-21T09:32:40Z</time>
      </trkpt>
      <trkpt lat="43.33414" lon="-0.53298">
        <ele>143.85437</ele>
        <time>2014-09-21T09:32:47Z</time>
      </trkpt>
      <trkpt lat="43.33355" lon="-0.53376">
        <ele>141.45105</ele>
        <time>2014-09-21T09:33:01Z</time>
      </trkpt>
      <trkpt lat="43.33264" lon="-0.53493">
        <ele>140.009155</ele>
        <time>2014-09-21T09:33:19Z</time>
      </trkpt>
      <trkpt lat="43.33178" lon="-0.53606">
        <ele>140.489868</ele>
        <time>2014-09-21T09:33:37Z</time>
      </trkpt>
      <trkpt lat="43.33093" lon="-0.53698">
        <ele>140.009155</ele>
        <time>2014-09-21T09:33:54Z</time>
      </trkpt>
      <trkpt lat="43.33006" lon="-0.53749">
        <ele>140.009155</ele>
        <time>2014-09-21T09:34:10Z</time>
      </trkpt>
      <trkpt lat="43.32999" lon="-0.53748">
        <ele>139.047852</ele>
        <time>2014-09-21T09:34:12Z</time>
      </trkpt>
      <trkpt lat="43.3297" lon="-0.53762">
        <ele>138.567261</ele>
        <time>2014-09-21T09:34:19Z</time>
      </trkpt>
      <trkpt lat="43.32945" lon="-0.53756">
        <ele>139.528442</ele>
        <time>2014-09-21T09:34:26Z</time>
      </trkpt>
      <trkpt lat="43.32923" lon="-0.53737">
        <ele>139.528442</ele>
        <time>2014-09-21T09:34:33Z</time>
      </trkpt>
      <trkpt lat="43.32901" lon="-0.53755">
        <ele>139.047852</ele>
        <time>2014-09-21T09:34:40Z</time>
      </trkpt>
      <trkpt lat="43.32875" lon="-0.53802">
        <ele>139.047852</ele>
        <time>2014-09-21T09:34:50Z</time>
      </trkpt>
      <trkpt lat="43.32874" lon="-0.53813">
        <ele>139.528442</ele>
        <time>2014-09-21T09:34:53Z</time>
      </trkpt>
      <trkpt lat="43.32883" lon="-0.53861">
        <ele>140.009155</ele>
        <time>2014-09-21T09:35:07Z</time>
      </trkpt>
      <trkpt lat="43.32883" lon="-0.53875">
        <ele>139.528442</ele>
        <time>2014-09-21T09:35:18Z</time>
      </trkpt>
      <trkpt lat="43.32885" lon="-0.53875">
        <ele>139.528442</ele>
        <time>2014-09-21T09:35:33Z</time>
      </trkpt>
      <trkpt lat="43.32884" lon="-0.53873">
        <ele>140.009155</ele>
        <time>2014-09-21T09:35:38Z</time>
      </trkpt>
    </trkseg>
  </trk>
</gpx>